<?xml version="1.0" encoding="UTF-8" standalone="no" ?>
<gpx xmlns="http://www.topografix.com/GPX/1/1" xmlns:xsi="http://www.w3.org/2001/XMLSchema-instance" xsi:schemaLocation="http://www.topografix.com/GPX/1/1 http://www.topografix.com/GPX/1/1/gpx.xsd" version="1.1" creator="VisuGPX - https://www.visugpx.com">
  <metadata>
    <name>Trail d'Aspremont</name>
    <desc><![CDATA[31 juillet 2010
23km, 850m D ]]></desc>
  </metadata>
  <trk>
    <name><![CDATA[Trail d'Aspremont]]></name>
    <cmt><![CDATA[26e / 52
Grosse chaleur sur les 8 premiers kms.
Manque de force dans les jambes...]]></cmt>
    <trkseg>
      <trkpt lat="43.78484" lon="7.24385">
        <ele>482.23999023438</ele>
        <time>2010-07-31T15:00:33Z</time>
      </trkpt>
      <trkpt lat="43.78484" lon="7.24385">
        <ele>482.7200012207</ele>
        <time>2010-07-31T15:00:36Z</time>
      </trkpt>
      <trkpt lat="43.78487" lon="7.24386">
        <ele>481.2799987793</ele>
        <time>2010-07-31T15:00:39Z</time>
      </trkpt>
      <trkpt lat="43.78489" lon="7.24387">
        <ele>482.7200012207</ele>
        <time>2010-07-31T15:00:40Z</time>
      </trkpt>
      <trkpt lat="43.78499" lon="7.2439">
        <ele>488.48999023438</ele>
        <time>2010-07-31T15:00:43Z</time>
      </trkpt>
      <trkpt lat="43.78502" lon="7.24391">
        <ele>483.67999267578</ele>
        <time>2010-07-31T15:00:44Z</time>
      </trkpt>
      <trkpt lat="43.78522" lon="7.24399">
        <ele>486.07998657227</ele>
        <time>2010-07-31T15:00:49Z</time>
      </trkpt>
      <trkpt lat="43.7854" lon="7.24408">
        <ele>489.45001220703</ele>
        <time>2010-07-31T15:00:55Z</time>
      </trkpt>
      <trkpt lat="43.78554" lon="7.24416">
        <ele>486.07998657227</ele>
        <time>2010-07-31T15:01:00Z</time>
      </trkpt>
      <trkpt lat="43.78557" lon="7.24417">
        <ele>489.45001220703</ele>
        <time>2010-07-31T15:01:01Z</time>
      </trkpt>
      <trkpt lat="43.78576" lon="7.24421">
        <ele>496.66000366211</ele>
        <time>2010-07-31T15:01:08Z</time>
      </trkpt>
      <trkpt lat="43.78579" lon="7.24421">
        <ele>492.80999755859</ele>
        <time>2010-07-31T15:01:09Z</time>
      </trkpt>
      <trkpt lat="43.78585" lon="7.24423">
        <ele>491.85000610352</ele>
        <time>2010-07-31T15:01:11Z</time>
      </trkpt>
      <trkpt lat="43.7859" lon="7.24424">
        <ele>488.9700012207</ele>
        <time>2010-07-31T15:01:13Z</time>
      </trkpt>
      <trkpt lat="43.78592" lon="7.24425">
        <ele>489.92999267578</ele>
        <time>2010-07-31T15:01:14Z</time>
      </trkpt>
      <trkpt lat="43.78594" lon="7.24425">
        <ele>494.73999023438</ele>
        <time>2010-07-31T15:01:15Z</time>
      </trkpt>
      <trkpt lat="43.78596" lon="7.24425">
        <ele>494.26000976562</ele>
        <time>2010-07-31T15:01:16Z</time>
      </trkpt>
      <trkpt lat="43.78605" lon="7.24423">
        <ele>496.17999267578</ele>
        <time>2010-07-31T15:01:19Z</time>
      </trkpt>
      <trkpt lat="43.78626" lon="7.24417">
        <ele>499.05999755859</ele>
        <time>2010-07-31T15:01:26Z</time>
      </trkpt>
      <trkpt lat="43.78644" lon="7.24406">
        <ele>499.05999755859</ele>
        <time>2010-07-31T15:01:33Z</time>
      </trkpt>
      <trkpt lat="43.78649" lon="7.24404">
        <ele>502.42999267578</ele>
        <time>2010-07-31T15:01:35Z</time>
      </trkpt>
      <trkpt lat="43.78651" lon="7.24402">
        <ele>501.45999145508</ele>
        <time>2010-07-31T15:01:36Z</time>
      </trkpt>
      <trkpt lat="43.78656" lon="7.24401">
        <ele>505.30999755859</ele>
        <time>2010-07-31T15:01:38Z</time>
      </trkpt>
      <trkpt lat="43.78671" lon="7.24401">
        <ele>505.79000854492</ele>
        <time>2010-07-31T15:01:44Z</time>
      </trkpt>
      <trkpt lat="43.78675" lon="7.244">
        <ele>506.75</ele>
        <time>2010-07-31T15:01:46Z</time>
      </trkpt>
      <trkpt lat="43.7868" lon="7.244">
        <ele>510.60000610352</ele>
        <time>2010-07-31T15:01:48Z</time>
      </trkpt>
      <trkpt lat="43.78682" lon="7.244">
        <ele>506.26998901367</ele>
        <time>2010-07-31T15:01:49Z</time>
      </trkpt>
      <trkpt lat="43.78684" lon="7.24399">
        <ele>512.03997802734</ele>
        <time>2010-07-31T15:01:50Z</time>
      </trkpt>
      <trkpt lat="43.78687" lon="7.24398">
        <ele>507.23001098633</ele>
        <time>2010-07-31T15:01:51Z</time>
      </trkpt>
      <trkpt lat="43.78689" lon="7.24398">
        <ele>513</ele>
        <time>2010-07-31T15:01:52Z</time>
      </trkpt>
      <trkpt lat="43.78691" lon="7.24397">
        <ele>508.19000244141</ele>
        <time>2010-07-31T15:01:53Z</time>
      </trkpt>
      <trkpt lat="43.78696" lon="7.24395">
        <ele>513.47998046875</ele>
        <time>2010-07-31T15:01:55Z</time>
      </trkpt>
      <trkpt lat="43.78699" lon="7.24395">
        <ele>512.03997802734</ele>
        <time>2010-07-31T15:01:56Z</time>
      </trkpt>
      <trkpt lat="43.78701" lon="7.24394">
        <ele>508.19000244141</ele>
        <time>2010-07-31T15:01:57Z</time>
      </trkpt>
      <trkpt lat="43.78704" lon="7.24394">
        <ele>510.60000610352</ele>
        <time>2010-07-31T15:01:58Z</time>
      </trkpt>
      <trkpt lat="43.78708" lon="7.24394">
        <ele>511.55999755859</ele>
        <time>2010-07-31T15:02:00Z</time>
      </trkpt>
      <trkpt lat="43.78714" lon="7.24395">
        <ele>507.70999145508</ele>
        <time>2010-07-31T15:02:03Z</time>
      </trkpt>
      <trkpt lat="43.78716" lon="7.24396">
        <ele>516.84997558594</ele>
        <time>2010-07-31T15:02:04Z</time>
      </trkpt>
      <trkpt lat="43.78718" lon="7.24397">
        <ele>513.47998046875</ele>
        <time>2010-07-31T15:02:05Z</time>
      </trkpt>
      <trkpt lat="43.78725" lon="7.24402">
        <ele>516.84997558594</ele>
        <time>2010-07-31T15:02:09Z</time>
      </trkpt>
      <trkpt lat="43.78742" lon="7.24418">
        <ele>519.72998046875</ele>
        <time>2010-07-31T15:02:17Z</time>
      </trkpt>
      <trkpt lat="43.78751" lon="7.24429">
        <ele>523.09002685547</ele>
        <time>2010-07-31T15:02:22Z</time>
      </trkpt>
      <trkpt lat="43.78758" lon="7.24439">
        <ele>519.25</ele>
        <time>2010-07-31T15:02:27Z</time>
      </trkpt>
      <trkpt lat="43.78759" lon="7.24441">
        <ele>524.05999755859</ele>
        <time>2010-07-31T15:02:28Z</time>
      </trkpt>
      <trkpt lat="43.7877" lon="7.24482">
        <ele>527.41998291016</ele>
        <time>2010-07-31T15:02:41Z</time>
      </trkpt>
      <trkpt lat="43.78783" lon="7.24512">
        <ele>530.78997802734</ele>
        <time>2010-07-31T15:02:52Z</time>
      </trkpt>
      <trkpt lat="43.78786" lon="7.24513">
        <ele>530.29998779297</ele>
        <time>2010-07-31T15:02:53Z</time>
      </trkpt>
      <trkpt lat="43.78804" lon="7.24516">
        <ele>534.63000488281</ele>
        <time>2010-07-31T15:03:02Z</time>
      </trkpt>
      <trkpt lat="43.78806" lon="7.24516">
        <ele>533.66998291016</ele>
        <time>2010-07-31T15:03:03Z</time>
      </trkpt>
      <trkpt lat="43.78811" lon="7.2452">
        <ele>535.10998535156</ele>
        <time>2010-07-31T15:03:06Z</time>
      </trkpt>
      <trkpt lat="43.78821" lon="7.24532">
        <ele>535.59002685547</ele>
        <time>2010-07-31T15:03:13Z</time>
      </trkpt>
      <trkpt lat="43.78823" lon="7.24535">
        <ele>539.44000244141</ele>
        <time>2010-07-31T15:03:15Z</time>
      </trkpt>
      <trkpt lat="43.78826" lon="7.24538">
        <ele>535.59002685547</ele>
        <time>2010-07-31T15:03:17Z</time>
      </trkpt>
      <trkpt lat="43.78827" lon="7.24539">
        <ele>539.44000244141</ele>
        <time>2010-07-31T15:03:18Z</time>
      </trkpt>
      <trkpt lat="43.78828" lon="7.24541">
        <ele>539.44000244141</ele>
        <time>2010-07-31T15:03:19Z</time>
      </trkpt>
      <trkpt lat="43.78834" lon="7.24548">
        <ele>542.32000732422</ele>
        <time>2010-07-31T15:03:24Z</time>
      </trkpt>
      <trkpt lat="43.78835" lon="7.2455">
        <ele>541.84002685547</ele>
        <time>2010-07-31T15:03:25Z</time>
      </trkpt>
      <trkpt lat="43.78839" lon="7.24556">
        <ele>544.23999023438</ele>
        <time>2010-07-31T15:03:28Z</time>
      </trkpt>
      <trkpt lat="43.7884" lon="7.24581">
        <ele>546.65002441406</ele>
        <time>2010-07-31T15:03:38Z</time>
      </trkpt>
      <trkpt lat="43.78835" lon="7.24586">
        <ele>543.28002929688</ele>
        <time>2010-07-31T15:03:41Z</time>
      </trkpt>
      <trkpt lat="43.78828" lon="7.24589">
        <ele>546.16998291016</ele>
        <time>2010-07-31T15:03:44Z</time>
      </trkpt>
      <trkpt lat="43.7882" lon="7.24594">
        <ele>548.57000732422</ele>
        <time>2010-07-31T15:03:48Z</time>
      </trkpt>
      <trkpt lat="43.78817" lon="7.24607">
        <ele>550.01000976562</ele>
        <time>2010-07-31T15:03:52Z</time>
      </trkpt>
      <trkpt lat="43.78819" lon="7.24614">
        <ele>548.57000732422</ele>
        <time>2010-07-31T15:03:54Z</time>
      </trkpt>
      <trkpt lat="43.78824" lon="7.24622">
        <ele>546.65002441406</ele>
        <time>2010-07-31T15:03:57Z</time>
      </trkpt>
      <trkpt lat="43.78828" lon="7.24626">
        <ele>550.96997070312</ele>
        <time>2010-07-31T15:03:59Z</time>
      </trkpt>
      <trkpt lat="43.7883" lon="7.24627">
        <ele>548.57000732422</ele>
        <time>2010-07-31T15:04:00Z</time>
      </trkpt>
      <trkpt lat="43.78832" lon="7.24628">
        <ele>552.90002441406</ele>
        <time>2010-07-31T15:04:01Z</time>
      </trkpt>
      <trkpt lat="43.78842" lon="7.24635">
        <ele>549.53002929688</ele>
        <time>2010-07-31T15:04:06Z</time>
      </trkpt>
      <trkpt lat="43.78844" lon="7.24636">
        <ele>550.48999023438</ele>
        <time>2010-07-31T15:04:07Z</time>
      </trkpt>
      <trkpt lat="43.78848" lon="7.24638">
        <ele>551.45001220703</ele>
        <time>2010-07-31T15:04:09Z</time>
      </trkpt>
      <trkpt lat="43.78851" lon="7.24641">
        <ele>554.82000732422</ele>
        <time>2010-07-31T15:04:11Z</time>
      </trkpt>
      <trkpt lat="43.78854" lon="7.24643">
        <ele>555.78002929688</ele>
        <time>2010-07-31T15:04:13Z</time>
      </trkpt>
      <trkpt lat="43.78875" lon="7.24652">
        <ele>559.14001464844</ele>
        <time>2010-07-31T15:04:23Z</time>
      </trkpt>
      <trkpt lat="43.78879" lon="7.24651">
        <ele>558.17999267578</ele>
        <time>2010-07-31T15:04:25Z</time>
      </trkpt>
      <trkpt lat="43.78883" lon="7.24651">
        <ele>559.14001464844</ele>
        <time>2010-07-31T15:04:27Z</time>
      </trkpt>
      <trkpt lat="43.78883" lon="7.24652">
        <ele>558.17999267578</ele>
        <time>2010-07-31T15:04:29Z</time>
      </trkpt>
      <trkpt lat="43.78884" lon="7.24664">
        <ele>563.95001220703</ele>
        <time>2010-07-31T15:04:36Z</time>
      </trkpt>
      <trkpt lat="43.78885" lon="7.24665">
        <ele>562.51000976562</ele>
        <time>2010-07-31T15:04:37Z</time>
      </trkpt>
      <trkpt lat="43.78886" lon="7.24666">
        <ele>565.86999511719</ele>
        <time>2010-07-31T15:04:38Z</time>
      </trkpt>
      <trkpt lat="43.78888" lon="7.24668">
        <ele>562.03002929688</ele>
        <time>2010-07-31T15:04:39Z</time>
      </trkpt>
      <trkpt lat="43.78889" lon="7.24669">
        <ele>565.86999511719</ele>
        <time>2010-07-31T15:04:40Z</time>
      </trkpt>
      <trkpt lat="43.78899" lon="7.24685">
        <ele>565.39001464844</ele>
        <time>2010-07-31T15:04:49Z</time>
      </trkpt>
      <trkpt lat="43.78902" lon="7.24692">
        <ele>567.79998779297</ele>
        <time>2010-07-31T15:04:53Z</time>
      </trkpt>
      <trkpt lat="43.78903" lon="7.24696">
        <ele>572.11999511719</ele>
        <time>2010-07-31T15:04:55Z</time>
      </trkpt>
      <trkpt lat="43.78904" lon="7.24699">
        <ele>570.20001220703</ele>
        <time>2010-07-31T15:04:56Z</time>
      </trkpt>
      <trkpt lat="43.78905" lon="7.24707">
        <ele>573.55999755859</ele>
        <time>2010-07-31T15:04:59Z</time>
      </trkpt>
      <trkpt lat="43.78907" lon="7.24719">
        <ele>573.08001708984</ele>
        <time>2010-07-31T15:05:04Z</time>
      </trkpt>
      <trkpt lat="43.78908" lon="7.24723">
        <ele>574.03997802734</ele>
        <time>2010-07-31T15:05:06Z</time>
      </trkpt>
      <trkpt lat="43.7891" lon="7.24731">
        <ele>577.40997314453</ele>
        <time>2010-07-31T15:05:10Z</time>
      </trkpt>
      <trkpt lat="43.7891" lon="7.24733">
        <ele>579.33001708984</ele>
        <time>2010-07-31T15:05:11Z</time>
      </trkpt>
      <trkpt lat="43.78912" lon="7.24742">
        <ele>577.89001464844</ele>
        <time>2010-07-31T15:05:15Z</time>
      </trkpt>
      <trkpt lat="43.78916" lon="7.24755">
        <ele>580.28997802734</ele>
        <time>2010-07-31T15:05:23Z</time>
      </trkpt>
      <trkpt lat="43.78919" lon="7.2476">
        <ele>583.17999267578</ele>
        <time>2010-07-31T15:05:27Z</time>
      </trkpt>
      <trkpt lat="43.7892" lon="7.24762">
        <ele>579.33001708984</ele>
        <time>2010-07-31T15:05:29Z</time>
      </trkpt>
      <trkpt lat="43.78926" lon="7.24768">
        <ele>582.21997070312</ele>
        <time>2010-07-31T15:05:36Z</time>
      </trkpt>
      <trkpt lat="43.78931" lon="7.24773">
        <ele>584.61999511719</ele>
        <time>2010-07-31T15:05:42Z</time>
      </trkpt>
      <trkpt lat="43.7894" lon="7.24783">
        <ele>585.09997558594</ele>
        <time>2010-07-31T15:05:52Z</time>
      </trkpt>
      <trkpt lat="43.78943" lon="7.24785">
        <ele>587.97998046875</ele>
        <time>2010-07-31T15:05:55Z</time>
      </trkpt>
      <trkpt lat="43.7895" lon="7.24794">
        <ele>590.86999511719</ele>
        <time>2010-07-31T15:06:05Z</time>
      </trkpt>
      <trkpt lat="43.78971" lon="7.24787">
        <ele>592.78997802734</ele>
        <time>2010-07-31T15:06:16Z</time>
      </trkpt>
      <trkpt lat="43.78982" lon="7.24781">
        <ele>595.19000244141</ele>
        <time>2010-07-31T15:06:21Z</time>
      </trkpt>
      <trkpt lat="43.78991" lon="7.24779">
        <ele>597.59997558594</ele>
        <time>2010-07-31T15:06:29Z</time>
      </trkpt>
      <trkpt lat="43.78992" lon="7.24779">
        <ele>597.11999511719</ele>
        <time>2010-07-31T15:06:30Z</time>
      </trkpt>
      <trkpt lat="43.78996" lon="7.24777">
        <ele>599.03997802734</ele>
        <time>2010-07-31T15:06:33Z</time>
      </trkpt>
      <trkpt lat="43.79008" lon="7.24772">
        <ele>601.44000244141</ele>
        <time>2010-07-31T15:06:40Z</time>
      </trkpt>
      <trkpt lat="43.79019" lon="7.24768">
        <ele>604.80999755859</ele>
        <time>2010-07-31T15:06:49Z</time>
      </trkpt>
      <trkpt lat="43.79047" lon="7.24759">
        <ele>608.65002441406</ele>
        <time>2010-07-31T15:07:03Z</time>
      </trkpt>
      <trkpt lat="43.79057" lon="7.24757">
        <ele>609.60998535156</ele>
        <time>2010-07-31T15:07:09Z</time>
      </trkpt>
      <trkpt lat="43.79064" lon="7.24758">
        <ele>611.05999755859</ele>
        <time>2010-07-31T15:07:15Z</time>
      </trkpt>
      <trkpt lat="43.79068" lon="7.2476">
        <ele>612.97998046875</ele>
        <time>2010-07-31T15:07:19Z</time>
      </trkpt>
      <trkpt lat="43.79077" lon="7.24762">
        <ele>615.85998535156</ele>
        <time>2010-07-31T15:07:26Z</time>
      </trkpt>
      <trkpt lat="43.7909" lon="7.24759">
        <ele>616.82000732422</ele>
        <time>2010-07-31T15:07:36Z</time>
      </trkpt>
      <trkpt lat="43.79112" lon="7.2475">
        <ele>620.19000244141</ele>
        <time>2010-07-31T15:07:47Z</time>
      </trkpt>
      <trkpt lat="43.79128" lon="7.24749">
        <ele>623.54998779297</ele>
        <time>2010-07-31T15:07:58Z</time>
      </trkpt>
      <trkpt lat="43.79129" lon="7.24749">
        <ele>624.03002929688</ele>
        <time>2010-07-31T15:07:59Z</time>
      </trkpt>
      <trkpt lat="43.79137" lon="7.24747">
        <ele>626.91998291016</ele>
        <time>2010-07-31T15:08:07Z</time>
      </trkpt>
      <trkpt lat="43.7914" lon="7.24745">
        <ele>627.88000488281</ele>
        <time>2010-07-31T15:08:09Z</time>
      </trkpt>
      <trkpt lat="43.79159" lon="7.24743">
        <ele>630.76000976562</ele>
        <time>2010-07-31T15:08:22Z</time>
      </trkpt>
      <trkpt lat="43.79167" lon="7.24743">
        <ele>633.16998291016</ele>
        <time>2010-07-31T15:08:26Z</time>
      </trkpt>
      <trkpt lat="43.79194" lon="7.24751">
        <ele>634.60998535156</ele>
        <time>2010-07-31T15:08:39Z</time>
      </trkpt>
      <trkpt lat="43.79211" lon="7.24765">
        <ele>637.01000976562</ele>
        <time>2010-07-31T15:08:49Z</time>
      </trkpt>
      <trkpt lat="43.79238" lon="7.24772">
        <ele>640.85998535156</ele>
        <time>2010-07-31T15:09:03Z</time>
      </trkpt>
      <trkpt lat="43.79264" lon="7.24773">
        <ele>643.73999023438</ele>
        <time>2010-07-31T15:09:16Z</time>
      </trkpt>
      <trkpt lat="43.79274" lon="7.2478">
        <ele>646.14001464844</ele>
        <time>2010-07-31T15:09:23Z</time>
      </trkpt>
      <trkpt lat="43.79287" lon="7.24787">
        <ele>649.51000976562</ele>
        <time>2010-07-31T15:09:32Z</time>
      </trkpt>
      <trkpt lat="43.79307" lon="7.24813">
        <ele>650.95001220703</ele>
        <time>2010-07-31T15:09:44Z</time>
      </trkpt>
      <trkpt lat="43.79331" lon="7.24824">
        <ele>651.90997314453</ele>
        <time>2010-07-31T15:09:55Z</time>
      </trkpt>
      <trkpt lat="43.79335" lon="7.24826">
        <ele>651.90997314453</ele>
        <time>2010-07-31T15:09:57Z</time>
      </trkpt>
      <trkpt lat="43.7935" lon="7.24834">
        <ele>654.79998779297</ele>
        <time>2010-07-31T15:10:05Z</time>
      </trkpt>
      <trkpt lat="43.79353" lon="7.24834">
        <ele>655.28002929688</ele>
        <time>2010-07-31T15:10:07Z</time>
      </trkpt>
      <trkpt lat="43.79357" lon="7.24828">
        <ele>656.23999023438</ele>
        <time>2010-07-31T15:10:12Z</time>
      </trkpt>
      <trkpt lat="43.79346" lon="7.24819">
        <ele>658.15997314453</ele>
        <time>2010-07-31T15:10:18Z</time>
      </trkpt>
      <trkpt lat="43.79341" lon="7.24812">
        <ele>659.11999511719</ele>
        <time>2010-07-31T15:10:22Z</time>
      </trkpt>
      <trkpt lat="43.79335" lon="7.24792">
        <ele>661.52001953125</ele>
        <time>2010-07-31T15:10:30Z</time>
      </trkpt>
      <trkpt lat="43.79338" lon="7.24775">
        <ele>663.45001220703</ele>
        <time>2010-07-31T15:10:36Z</time>
      </trkpt>
      <trkpt lat="43.79345" lon="7.24726">
        <ele>665.36999511719</ele>
        <time>2010-07-31T15:10:51Z</time>
      </trkpt>
      <trkpt lat="43.79359" lon="7.24673">
        <ele>666.80999755859</ele>
        <time>2010-07-31T15:11:07Z</time>
      </trkpt>
      <trkpt lat="43.79376" lon="7.24633">
        <ele>667.77001953125</ele>
        <time>2010-07-31T15:11:20Z</time>
      </trkpt>
      <trkpt lat="43.79402" lon="7.24592">
        <ele>670.65997314453</ele>
        <time>2010-07-31T15:11:36Z</time>
      </trkpt>
      <trkpt lat="43.79421" lon="7.24571">
        <ele>672.09997558594</ele>
        <time>2010-07-31T15:11:46Z</time>
      </trkpt>
      <trkpt lat="43.79448" lon="7.24543">
        <ele>672.58001708984</ele>
        <time>2010-07-31T15:11:59Z</time>
      </trkpt>
      <trkpt lat="43.79478" lon="7.24515">
        <ele>674.02001953125</ele>
        <time>2010-07-31T15:12:12Z</time>
      </trkpt>
      <trkpt lat="43.79511" lon="7.24485">
        <ele>676.90997314453</ele>
        <time>2010-07-31T15:12:27Z</time>
      </trkpt>
      <trkpt lat="43.79543" lon="7.24458">
        <ele>679.78997802734</ele>
        <time>2010-07-31T15:12:41Z</time>
      </trkpt>
      <trkpt lat="43.79564" lon="7.24433">
        <ele>681.22998046875</ele>
        <time>2010-07-31T15:12:51Z</time>
      </trkpt>
      <trkpt lat="43.79595" lon="7.244">
        <ele>683.15002441406</ele>
        <time>2010-07-31T15:13:05Z</time>
      </trkpt>
      <trkpt lat="43.79607" lon="7.24385">
        <ele>684.59997558594</ele>
        <time>2010-07-31T15:13:11Z</time>
      </trkpt>
      <trkpt lat="43.79633" lon="7.24356">
        <ele>687.47998046875</ele>
        <time>2010-07-31T15:13:24Z</time>
      </trkpt>
      <trkpt lat="43.79659" lon="7.2433">
        <ele>688.91998291016</ele>
        <time>2010-07-31T15:13:36Z</time>
      </trkpt>
      <trkpt lat="43.79684" lon="7.24288">
        <ele>691.33001708984</ele>
        <time>2010-07-31T15:13:50Z</time>
      </trkpt>
      <trkpt lat="43.79709" lon="7.24234">
        <ele>692.77001953125</ele>
        <time>2010-07-31T15:14:06Z</time>
      </trkpt>
      <trkpt lat="43.79729" lon="7.24193">
        <ele>695.16998291016</ele>
        <time>2010-07-31T15:14:19Z</time>
      </trkpt>
      <trkpt lat="43.79731" lon="7.24172">
        <ele>691.33001708984</ele>
        <time>2010-07-31T15:14:25Z</time>
      </trkpt>
      <trkpt lat="43.79731" lon="7.24168">
        <ele>691.80999755859</ele>
        <time>2010-07-31T15:14:26Z</time>
      </trkpt>
      <trkpt lat="43.79751" lon="7.24131">
        <ele>693.25</ele>
        <time>2010-07-31T15:14:38Z</time>
      </trkpt>
      <trkpt lat="43.79757" lon="7.24117">
        <ele>694.69000244141</ele>
        <time>2010-07-31T15:14:43Z</time>
      </trkpt>
      <trkpt lat="43.79774" lon="7.24087">
        <ele>697.57000732422</ele>
        <time>2010-07-31T15:14:55Z</time>
      </trkpt>
      <trkpt lat="43.7981" lon="7.24077">
        <ele>699.02001953125</ele>
        <time>2010-07-31T15:15:09Z</time>
      </trkpt>
      <trkpt lat="43.79828" lon="7.24074">
        <ele>701.41998291016</ele>
        <time>2010-07-31T15:15:17Z</time>
      </trkpt>
      <trkpt lat="43.79852" lon="7.2407">
        <ele>704.29998779297</ele>
        <time>2010-07-31T15:15:28Z</time>
      </trkpt>
      <trkpt lat="43.79873" lon="7.24065">
        <ele>706.22998046875</ele>
        <time>2010-07-31T15:15:37Z</time>
      </trkpt>
      <trkpt lat="43.79887" lon="7.24078">
        <ele>708.15002441406</ele>
        <time>2010-07-31T15:15:48Z</time>
      </trkpt>
      <trkpt lat="43.79893" lon="7.24082">
        <ele>710.07000732422</ele>
        <time>2010-07-31T15:15:53Z</time>
      </trkpt>
      <trkpt lat="43.79894" lon="7.24083">
        <ele>710.54998779297</ele>
        <time>2010-07-31T15:15:54Z</time>
      </trkpt>
      <trkpt lat="43.79896" lon="7.24087">
        <ele>711.98999023438</ele>
        <time>2010-07-31T15:15:58Z</time>
      </trkpt>
      <trkpt lat="43.799" lon="7.2409">
        <ele>711.98999023438</ele>
        <time>2010-07-31T15:16:02Z</time>
      </trkpt>
      <trkpt lat="43.79906" lon="7.24091">
        <ele>711.98999023438</ele>
        <time>2010-07-31T15:16:07Z</time>
      </trkpt>
      <trkpt lat="43.79914" lon="7.24092">
        <ele>712.95001220703</ele>
        <time>2010-07-31T15:16:11Z</time>
      </trkpt>
      <trkpt lat="43.79923" lon="7.24104">
        <ele>714.88000488281</ele>
        <time>2010-07-31T15:16:18Z</time>
      </trkpt>
      <trkpt lat="43.79939" lon="7.2412">
        <ele>716.32000732422</ele>
        <time>2010-07-31T15:16:27Z</time>
      </trkpt>
      <trkpt lat="43.79942" lon="7.24123">
        <ele>716.79998779297</ele>
        <time>2010-07-31T15:16:29Z</time>
      </trkpt>
      <trkpt lat="43.79948" lon="7.24132">
        <ele>717.76000976562</ele>
        <time>2010-07-31T15:16:34Z</time>
      </trkpt>
      <trkpt lat="43.7995" lon="7.24139">
        <ele>719.20001220703</ele>
        <time>2010-07-31T15:16:37Z</time>
      </trkpt>
      <trkpt lat="43.7995" lon="7.24141">
        <ele>719.67999267578</ele>
        <time>2010-07-31T15:16:38Z</time>
      </trkpt>
      <trkpt lat="43.79956" lon="7.24159">
        <ele>723.04998779297</ele>
        <time>2010-07-31T15:16:49Z</time>
      </trkpt>
      <trkpt lat="43.79958" lon="7.24167">
        <ele>723.53002929688</ele>
        <time>2010-07-31T15:16:54Z</time>
      </trkpt>
      <trkpt lat="43.79959" lon="7.24173">
        <ele>724.96997070312</ele>
        <time>2010-07-31T15:16:58Z</time>
      </trkpt>
      <trkpt lat="43.79961" lon="7.24181">
        <ele>725.45001220703</ele>
        <time>2010-07-31T15:17:03Z</time>
      </trkpt>
      <trkpt lat="43.79964" lon="7.24186">
        <ele>727.36999511719</ele>
        <time>2010-07-31T15:17:07Z</time>
      </trkpt>
      <trkpt lat="43.79966" lon="7.2419">
        <ele>727.36999511719</ele>
        <time>2010-07-31T15:17:10Z</time>
      </trkpt>
      <trkpt lat="43.79969" lon="7.24193">
        <ele>728.34002685547</ele>
        <time>2010-07-31T15:17:14Z</time>
      </trkpt>
      <trkpt lat="43.79973" lon="7.24201">
        <ele>730.26000976562</ele>
        <time>2010-07-31T15:17:20Z</time>
      </trkpt>
      <trkpt lat="43.7998" lon="7.24204">
        <ele>731.21997070312</ele>
        <time>2010-07-31T15:17:25Z</time>
      </trkpt>
      <trkpt lat="43.79991" lon="7.24207">
        <ele>732.17999267578</ele>
        <time>2010-07-31T15:17:30Z</time>
      </trkpt>
      <trkpt lat="43.79995" lon="7.24211">
        <ele>733.14001464844</ele>
        <time>2010-07-31T15:17:32Z</time>
      </trkpt>
      <trkpt lat="43.79999" lon="7.24215">
        <ele>733.14001464844</ele>
        <time>2010-07-31T15:17:34Z</time>
      </trkpt>
      <trkpt lat="43.80002" lon="7.24238">
        <ele>729.78002929688</ele>
        <time>2010-07-31T15:17:41Z</time>
      </trkpt>
      <trkpt lat="43.80004" lon="7.24255">
        <ele>732.17999267578</ele>
        <time>2010-07-31T15:17:46Z</time>
      </trkpt>
      <trkpt lat="43.80005" lon="7.24266">
        <ele>730.73999023438</ele>
        <time>2010-07-31T15:17:49Z</time>
      </trkpt>
      <trkpt lat="43.80006" lon="7.24277">
        <ele>730.26000976562</ele>
        <time>2010-07-31T15:17:53Z</time>
      </trkpt>
      <trkpt lat="43.80013" lon="7.24314">
        <ele>727.85998535156</ele>
        <time>2010-07-31T15:18:03Z</time>
      </trkpt>
      <trkpt lat="43.80021" lon="7.24355">
        <ele>725.45001220703</ele>
        <time>2010-07-31T15:18:13Z</time>
      </trkpt>
      <trkpt lat="43.80022" lon="7.24362">
        <ele>725.45001220703</ele>
        <time>2010-07-31T15:18:15Z</time>
      </trkpt>
      <trkpt lat="43.80026" lon="7.24377">
        <ele>724.48999023438</ele>
        <time>2010-07-31T15:18:19Z</time>
      </trkpt>
      <trkpt lat="43.80038" lon="7.24399">
        <ele>720.15997314453</ele>
        <time>2010-07-31T15:18:27Z</time>
      </trkpt>
      <trkpt lat="43.8004" lon="7.24398">
        <ele>720.15997314453</ele>
        <time>2010-07-31T15:18:28Z</time>
      </trkpt>
      <trkpt lat="43.80045" lon="7.24394">
        <ele>718.71997070312</ele>
        <time>2010-07-31T15:18:30Z</time>
      </trkpt>
      <trkpt lat="43.80049" lon="7.2439">
        <ele>716.79998779297</ele>
        <time>2010-07-31T15:18:32Z</time>
      </trkpt>
      <trkpt lat="43.80053" lon="7.24386">
        <ele>716.79998779297</ele>
        <time>2010-07-31T15:18:34Z</time>
      </trkpt>
      <trkpt lat="43.80066" lon="7.24386">
        <ele>713.44000244141</ele>
        <time>2010-07-31T15:18:38Z</time>
      </trkpt>
      <trkpt lat="43.80082" lon="7.24394">
        <ele>710.07000732422</ele>
        <time>2010-07-31T15:18:43Z</time>
      </trkpt>
      <trkpt lat="43.80104" lon="7.24411">
        <ele>706.71002197266</ele>
        <time>2010-07-31T15:18:51Z</time>
      </trkpt>
      <trkpt lat="43.80114" lon="7.24426">
        <ele>705.75</ele>
        <time>2010-07-31T15:18:56Z</time>
      </trkpt>
      <trkpt lat="43.80119" lon="7.24436">
        <ele>703.82000732422</ele>
        <time>2010-07-31T15:19:00Z</time>
      </trkpt>
      <trkpt lat="43.80125" lon="7.24436">
        <ele>701.41998291016</ele>
        <time>2010-07-31T15:19:05Z</time>
      </trkpt>
      <trkpt lat="43.80125" lon="7.24429">
        <ele>699.97998046875</ele>
        <time>2010-07-31T15:19:07Z</time>
      </trkpt>
      <trkpt lat="43.80124" lon="7.24422">
        <ele>698.53002929688</ele>
        <time>2010-07-31T15:19:09Z</time>
      </trkpt>
      <trkpt lat="43.80124" lon="7.24418">
        <ele>698.04998779297</ele>
        <time>2010-07-31T15:19:10Z</time>
      </trkpt>
      <trkpt lat="43.80123" lon="7.24407">
        <ele>697.09002685547</ele>
        <time>2010-07-31T15:19:13Z</time>
      </trkpt>
      <trkpt lat="43.80117" lon="7.24387">
        <ele>693.72998046875</ele>
        <time>2010-07-31T15:19:19Z</time>
      </trkpt>
      <trkpt lat="43.80117" lon="7.24383">
        <ele>692.77001953125</ele>
        <time>2010-07-31T15:19:20Z</time>
      </trkpt>
      <trkpt lat="43.80112" lon="7.24367">
        <ele>689.40002441406</ele>
        <time>2010-07-31T15:19:25Z</time>
      </trkpt>
      <trkpt lat="43.8011" lon="7.24336">
        <ele>686.03997802734</ele>
        <time>2010-07-31T15:19:32Z</time>
      </trkpt>
      <trkpt lat="43.8011" lon="7.24331">
        <ele>686.03997802734</ele>
        <time>2010-07-31T15:19:33Z</time>
      </trkpt>
      <trkpt lat="43.8011" lon="7.2431">
        <ele>683.63000488281</ele>
        <time>2010-07-31T15:19:38Z</time>
      </trkpt>
      <trkpt lat="43.8011" lon="7.24298">
        <ele>680.27001953125</ele>
        <time>2010-07-31T15:19:42Z</time>
      </trkpt>
      <trkpt lat="43.80115" lon="7.24301">
        <ele>678.34997558594</ele>
        <time>2010-07-31T15:19:45Z</time>
      </trkpt>
      <trkpt lat="43.80124" lon="7.2431">
        <ele>676.90997314453</ele>
        <time>2010-07-31T15:19:49Z</time>
      </trkpt>
      <trkpt lat="43.80133" lon="7.24319">
        <ele>674.5</ele>
        <time>2010-07-31T15:19:54Z</time>
      </trkpt>
      <trkpt lat="43.80146" lon="7.24324">
        <ele>670.65997314453</ele>
        <time>2010-07-31T15:20:00Z</time>
      </trkpt>
      <trkpt lat="43.80148" lon="7.24324">
        <ele>670.65997314453</ele>
        <time>2010-07-31T15:20:01Z</time>
      </trkpt>
      <trkpt lat="43.80149" lon="7.24306">
        <ele>666.80999755859</ele>
        <time>2010-07-31T15:20:06Z</time>
      </trkpt>
      <trkpt lat="43.80149" lon="7.24293">
        <ele>663.92999267578</ele>
        <time>2010-07-31T15:20:09Z</time>
      </trkpt>
      <trkpt lat="43.80149" lon="7.2429">
        <ele>663.92999267578</ele>
        <time>2010-07-31T15:20:10Z</time>
      </trkpt>
      <trkpt lat="43.80152" lon="7.24275">
        <ele>660.55999755859</ele>
        <time>2010-07-31T15:20:16Z</time>
      </trkpt>
      <trkpt lat="43.80152" lon="7.24269">
        <ele>659.11999511719</ele>
        <time>2010-07-31T15:20:18Z</time>
      </trkpt>
      <trkpt lat="43.80154" lon="7.24259">
        <ele>656.71997070312</ele>
        <time>2010-07-31T15:20:21Z</time>
      </trkpt>
      <trkpt lat="43.80155" lon="7.24258">
        <ele>656.23999023438</ele>
        <time>2010-07-31T15:20:22Z</time>
      </trkpt>
      <trkpt lat="43.80161" lon="7.2425">
        <ele>653.34997558594</ele>
        <time>2010-07-31T15:20:27Z</time>
      </trkpt>
      <trkpt lat="43.80163" lon="7.24238">
        <ele>649.98999023438</ele>
        <time>2010-07-31T15:20:31Z</time>
      </trkpt>
      <trkpt lat="43.80164" lon="7.24227">
        <ele>648.07000732422</ele>
        <time>2010-07-31T15:20:34Z</time>
      </trkpt>
      <trkpt lat="43.80164" lon="7.24219">
        <ele>646.61999511719</ele>
        <time>2010-07-31T15:20:36Z</time>
      </trkpt>
      <trkpt lat="43.80172" lon="7.24205">
        <ele>641.82000732422</ele>
        <time>2010-07-31T15:20:42Z</time>
      </trkpt>
      <trkpt lat="43.80183" lon="7.2418">
        <ele>638.45001220703</ele>
        <time>2010-07-31T15:20:49Z</time>
      </trkpt>
      <trkpt lat="43.80191" lon="7.2416">
        <ele>634.60998535156</ele>
        <time>2010-07-31T15:20:55Z</time>
      </trkpt>
      <trkpt lat="43.80197" lon="7.24147">
        <ele>631.23999023438</ele>
        <time>2010-07-31T15:20:59Z</time>
      </trkpt>
      <trkpt lat="43.80201" lon="7.2414">
        <ele>629.79998779297</ele>
        <time>2010-07-31T15:21:02Z</time>
      </trkpt>
      <trkpt lat="43.80209" lon="7.24132">
        <ele>626.44000244141</ele>
        <time>2010-07-31T15:21:06Z</time>
      </trkpt>
      <trkpt lat="43.80215" lon="7.24123">
        <ele>624.03002929688</ele>
        <time>2010-07-31T15:21:10Z</time>
      </trkpt>
      <trkpt lat="43.80217" lon="7.24119">
        <ele>623.07000732422</ele>
        <time>2010-07-31T15:21:11Z</time>
      </trkpt>
      <trkpt lat="43.80223" lon="7.24096">
        <ele>619.71002197266</ele>
        <time>2010-07-31T15:21:17Z</time>
      </trkpt>
      <trkpt lat="43.80225" lon="7.24086">
        <ele>617.78002929688</ele>
        <time>2010-07-31T15:21:20Z</time>
      </trkpt>
      <trkpt lat="43.80227" lon="7.24079">
        <ele>616.34002685547</ele>
        <time>2010-07-31T15:21:22Z</time>
      </trkpt>
      <trkpt lat="43.80235" lon="7.2407">
        <ele>612.97998046875</ele>
        <time>2010-07-31T15:21:27Z</time>
      </trkpt>
      <trkpt lat="43.80237" lon="7.24068">
        <ele>611.53997802734</ele>
        <time>2010-07-31T15:21:29Z</time>
      </trkpt>
      <trkpt lat="43.80238" lon="7.24063">
        <ele>610.57000732422</ele>
        <time>2010-07-31T15:21:31Z</time>
      </trkpt>
      <trkpt lat="43.80239" lon="7.24057">
        <ele>609.13000488281</ele>
        <time>2010-07-31T15:21:33Z</time>
      </trkpt>
      <trkpt lat="43.8024" lon="7.24042">
        <ele>605.28997802734</ele>
        <time>2010-07-31T15:21:37Z</time>
      </trkpt>
      <trkpt lat="43.80241" lon="7.24035">
        <ele>603.84997558594</ele>
        <time>2010-07-31T15:21:39Z</time>
      </trkpt>
      <trkpt lat="43.80241" lon="7.24023">
        <ele>600.96002197266</ele>
        <time>2010-07-31T15:21:42Z</time>
      </trkpt>
      <trkpt lat="43.80241" lon="7.24019">
        <ele>599.03997802734</ele>
        <time>2010-07-31T15:21:43Z</time>
      </trkpt>
      <trkpt lat="43.8024" lon="7.24008">
        <ele>597.59997558594</ele>
        <time>2010-07-31T15:21:46Z</time>
      </trkpt>
      <trkpt lat="43.80239" lon="7.24">
        <ele>595.19000244141</ele>
        <time>2010-07-31T15:21:49Z</time>
      </trkpt>
      <trkpt lat="43.8024" lon="7.23993">
        <ele>592.78997802734</ele>
        <time>2010-07-31T15:21:51Z</time>
      </trkpt>
      <trkpt lat="43.80242" lon="7.23979">
        <ele>590.86999511719</ele>
        <time>2010-07-31T15:21:55Z</time>
      </trkpt>
      <trkpt lat="43.80241" lon="7.23964">
        <ele>587.5</ele>
        <time>2010-07-31T15:22:00Z</time>
      </trkpt>
      <trkpt lat="43.8024" lon="7.23961">
        <ele>587.02001953125</ele>
        <time>2010-07-31T15:22:01Z</time>
      </trkpt>
      <trkpt lat="43.80241" lon="7.23949">
        <ele>583.65997314453</ele>
        <time>2010-07-31T15:22:05Z</time>
      </trkpt>
      <trkpt lat="43.80241" lon="7.23946">
        <ele>583.17999267578</ele>
        <time>2010-07-31T15:22:06Z</time>
      </trkpt>
      <trkpt lat="43.80242" lon="7.23939">
        <ele>581.72998046875</ele>
        <time>2010-07-31T15:22:08Z</time>
      </trkpt>
      <trkpt lat="43.80241" lon="7.23932">
        <ele>580.28997802734</ele>
        <time>2010-07-31T15:22:10Z</time>
      </trkpt>
      <trkpt lat="43.80241" lon="7.23929">
        <ele>578.36999511719</ele>
        <time>2010-07-31T15:22:11Z</time>
      </trkpt>
      <trkpt lat="43.80243" lon="7.23918">
        <ele>576.45001220703</ele>
        <time>2010-07-31T15:22:17Z</time>
      </trkpt>
      <trkpt lat="43.80244" lon="7.23916">
        <ele>575.96997070312</ele>
        <time>2010-07-31T15:22:18Z</time>
      </trkpt>
      <trkpt lat="43.80248" lon="7.2391">
        <ele>572.59997558594</ele>
        <time>2010-07-31T15:22:23Z</time>
      </trkpt>
      <trkpt lat="43.80251" lon="7.23901">
        <ele>569.71997070312</ele>
        <time>2010-07-31T15:22:28Z</time>
      </trkpt>
      <trkpt lat="43.8025" lon="7.23894">
        <ele>568.28002929688</ele>
        <time>2010-07-31T15:22:30Z</time>
      </trkpt>
      <trkpt lat="43.80247" lon="7.23883">
        <ele>566.34997558594</ele>
        <time>2010-07-31T15:22:33Z</time>
      </trkpt>
      <trkpt lat="43.80241" lon="7.23862">
        <ele>563.95001220703</ele>
        <time>2010-07-31T15:22:39Z</time>
      </trkpt>
      <trkpt lat="43.80244" lon="7.23845">
        <ele>560.59002685547</ele>
        <time>2010-07-31T15:22:43Z</time>
      </trkpt>
      <trkpt lat="43.80244" lon="7.23838">
        <ele>560.10998535156</ele>
        <time>2010-07-31T15:22:45Z</time>
      </trkpt>
      <trkpt lat="43.80243" lon="7.23828">
        <ele>558.65997314453</ele>
        <time>2010-07-31T15:22:49Z</time>
      </trkpt>
      <trkpt lat="43.8024" lon="7.23817">
        <ele>559.14001464844</ele>
        <time>2010-07-31T15:22:58Z</time>
      </trkpt>
      <trkpt lat="43.80219" lon="7.23791">
        <ele>556.26000976562</ele>
        <time>2010-07-31T15:23:08Z</time>
      </trkpt>
      <trkpt lat="43.80216" lon="7.23784">
        <ele>555.29998779297</ele>
        <time>2010-07-31T15:23:11Z</time>
      </trkpt>
      <trkpt lat="43.8022" lon="7.23784">
        <ele>554.34002685547</ele>
        <time>2010-07-31T15:23:16Z</time>
      </trkpt>
      <trkpt lat="43.80223" lon="7.23784">
        <ele>552.40997314453</ele>
        <time>2010-07-31T15:23:19Z</time>
      </trkpt>
      <trkpt lat="43.80224" lon="7.23778">
        <ele>550.01000976562</ele>
        <time>2010-07-31T15:23:21Z</time>
      </trkpt>
      <trkpt lat="43.80223" lon="7.2377">
        <ele>549.04998779297</ele>
        <time>2010-07-31T15:23:24Z</time>
      </trkpt>
      <trkpt lat="43.80225" lon="7.2377">
        <ele>549.53002929688</ele>
        <time>2010-07-31T15:23:36Z</time>
      </trkpt>
      <trkpt lat="43.80227" lon="7.23772">
        <ele>549.53002929688</ele>
        <time>2010-07-31T15:23:59Z</time>
      </trkpt>
      <trkpt lat="43.80227" lon="7.23772">
        <ele>550.01000976562</ele>
        <time>2010-07-31T15:24:01Z</time>
      </trkpt>
      <trkpt lat="43.80243" lon="7.23796">
        <ele>551.92999267578</ele>
        <time>2010-07-31T15:24:13Z</time>
      </trkpt>
      <trkpt lat="43.80246" lon="7.238">
        <ele>552.90002441406</ele>
        <time>2010-07-31T15:24:15Z</time>
      </trkpt>
      <trkpt lat="43.80256" lon="7.23825">
        <ele>555.78002929688</ele>
        <time>2010-07-31T15:24:25Z</time>
      </trkpt>
      <trkpt lat="43.80257" lon="7.23857">
        <ele>559.14001464844</ele>
        <time>2010-07-31T15:24:35Z</time>
      </trkpt>
      <trkpt lat="43.80257" lon="7.23865">
        <ele>559.14001464844</ele>
        <time>2010-07-31T15:24:39Z</time>
      </trkpt>
      <trkpt lat="43.80256" lon="7.23877">
        <ele>560.59002685547</ele>
        <time>2010-07-31T15:24:45Z</time>
      </trkpt>
      <trkpt lat="43.80255" lon="7.23882">
        <ele>561.54998779297</ele>
        <time>2010-07-31T15:24:48Z</time>
      </trkpt>
      <trkpt lat="43.80256" lon="7.23892">
        <ele>562.51000976562</ele>
        <time>2010-07-31T15:24:54Z</time>
      </trkpt>
      <trkpt lat="43.80263" lon="7.23897">
        <ele>563.46997070312</ele>
        <time>2010-07-31T15:24:58Z</time>
      </trkpt>
      <trkpt lat="43.80296" lon="7.23877">
        <ele>564.90997314453</ele>
        <time>2010-07-31T15:25:18Z</time>
      </trkpt>
      <trkpt lat="43.80323" lon="7.23853">
        <ele>565.86999511719</ele>
        <time>2010-07-31T15:25:33Z</time>
      </trkpt>
      <trkpt lat="43.80349" lon="7.23827">
        <ele>567.79998779297</ele>
        <time>2010-07-31T15:25:47Z</time>
      </trkpt>
      <trkpt lat="43.80359" lon="7.23819">
        <ele>569.71997070312</ele>
        <time>2010-07-31T15:25:58Z</time>
      </trkpt>
      <trkpt lat="43.80367" lon="7.23817">
        <ele>573.08001708984</ele>
        <time>2010-07-31T15:26:06Z</time>
      </trkpt>
      <trkpt lat="43.80378" lon="7.23811">
        <ele>576.45001220703</ele>
        <time>2010-07-31T15:26:17Z</time>
      </trkpt>
      <trkpt lat="43.80383" lon="7.23807">
        <ele>577.89001464844</ele>
        <time>2010-07-31T15:26:23Z</time>
      </trkpt>
      <trkpt lat="43.80384" lon="7.23806">
        <ele>578.36999511719</ele>
        <time>2010-07-31T15:26:25Z</time>
      </trkpt>
      <trkpt lat="43.8039" lon="7.23799">
        <ele>581.25</ele>
        <time>2010-07-31T15:26:34Z</time>
      </trkpt>
      <trkpt lat="43.80398" lon="7.23791">
        <ele>583.65997314453</ele>
        <time>2010-07-31T15:26:47Z</time>
      </trkpt>
      <trkpt lat="43.804" lon="7.23785">
        <ele>586.05999755859</ele>
        <time>2010-07-31T15:26:55Z</time>
      </trkpt>
      <trkpt lat="43.80406" lon="7.23787">
        <ele>588.46002197266</ele>
        <time>2010-07-31T15:27:04Z</time>
      </trkpt>
      <trkpt lat="43.8041" lon="7.23782">
        <ele>588.46002197266</ele>
        <time>2010-07-31T15:27:09Z</time>
      </trkpt>
      <trkpt lat="43.80416" lon="7.23776">
        <ele>590.86999511719</ele>
        <time>2010-07-31T15:27:17Z</time>
      </trkpt>
      <trkpt lat="43.80424" lon="7.23772">
        <ele>593.75</ele>
        <time>2010-07-31T15:27:27Z</time>
      </trkpt>
      <trkpt lat="43.80426" lon="7.23771">
        <ele>592.78997802734</ele>
        <time>2010-07-31T15:27:30Z</time>
      </trkpt>
      <trkpt lat="43.80431" lon="7.23761">
        <ele>593.27001953125</ele>
        <time>2010-07-31T15:27:36Z</time>
      </trkpt>
      <trkpt lat="43.8044" lon="7.23757">
        <ele>595.19000244141</ele>
        <time>2010-07-31T15:27:45Z</time>
      </trkpt>
      <trkpt lat="43.80457" lon="7.23745">
        <ele>597.11999511719</ele>
        <time>2010-07-31T15:27:59Z</time>
      </trkpt>
      <trkpt lat="43.80459" lon="7.23745">
        <ele>598.08001708984</ele>
        <time>2010-07-31T15:28:01Z</time>
      </trkpt>
      <trkpt lat="43.80465" lon="7.23748">
        <ele>599.52001953125</ele>
        <time>2010-07-31T15:28:07Z</time>
      </trkpt>
      <trkpt lat="43.80475" lon="7.23751">
        <ele>601.44000244141</ele>
        <time>2010-07-31T15:28:18Z</time>
      </trkpt>
      <trkpt lat="43.8048" lon="7.23756">
        <ele>604.80999755859</ele>
        <time>2010-07-31T15:28:27Z</time>
      </trkpt>
      <trkpt lat="43.80486" lon="7.23758">
        <ele>607.21002197266</ele>
        <time>2010-07-31T15:28:36Z</time>
      </trkpt>
      <trkpt lat="43.80488" lon="7.23759">
        <ele>607.69000244141</ele>
        <time>2010-07-31T15:28:39Z</time>
      </trkpt>
      <trkpt lat="43.8049" lon="7.23764">
        <ele>610.57000732422</ele>
        <time>2010-07-31T15:28:48Z</time>
      </trkpt>
      <trkpt lat="43.805" lon="7.23774">
        <ele>614.41998291016</ele>
        <time>2010-07-31T15:29:01Z</time>
      </trkpt>
      <trkpt lat="43.80505" lon="7.23778">
        <ele>614.41998291016</ele>
        <time>2010-07-31T15:29:05Z</time>
      </trkpt>
      <trkpt lat="43.80507" lon="7.23779">
        <ele>614.41998291016</ele>
        <time>2010-07-31T15:29:07Z</time>
      </trkpt>
      <trkpt lat="43.80512" lon="7.23783">
        <ele>615.85998535156</ele>
        <time>2010-07-31T15:29:12Z</time>
      </trkpt>
      <trkpt lat="43.80513" lon="7.23795">
        <ele>619.22998046875</ele>
        <time>2010-07-31T15:29:22Z</time>
      </trkpt>
      <trkpt lat="43.80513" lon="7.23797">
        <ele>619.71002197266</ele>
        <time>2010-07-31T15:29:24Z</time>
      </trkpt>
      <trkpt lat="43.80508" lon="7.23804">
        <ele>620.66998291016</ele>
        <time>2010-07-31T15:29:30Z</time>
      </trkpt>
      <trkpt lat="43.80509" lon="7.23827">
        <ele>622.10998535156</ele>
        <time>2010-07-31T15:29:43Z</time>
      </trkpt>
      <trkpt lat="43.8051" lon="7.23829">
        <ele>622.10998535156</ele>
        <time>2010-07-31T15:29:44Z</time>
      </trkpt>
      <trkpt lat="43.8051" lon="7.23835">
        <ele>622.10998535156</ele>
        <time>2010-07-31T15:29:47Z</time>
      </trkpt>
      <trkpt lat="43.80515" lon="7.2385">
        <ele>622.10998535156</ele>
        <time>2010-07-31T15:29:55Z</time>
      </trkpt>
      <trkpt lat="43.8052" lon="7.23873">
        <ele>624.03002929688</ele>
        <time>2010-07-31T15:30:06Z</time>
      </trkpt>
      <trkpt lat="43.80521" lon="7.23878">
        <ele>623.54998779297</ele>
        <time>2010-07-31T15:30:09Z</time>
      </trkpt>
      <trkpt lat="43.8052" lon="7.23886">
        <ele>625.46997070312</ele>
        <time>2010-07-31T15:30:22Z</time>
      </trkpt>
      <trkpt lat="43.80523" lon="7.23891">
        <ele>625.96002197266</ele>
        <time>2010-07-31T15:30:26Z</time>
      </trkpt>
      <trkpt lat="43.80522" lon="7.23903">
        <ele>626.44000244141</ele>
        <time>2010-07-31T15:30:30Z</time>
      </trkpt>
      <trkpt lat="43.80519" lon="7.2391">
        <ele>627.88000488281</ele>
        <time>2010-07-31T15:30:33Z</time>
      </trkpt>
      <trkpt lat="43.80526" lon="7.23933">
        <ele>626.91998291016</ele>
        <time>2010-07-31T15:30:43Z</time>
      </trkpt>
      <trkpt lat="43.80535" lon="7.23943">
        <ele>627.88000488281</ele>
        <time>2010-07-31T15:30:49Z</time>
      </trkpt>
      <trkpt lat="43.80539" lon="7.23945">
        <ele>628.84002685547</ele>
        <time>2010-07-31T15:30:54Z</time>
      </trkpt>
      <trkpt lat="43.8054" lon="7.23948">
        <ele>630.28002929688</ele>
        <time>2010-07-31T15:30:57Z</time>
      </trkpt>
      <trkpt lat="43.80537" lon="7.23956">
        <ele>632.20001220703</ele>
        <time>2010-07-31T15:31:04Z</time>
      </trkpt>
      <trkpt lat="43.80535" lon="7.23962">
        <ele>632.67999267578</ele>
        <time>2010-07-31T15:31:08Z</time>
      </trkpt>
      <trkpt lat="43.80537" lon="7.23996">
        <ele>631.71997070312</ele>
        <time>2010-07-31T15:31:24Z</time>
      </trkpt>
      <trkpt lat="43.80537" lon="7.23998">
        <ele>631.23999023438</ele>
        <time>2010-07-31T15:31:25Z</time>
      </trkpt>
      <trkpt lat="43.80541" lon="7.24014">
        <ele>629.32000732422</ele>
        <time>2010-07-31T15:31:31Z</time>
      </trkpt>
      <trkpt lat="43.80548" lon="7.24028">
        <ele>626.91998291016</ele>
        <time>2010-07-31T15:31:35Z</time>
      </trkpt>
      <trkpt lat="43.80557" lon="7.24031">
        <ele>626.44000244141</ele>
        <time>2010-07-31T15:31:40Z</time>
      </trkpt>
      <trkpt lat="43.80575" lon="7.24008">
        <ele>626.91998291016</ele>
        <time>2010-07-31T15:31:51Z</time>
      </trkpt>
      <trkpt lat="43.8059" lon="7.23992">
        <ele>623.54998779297</ele>
        <time>2010-07-31T15:31:57Z</time>
      </trkpt>
      <trkpt lat="43.80606" lon="7.23981">
        <ele>620.19000244141</ele>
        <time>2010-07-31T15:32:02Z</time>
      </trkpt>
      <trkpt lat="43.80621" lon="7.23964">
        <ele>616.82000732422</ele>
        <time>2010-07-31T15:32:08Z</time>
      </trkpt>
      <trkpt lat="43.80634" lon="7.23952">
        <ele>612.97998046875</ele>
        <time>2010-07-31T15:32:13Z</time>
      </trkpt>
      <trkpt lat="43.80637" lon="7.2395">
        <ele>611.53997802734</ele>
        <time>2010-07-31T15:32:14Z</time>
      </trkpt>
      <trkpt lat="43.80644" lon="7.23946">
        <ele>609.13000488281</ele>
        <time>2010-07-31T15:32:16Z</time>
      </trkpt>
      <trkpt lat="43.80648" lon="7.23943">
        <ele>609.13000488281</ele>
        <time>2010-07-31T15:32:17Z</time>
      </trkpt>
      <trkpt lat="43.80663" lon="7.2392">
        <ele>606.25</ele>
        <time>2010-07-31T15:32:25Z</time>
      </trkpt>
      <trkpt lat="43.80663" lon="7.2391">
        <ele>604.33001708984</ele>
        <time>2010-07-31T15:32:29Z</time>
      </trkpt>
      <trkpt lat="43.80664" lon="7.23903">
        <ele>604.33001708984</ele>
        <time>2010-07-31T15:32:31Z</time>
      </trkpt>
      <trkpt lat="43.80672" lon="7.23881">
        <ele>600</ele>
        <time>2010-07-31T15:32:39Z</time>
      </trkpt>
      <trkpt lat="43.80683" lon="7.23872">
        <ele>597.59997558594</ele>
        <time>2010-07-31T15:32:44Z</time>
      </trkpt>
      <trkpt lat="43.80688" lon="7.23874">
        <ele>598.08001708984</ele>
        <time>2010-07-31T15:32:47Z</time>
      </trkpt>
      <trkpt lat="43.80704" lon="7.23877">
        <ele>597.59997558594</ele>
        <time>2010-07-31T15:32:57Z</time>
      </trkpt>
      <trkpt lat="43.80735" lon="7.23868">
        <ele>596.15002441406</ele>
        <time>2010-07-31T15:33:08Z</time>
      </trkpt>
      <trkpt lat="43.80754" lon="7.23867">
        <ele>594.22998046875</ele>
        <time>2010-07-31T15:33:15Z</time>
      </trkpt>
      <trkpt lat="43.80765" lon="7.23864">
        <ele>592.78997802734</ele>
        <time>2010-07-31T15:33:19Z</time>
      </trkpt>
      <trkpt lat="43.80772" lon="7.23857">
        <ele>591.34997558594</ele>
        <time>2010-07-31T15:33:25Z</time>
      </trkpt>
      <trkpt lat="43.80769" lon="7.23855">
        <ele>589.90997314453</ele>
        <time>2010-07-31T15:33:28Z</time>
      </trkpt>
      <trkpt lat="43.80771" lon="7.23841">
        <ele>586.05999755859</ele>
        <time>2010-07-31T15:33:34Z</time>
      </trkpt>
      <trkpt lat="43.80773" lon="7.23836">
        <ele>584.14001464844</ele>
        <time>2010-07-31T15:33:36Z</time>
      </trkpt>
      <trkpt lat="43.80776" lon="7.23829">
        <ele>583.17999267578</ele>
        <time>2010-07-31T15:33:38Z</time>
      </trkpt>
      <trkpt lat="43.80776" lon="7.23826">
        <ele>582.70001220703</ele>
        <time>2010-07-31T15:33:39Z</time>
      </trkpt>
      <trkpt lat="43.80769" lon="7.23812">
        <ele>578.36999511719</ele>
        <time>2010-07-31T15:33:45Z</time>
      </trkpt>
      <trkpt lat="43.80772" lon="7.23805">
        <ele>575.01000976562</ele>
        <time>2010-07-31T15:33:50Z</time>
      </trkpt>
      <trkpt lat="43.80774" lon="7.23804">
        <ele>574.53002929688</ele>
        <time>2010-07-31T15:33:51Z</time>
      </trkpt>
      <trkpt lat="43.80774" lon="7.23793">
        <ele>571.64001464844</ele>
        <time>2010-07-31T15:33:55Z</time>
      </trkpt>
      <trkpt lat="43.80777" lon="7.23782">
        <ele>568.28002929688</ele>
        <time>2010-07-31T15:34:00Z</time>
      </trkpt>
      <trkpt lat="43.80776" lon="7.23774">
        <ele>565.86999511719</ele>
        <time>2010-07-31T15:34:05Z</time>
      </trkpt>
      <trkpt lat="43.80778" lon="7.2377">
        <ele>564.90997314453</ele>
        <time>2010-07-31T15:34:07Z</time>
      </trkpt>
      <trkpt lat="43.8078" lon="7.23764">
        <ele>563.46997070312</ele>
        <time>2010-07-31T15:34:09Z</time>
      </trkpt>
      <trkpt lat="43.80782" lon="7.23753">
        <ele>561.07000732422</ele>
        <time>2010-07-31T15:34:12Z</time>
      </trkpt>
      <trkpt lat="43.80783" lon="7.23742">
        <ele>558.65997314453</ele>
        <time>2010-07-31T15:34:15Z</time>
      </trkpt>
      <trkpt lat="43.80786" lon="7.23732">
        <ele>556.73999023438</ele>
        <time>2010-07-31T15:34:18Z</time>
      </trkpt>
      <trkpt lat="43.80796" lon="7.23719">
        <ele>555.29998779297</ele>
        <time>2010-07-31T15:34:23Z</time>
      </trkpt>
      <trkpt lat="43.80823" lon="7.23706">
        <ele>552.90002441406</ele>
        <time>2010-07-31T15:34:34Z</time>
      </trkpt>
      <trkpt lat="43.80828" lon="7.23704">
        <ele>551.92999267578</ele>
        <time>2010-07-31T15:34:36Z</time>
      </trkpt>
      <trkpt lat="43.80837" lon="7.23695">
        <ele>549.53002929688</ele>
        <time>2010-07-31T15:34:40Z</time>
      </trkpt>
      <trkpt lat="43.8085" lon="7.23666">
        <ele>546.16998291016</ele>
        <time>2010-07-31T15:34:49Z</time>
      </trkpt>
      <trkpt lat="43.80853" lon="7.23654">
        <ele>544.23999023438</ele>
        <time>2010-07-31T15:34:53Z</time>
      </trkpt>
      <trkpt lat="43.80856" lon="7.23637">
        <ele>542.32000732422</ele>
        <time>2010-07-31T15:34:58Z</time>
      </trkpt>
      <trkpt lat="43.80856" lon="7.23634">
        <ele>541.84002685547</ele>
        <time>2010-07-31T15:34:59Z</time>
      </trkpt>
      <trkpt lat="43.8086" lon="7.23622">
        <ele>539.91998291016</ele>
        <time>2010-07-31T15:35:03Z</time>
      </trkpt>
      <trkpt lat="43.80865" lon="7.23606">
        <ele>536.54998779297</ele>
        <time>2010-07-31T15:35:08Z</time>
      </trkpt>
      <trkpt lat="43.80867" lon="7.23599">
        <ele>536.07000732422</ele>
        <time>2010-07-31T15:35:10Z</time>
      </trkpt>
      <trkpt lat="43.80871" lon="7.23593">
        <ele>534.63000488281</ele>
        <time>2010-07-31T15:35:12Z</time>
      </trkpt>
      <trkpt lat="43.80875" lon="7.23587">
        <ele>533.19000244141</ele>
        <time>2010-07-31T15:35:14Z</time>
      </trkpt>
      <trkpt lat="43.8088" lon="7.23578">
        <ele>531.27001953125</ele>
        <time>2010-07-31T15:35:17Z</time>
      </trkpt>
      <trkpt lat="43.80882" lon="7.23575">
        <ele>530.78997802734</ele>
        <time>2010-07-31T15:35:18Z</time>
      </trkpt>
      <trkpt lat="43.80894" lon="7.23555">
        <ele>528.38000488281</ele>
        <time>2010-07-31T15:35:29Z</time>
      </trkpt>
      <trkpt lat="43.80894" lon="7.23555">
        <ele>528.85998535156</ele>
        <time>2010-07-31T15:35:31Z</time>
      </trkpt>
      <trkpt lat="43.80894" lon="7.23549">
        <ele>527.41998291016</ele>
        <time>2010-07-31T15:35:36Z</time>
      </trkpt>
      <trkpt lat="43.80899" lon="7.23521">
        <ele>525.02001953125</ele>
        <time>2010-07-31T15:35:43Z</time>
      </trkpt>
      <trkpt lat="43.80906" lon="7.23506">
        <ele>522.60998535156</ele>
        <time>2010-07-31T15:35:47Z</time>
      </trkpt>
      <trkpt lat="43.80917" lon="7.23495">
        <ele>518.77001953125</ele>
        <time>2010-07-31T15:35:52Z</time>
      </trkpt>
      <trkpt lat="43.80925" lon="7.2349">
        <ele>515.88000488281</ele>
        <time>2010-07-31T15:35:56Z</time>
      </trkpt>
      <trkpt lat="43.8093" lon="7.23481">
        <ele>513.47998046875</ele>
        <time>2010-07-31T15:36:00Z</time>
      </trkpt>
      <trkpt lat="43.80934" lon="7.23476">
        <ele>511.07998657227</ele>
        <time>2010-07-31T15:36:02Z</time>
      </trkpt>
      <trkpt lat="43.80953" lon="7.23453">
        <ele>510.11999511719</ele>
        <time>2010-07-31T15:36:12Z</time>
      </trkpt>
      <trkpt lat="43.80955" lon="7.23452">
        <ele>510.11999511719</ele>
        <time>2010-07-31T15:36:13Z</time>
      </trkpt>
      <trkpt lat="43.80962" lon="7.23449">
        <ele>508.67001342773</ele>
        <time>2010-07-31T15:36:16Z</time>
      </trkpt>
      <trkpt lat="43.80967" lon="7.23449">
        <ele>506.75</ele>
        <time>2010-07-31T15:36:18Z</time>
      </trkpt>
      <trkpt lat="43.80976" lon="7.23444">
        <ele>503.86999511719</ele>
        <time>2010-07-31T15:36:22Z</time>
      </trkpt>
      <trkpt lat="43.8098" lon="7.2344">
        <ele>501.45999145508</ele>
        <time>2010-07-31T15:36:24Z</time>
      </trkpt>
      <trkpt lat="43.80985" lon="7.23439">
        <ele>500.5</ele>
        <time>2010-07-31T15:36:26Z</time>
      </trkpt>
      <trkpt lat="43.80996" lon="7.23446">
        <ele>498.10000610352</ele>
        <time>2010-07-31T15:36:32Z</time>
      </trkpt>
      <trkpt lat="43.80997" lon="7.23427">
        <ele>493.29000854492</ele>
        <time>2010-07-31T15:36:40Z</time>
      </trkpt>
      <trkpt lat="43.81001" lon="7.23417">
        <ele>491.85000610352</ele>
        <time>2010-07-31T15:36:44Z</time>
      </trkpt>
      <trkpt lat="43.81012" lon="7.23402">
        <ele>490.89001464844</ele>
        <time>2010-07-31T15:36:53Z</time>
      </trkpt>
      <trkpt lat="43.81016" lon="7.23395">
        <ele>490.89001464844</ele>
        <time>2010-07-31T15:36:56Z</time>
      </trkpt>
      <trkpt lat="43.81025" lon="7.23395">
        <ele>495.2200012207</ele>
        <time>2010-07-31T15:37:06Z</time>
      </trkpt>
      <trkpt lat="43.81033" lon="7.23383">
        <ele>494.73999023438</ele>
        <time>2010-07-31T15:37:13Z</time>
      </trkpt>
      <trkpt lat="43.81034" lon="7.23379">
        <ele>494.73999023438</ele>
        <time>2010-07-31T15:37:15Z</time>
      </trkpt>
      <trkpt lat="43.81046" lon="7.23367">
        <ele>496.17999267578</ele>
        <time>2010-07-31T15:37:27Z</time>
      </trkpt>
      <trkpt lat="43.8106" lon="7.2336">
        <ele>498.57998657227</ele>
        <time>2010-07-31T15:37:39Z</time>
      </trkpt>
      <trkpt lat="43.81061" lon="7.23357">
        <ele>499.54000854492</ele>
        <time>2010-07-31T15:37:42Z</time>
      </trkpt>
      <trkpt lat="43.81068" lon="7.23339">
        <ele>500.01998901367</ele>
        <time>2010-07-31T15:37:55Z</time>
      </trkpt>
      <trkpt lat="43.81084" lon="7.23333">
        <ele>501.45999145508</ele>
        <time>2010-07-31T15:38:07Z</time>
      </trkpt>
      <trkpt lat="43.81085" lon="7.23332">
        <ele>501.45999145508</ele>
        <time>2010-07-31T15:38:08Z</time>
      </trkpt>
      <trkpt lat="43.81096" lon="7.23307">
        <ele>501.95001220703</ele>
        <time>2010-07-31T15:38:22Z</time>
      </trkpt>
      <trkpt lat="43.81097" lon="7.23306">
        <ele>501.95001220703</ele>
        <time>2010-07-31T15:38:23Z</time>
      </trkpt>
      <trkpt lat="43.81098" lon="7.233">
        <ele>501.45999145508</ele>
        <time>2010-07-31T15:38:28Z</time>
      </trkpt>
      <trkpt lat="43.81094" lon="7.23281">
        <ele>499.54000854492</ele>
        <time>2010-07-31T15:38:37Z</time>
      </trkpt>
      <trkpt lat="43.8109" lon="7.23267">
        <ele>499.05999755859</ele>
        <time>2010-07-31T15:38:42Z</time>
      </trkpt>
      <trkpt lat="43.81102" lon="7.23242">
        <ele>500.01998901367</ele>
        <time>2010-07-31T15:38:52Z</time>
      </trkpt>
      <trkpt lat="43.81116" lon="7.23216">
        <ele>500.5</ele>
        <time>2010-07-31T15:39:07Z</time>
      </trkpt>
      <trkpt lat="43.81129" lon="7.23189">
        <ele>503.86999511719</ele>
        <time>2010-07-31T15:39:27Z</time>
      </trkpt>
      <trkpt lat="43.8113" lon="7.23188">
        <ele>503.86999511719</ele>
        <time>2010-07-31T15:39:28Z</time>
      </trkpt>
      <trkpt lat="43.81133" lon="7.2318">
        <ele>505.30999755859</ele>
        <time>2010-07-31T15:39:34Z</time>
      </trkpt>
      <trkpt lat="43.81135" lon="7.23165">
        <ele>507.23001098633</ele>
        <time>2010-07-31T15:39:42Z</time>
      </trkpt>
      <trkpt lat="43.81141" lon="7.23133">
        <ele>510.11999511719</ele>
        <time>2010-07-31T15:40:01Z</time>
      </trkpt>
      <trkpt lat="43.81153" lon="7.23111">
        <ele>513</ele>
        <time>2010-07-31T15:40:17Z</time>
      </trkpt>
      <trkpt lat="43.81169" lon="7.23095">
        <ele>515.88000488281</ele>
        <time>2010-07-31T15:40:34Z</time>
      </trkpt>
      <trkpt lat="43.81181" lon="7.23083">
        <ele>519.25</ele>
        <time>2010-07-31T15:40:47Z</time>
      </trkpt>
      <trkpt lat="43.81189" lon="7.23074">
        <ele>520.21002197266</ele>
        <time>2010-07-31T15:40:56Z</time>
      </trkpt>
      <trkpt lat="43.81194" lon="7.23077">
        <ele>520.69000244141</ele>
        <time>2010-07-31T15:41:00Z</time>
      </trkpt>
      <trkpt lat="43.81193" lon="7.23082">
        <ele>520.69000244141</ele>
        <time>2010-07-31T15:41:03Z</time>
      </trkpt>
      <trkpt lat="43.81189" lon="7.2309">
        <ele>523.09002685547</ele>
        <time>2010-07-31T15:41:09Z</time>
      </trkpt>
      <trkpt lat="43.81185" lon="7.23109">
        <ele>525.5</ele>
        <time>2010-07-31T15:41:23Z</time>
      </trkpt>
      <trkpt lat="43.81184" lon="7.23111">
        <ele>525.02001953125</ele>
        <time>2010-07-31T15:41:24Z</time>
      </trkpt>
      <trkpt lat="43.81184" lon="7.23113">
        <ele>525.97998046875</ele>
        <time>2010-07-31T15:41:26Z</time>
      </trkpt>
      <trkpt lat="43.81184" lon="7.23132">
        <ele>527.41998291016</ele>
        <time>2010-07-31T15:41:38Z</time>
      </trkpt>
      <trkpt lat="43.81184" lon="7.23146">
        <ele>528.85998535156</ele>
        <time>2010-07-31T15:41:46Z</time>
      </trkpt>
      <trkpt lat="43.81183" lon="7.23153">
        <ele>529.34002685547</ele>
        <time>2010-07-31T15:41:50Z</time>
      </trkpt>
      <trkpt lat="43.81181" lon="7.23164">
        <ele>531.27001953125</ele>
        <time>2010-07-31T15:41:57Z</time>
      </trkpt>
      <trkpt lat="43.81182" lon="7.23189">
        <ele>533.19000244141</ele>
        <time>2010-07-31T15:42:12Z</time>
      </trkpt>
      <trkpt lat="43.81183" lon="7.23194">
        <ele>534.15002441406</ele>
        <time>2010-07-31T15:42:15Z</time>
      </trkpt>
      <trkpt lat="43.81182" lon="7.23206">
        <ele>536.07000732422</ele>
        <time>2010-07-31T15:42:22Z</time>
      </trkpt>
      <trkpt lat="43.8118" lon="7.2321">
        <ele>536.54998779297</ele>
        <time>2010-07-31T15:42:25Z</time>
      </trkpt>
      <trkpt lat="43.81186" lon="7.23223">
        <ele>537.98999023438</ele>
        <time>2010-07-31T15:42:36Z</time>
      </trkpt>
      <trkpt lat="43.81197" lon="7.23197">
        <ele>541.84002685547</ele>
        <time>2010-07-31T15:42:54Z</time>
      </trkpt>
      <trkpt lat="43.81198" lon="7.23187">
        <ele>543.76000976562</ele>
        <time>2010-07-31T15:43:01Z</time>
      </trkpt>
      <trkpt lat="43.81198" lon="7.23181">
        <ele>544.23999023438</ele>
        <time>2010-07-31T15:43:05Z</time>
      </trkpt>
      <trkpt lat="43.81208" lon="7.23182">
        <ele>545.69000244141</ele>
        <time>2010-07-31T15:43:15Z</time>
      </trkpt>
      <trkpt lat="43.81215" lon="7.23205">
        <ele>547.60998535156</ele>
        <time>2010-07-31T15:43:28Z</time>
      </trkpt>
      <trkpt lat="43.81221" lon="7.23212">
        <ele>548.57000732422</ele>
        <time>2010-07-31T15:43:35Z</time>
      </trkpt>
      <trkpt lat="43.81248" lon="7.23205">
        <ele>548.57000732422</ele>
        <time>2010-07-31T15:43:52Z</time>
      </trkpt>
      <trkpt lat="43.81264" lon="7.23201">
        <ele>546.65002441406</ele>
        <time>2010-07-31T15:43:59Z</time>
      </trkpt>
      <trkpt lat="43.81272" lon="7.23193">
        <ele>545.20001220703</ele>
        <time>2010-07-31T15:44:03Z</time>
      </trkpt>
      <trkpt lat="43.81272" lon="7.23155">
        <ele>541.35998535156</ele>
        <time>2010-07-31T15:44:12Z</time>
      </trkpt>
      <trkpt lat="43.81271" lon="7.2315">
        <ele>541.35998535156</ele>
        <time>2010-07-31T15:44:13Z</time>
      </trkpt>
      <trkpt lat="43.8127" lon="7.23124">
        <ele>538.96002197266</ele>
        <time>2010-07-31T15:44:19Z</time>
      </trkpt>
      <trkpt lat="43.8127" lon="7.2312">
        <ele>538.47998046875</ele>
        <time>2010-07-31T15:44:20Z</time>
      </trkpt>
      <trkpt lat="43.81274" lon="7.23116">
        <ele>537.03002929688</ele>
        <time>2010-07-31T15:44:24Z</time>
      </trkpt>
      <trkpt lat="43.813" lon="7.23157">
        <ele>533.66998291016</ele>
        <time>2010-07-31T15:44:36Z</time>
      </trkpt>
      <trkpt lat="43.81308" lon="7.23162">
        <ele>532.22998046875</ele>
        <time>2010-07-31T15:44:39Z</time>
      </trkpt>
      <trkpt lat="43.81335" lon="7.2316">
        <ele>528.85998535156</ele>
        <time>2010-07-31T15:44:50Z</time>
      </trkpt>
      <trkpt lat="43.81345" lon="7.23153">
        <ele>527.90002441406</ele>
        <time>2010-07-31T15:44:54Z</time>
      </trkpt>
      <trkpt lat="43.81374" lon="7.23159">
        <ele>524.53997802734</ele>
        <time>2010-07-31T15:45:03Z</time>
      </trkpt>
      <trkpt lat="43.81411" lon="7.23179">
        <ele>521.65002441406</ele>
        <time>2010-07-31T15:45:15Z</time>
      </trkpt>
      <trkpt lat="43.81444" lon="7.23191">
        <ele>519.25</ele>
        <time>2010-07-31T15:45:28Z</time>
      </trkpt>
      <trkpt lat="43.81477" lon="7.23208">
        <ele>518.28997802734</ele>
        <time>2010-07-31T15:45:41Z</time>
      </trkpt>
      <trkpt lat="43.815" lon="7.23256">
        <ele>518.28997802734</ele>
        <time>2010-07-31T15:45:54Z</time>
      </trkpt>
      <trkpt lat="43.81519" lon="7.23285">
        <ele>519.25</ele>
        <time>2010-07-31T15:46:07Z</time>
      </trkpt>
      <trkpt lat="43.81541" lon="7.23322">
        <ele>518.28997802734</ele>
        <time>2010-07-31T15:46:20Z</time>
      </trkpt>
      <trkpt lat="43.81541" lon="7.23369">
        <ele>514.91998291016</ele>
        <time>2010-07-31T15:46:31Z</time>
      </trkpt>
      <trkpt lat="43.81543" lon="7.23373">
        <ele>514.91998291016</ele>
        <time>2010-07-31T15:46:32Z</time>
      </trkpt>
      <trkpt lat="43.81577" lon="7.23417">
        <ele>513</ele>
        <time>2010-07-31T15:46:44Z</time>
      </trkpt>
      <trkpt lat="43.81593" lon="7.23456">
        <ele>513.96002197266</ele>
        <time>2010-07-31T15:46:56Z</time>
      </trkpt>
      <trkpt lat="43.81584" lon="7.23507">
        <ele>513</ele>
        <time>2010-07-31T15:47:09Z</time>
      </trkpt>
      <trkpt lat="43.81561" lon="7.23553">
        <ele>512.52001953125</ele>
        <time>2010-07-31T15:47:22Z</time>
      </trkpt>
      <trkpt lat="43.81554" lon="7.2359">
        <ele>512.03997802734</ele>
        <time>2010-07-31T15:47:33Z</time>
      </trkpt>
      <trkpt lat="43.81571" lon="7.23642">
        <ele>511.55999755859</ele>
        <time>2010-07-31T15:47:46Z</time>
      </trkpt>
      <trkpt lat="43.81578" lon="7.23669">
        <ele>512.03997802734</ele>
        <time>2010-07-31T15:47:53Z</time>
      </trkpt>
      <trkpt lat="43.81597" lon="7.23709">
        <ele>513</ele>
        <time>2010-07-31T15:48:05Z</time>
      </trkpt>
      <trkpt lat="43.81597" lon="7.23732">
        <ele>512.52001953125</ele>
        <time>2010-07-31T15:48:11Z</time>
      </trkpt>
      <trkpt lat="43.81553" lon="7.23759">
        <ele>514.91998291016</ele>
        <time>2010-07-31T15:48:26Z</time>
      </trkpt>
      <trkpt lat="43.81513" lon="7.23777">
        <ele>516.84997558594</ele>
        <time>2010-07-31T15:48:42Z</time>
      </trkpt>
      <trkpt lat="43.81483" lon="7.23804">
        <ele>519.72998046875</ele>
        <time>2010-07-31T15:48:58Z</time>
      </trkpt>
      <trkpt lat="43.81474" lon="7.23815">
        <ele>522.13000488281</ele>
        <time>2010-07-31T15:49:04Z</time>
      </trkpt>
      <trkpt lat="43.81446" lon="7.23833">
        <ele>525.02001953125</ele>
        <time>2010-07-31T15:49:20Z</time>
      </trkpt>
      <trkpt lat="43.81443" lon="7.23834">
        <ele>525.97998046875</ele>
        <time>2010-07-31T15:49:22Z</time>
      </trkpt>
      <trkpt lat="43.81422" lon="7.23847">
        <ele>526.94000244141</ele>
        <time>2010-07-31T15:49:40Z</time>
      </trkpt>
      <trkpt lat="43.81404" lon="7.2386">
        <ele>529.82000732422</ele>
        <time>2010-07-31T15:49:54Z</time>
      </trkpt>
      <trkpt lat="43.81388" lon="7.23878">
        <ele>530.78997802734</ele>
        <time>2010-07-31T15:50:05Z</time>
      </trkpt>
      <trkpt lat="43.81409" lon="7.23912">
        <ele>531.75</ele>
        <time>2010-07-31T15:50:17Z</time>
      </trkpt>
      <trkpt lat="43.81446" lon="7.23926">
        <ele>533.66998291016</ele>
        <time>2010-07-31T15:50:26Z</time>
      </trkpt>
      <trkpt lat="43.81482" lon="7.23956">
        <ele>535.59002685547</ele>
        <time>2010-07-31T15:50:37Z</time>
      </trkpt>
      <trkpt lat="43.81518" lon="7.23979">
        <ele>537.98999023438</ele>
        <time>2010-07-31T15:50:48Z</time>
      </trkpt>
      <trkpt lat="43.81529" lon="7.24003">
        <ele>539.44000244141</ele>
        <time>2010-07-31T15:51:00Z</time>
      </trkpt>
      <trkpt lat="43.8153" lon="7.24005">
        <ele>540.40002441406</ele>
        <time>2010-07-31T15:51:01Z</time>
      </trkpt>
      <trkpt lat="43.81529" lon="7.24019">
        <ele>541.35998535156</ele>
        <time>2010-07-31T15:51:08Z</time>
      </trkpt>
      <trkpt lat="43.81504" lon="7.24055">
        <ele>543.76000976562</ele>
        <time>2010-07-31T15:51:25Z</time>
      </trkpt>
      <trkpt lat="43.81502" lon="7.24061">
        <ele>544.23999023438</ele>
        <time>2010-07-31T15:51:28Z</time>
      </trkpt>
      <trkpt lat="43.81492" lon="7.24089">
        <ele>546.65002441406</ele>
        <time>2010-07-31T15:51:46Z</time>
      </trkpt>
      <trkpt lat="43.81482" lon="7.24113">
        <ele>548.57000732422</ele>
        <time>2010-07-31T15:52:01Z</time>
      </trkpt>
      <trkpt lat="43.8148" lon="7.24144">
        <ele>550.96997070312</ele>
        <time>2010-07-31T15:52:13Z</time>
      </trkpt>
      <trkpt lat="43.8148" lon="7.24155">
        <ele>551.45001220703</ele>
        <time>2010-07-31T15:52:16Z</time>
      </trkpt>
      <trkpt lat="43.81492" lon="7.24198">
        <ele>554.34002685547</ele>
        <time>2010-07-31T15:52:30Z</time>
      </trkpt>
      <trkpt lat="43.81483" lon="7.24238">
        <ele>555.29998779297</ele>
        <time>2010-07-31T15:52:42Z</time>
      </trkpt>
      <trkpt lat="43.81477" lon="7.24273">
        <ele>557.70001220703</ele>
        <time>2010-07-31T15:52:53Z</time>
      </trkpt>
      <trkpt lat="43.81488" lon="7.243">
        <ele>558.65997314453</ele>
        <time>2010-07-31T15:53:02Z</time>
      </trkpt>
      <trkpt lat="43.81486" lon="7.24314">
        <ele>558.65997314453</ele>
        <time>2010-07-31T15:53:07Z</time>
      </trkpt>
      <trkpt lat="43.81448" lon="7.24329">
        <ele>556.26000976562</ele>
        <time>2010-07-31T15:53:20Z</time>
      </trkpt>
      <trkpt lat="43.81409" lon="7.24347">
        <ele>555.29998779297</ele>
        <time>2010-07-31T15:53:34Z</time>
      </trkpt>
      <trkpt lat="43.81384" lon="7.24379">
        <ele>553.38000488281</ele>
        <time>2010-07-31T15:53:46Z</time>
      </trkpt>
      <trkpt lat="43.81348" lon="7.24417">
        <ele>550.01000976562</ele>
        <time>2010-07-31T15:54:00Z</time>
      </trkpt>
      <trkpt lat="43.81322" lon="7.24456">
        <ele>547.60998535156</ele>
        <time>2010-07-31T15:54:13Z</time>
      </trkpt>
      <trkpt lat="43.81292" lon="7.24494">
        <ele>545.20001220703</ele>
        <time>2010-07-31T15:54:26Z</time>
      </trkpt>
      <trkpt lat="43.81268" lon="7.24489">
        <ele>543.28002929688</ele>
        <time>2010-07-31T15:54:34Z</time>
      </trkpt>
      <trkpt lat="43.81266" lon="7.24519">
        <ele>543.28002929688</ele>
        <time>2010-07-31T15:54:43Z</time>
      </trkpt>
      <trkpt lat="43.81268" lon="7.24522">
        <ele>543.28002929688</ele>
        <time>2010-07-31T15:54:44Z</time>
      </trkpt>
      <trkpt lat="43.81295" lon="7.24564">
        <ele>543.76000976562</ele>
        <time>2010-07-31T15:54:55Z</time>
      </trkpt>
      <trkpt lat="43.81297" lon="7.24608">
        <ele>542.32000732422</ele>
        <time>2010-07-31T15:55:06Z</time>
      </trkpt>
      <trkpt lat="43.81286" lon="7.24639">
        <ele>542.32000732422</ele>
        <time>2010-07-31T15:55:16Z</time>
      </trkpt>
      <trkpt lat="43.81285" lon="7.24646">
        <ele>542.79998779297</ele>
        <time>2010-07-31T15:55:20Z</time>
      </trkpt>
      <trkpt lat="43.81256" lon="7.24676">
        <ele>542.79998779297</ele>
        <time>2010-07-31T15:55:32Z</time>
      </trkpt>
      <trkpt lat="43.81216" lon="7.24689">
        <ele>541.84002685547</ele>
        <time>2010-07-31T15:55:46Z</time>
      </trkpt>
      <trkpt lat="43.81192" lon="7.24712">
        <ele>540.40002441406</ele>
        <time>2010-07-31T15:55:57Z</time>
      </trkpt>
      <trkpt lat="43.81195" lon="7.24726">
        <ele>539.44000244141</ele>
        <time>2010-07-31T15:56:01Z</time>
      </trkpt>
      <trkpt lat="43.81235" lon="7.24768">
        <ele>536.54998779297</ele>
        <time>2010-07-31T15:56:14Z</time>
      </trkpt>
      <trkpt lat="43.81253" lon="7.24777">
        <ele>536.07000732422</ele>
        <time>2010-07-31T15:56:18Z</time>
      </trkpt>
      <trkpt lat="43.81261" lon="7.24797">
        <ele>536.54998779297</ele>
        <time>2010-07-31T15:56:23Z</time>
      </trkpt>
      <trkpt lat="43.81227" lon="7.24843">
        <ele>537.98999023438</ele>
        <time>2010-07-31T15:56:37Z</time>
      </trkpt>
      <trkpt lat="43.81227" lon="7.24854">
        <ele>540.40002441406</ele>
        <time>2010-07-31T15:56:41Z</time>
      </trkpt>
      <trkpt lat="43.81225" lon="7.24882">
        <ele>541.35998535156</ele>
        <time>2010-07-31T15:56:50Z</time>
      </trkpt>
      <trkpt lat="43.81247" lon="7.24921">
        <ele>544.23999023438</ele>
        <time>2010-07-31T15:57:05Z</time>
      </trkpt>
      <trkpt lat="43.81253" lon="7.24945">
        <ele>546.16998291016</ele>
        <time>2010-07-31T15:57:18Z</time>
      </trkpt>
      <trkpt lat="43.81252" lon="7.24961">
        <ele>547.13000488281</ele>
        <time>2010-07-31T15:57:26Z</time>
      </trkpt>
      <trkpt lat="43.81251" lon="7.24965">
        <ele>547.13000488281</ele>
        <time>2010-07-31T15:57:28Z</time>
      </trkpt>
      <trkpt lat="43.81254" lon="7.24977">
        <ele>548.57000732422</ele>
        <time>2010-07-31T15:57:36Z</time>
      </trkpt>
      <trkpt lat="43.81271" lon="7.24992">
        <ele>550.48999023438</ele>
        <time>2010-07-31T15:57:51Z</time>
      </trkpt>
      <trkpt lat="43.81273" lon="7.24993">
        <ele>550.96997070312</ele>
        <time>2010-07-31T15:57:52Z</time>
      </trkpt>
      <trkpt lat="43.81279" lon="7.2501">
        <ele>552.40997314453</ele>
        <time>2010-07-31T15:58:01Z</time>
      </trkpt>
      <trkpt lat="43.81271" lon="7.25029">
        <ele>553.38000488281</ele>
        <time>2010-07-31T15:58:12Z</time>
      </trkpt>
      <trkpt lat="43.8127" lon="7.25036">
        <ele>554.82000732422</ele>
        <time>2010-07-31T15:58:16Z</time>
      </trkpt>
      <trkpt lat="43.81269" lon="7.25044">
        <ele>554.82000732422</ele>
        <time>2010-07-31T15:58:20Z</time>
      </trkpt>
      <trkpt lat="43.81265" lon="7.2506">
        <ele>556.73999023438</ele>
        <time>2010-07-31T15:58:28Z</time>
      </trkpt>
      <trkpt lat="43.81267" lon="7.25068">
        <ele>557.21997070312</ele>
        <time>2010-07-31T15:58:33Z</time>
      </trkpt>
      <trkpt lat="43.81278" lon="7.2509">
        <ele>558.17999267578</ele>
        <time>2010-07-31T15:58:43Z</time>
      </trkpt>
      <trkpt lat="43.81293" lon="7.25101">
        <ele>560.59002685547</ele>
        <time>2010-07-31T15:58:56Z</time>
      </trkpt>
      <trkpt lat="43.8132" lon="7.25105">
        <ele>562.98999023438</ele>
        <time>2010-07-31T15:59:14Z</time>
      </trkpt>
      <trkpt lat="43.81342" lon="7.25125">
        <ele>563.95001220703</ele>
        <time>2010-07-31T15:59:29Z</time>
      </trkpt>
      <trkpt lat="43.81349" lon="7.25142">
        <ele>566.34997558594</ele>
        <time>2010-07-31T15:59:37Z</time>
      </trkpt>
      <trkpt lat="43.81345" lon="7.25169">
        <ele>568.28002929688</ele>
        <time>2010-07-31T15:59:51Z</time>
      </trkpt>
      <trkpt lat="43.81347" lon="7.25178">
        <ele>568.28002929688</ele>
        <time>2010-07-31T15:59:56Z</time>
      </trkpt>
      <trkpt lat="43.81351" lon="7.25185">
        <ele>568.76000976562</ele>
        <time>2010-07-31T16:00:00Z</time>
      </trkpt>
      <trkpt lat="43.81363" lon="7.25189">
        <ele>570.67999267578</ele>
        <time>2010-07-31T16:00:14Z</time>
      </trkpt>
      <trkpt lat="43.81379" lon="7.25177">
        <ele>572.59997558594</ele>
        <time>2010-07-31T16:00:30Z</time>
      </trkpt>
      <trkpt lat="43.81398" lon="7.25171">
        <ele>574.03997802734</ele>
        <time>2010-07-31T16:00:43Z</time>
      </trkpt>
      <trkpt lat="43.81421" lon="7.25167">
        <ele>575.96997070312</ele>
        <time>2010-07-31T16:00:56Z</time>
      </trkpt>
      <trkpt lat="43.81453" lon="7.25164">
        <ele>579.33001708984</ele>
        <time>2010-07-31T16:01:09Z</time>
      </trkpt>
      <trkpt lat="43.81479" lon="7.25167">
        <ele>581.25</ele>
        <time>2010-07-31T16:01:21Z</time>
      </trkpt>
      <trkpt lat="43.815" lon="7.2518">
        <ele>583.65997314453</ele>
        <time>2010-07-31T16:01:32Z</time>
      </trkpt>
      <trkpt lat="43.81523" lon="7.25193">
        <ele>586.05999755859</ele>
        <time>2010-07-31T16:01:45Z</time>
      </trkpt>
      <trkpt lat="43.81548" lon="7.25207">
        <ele>588.46002197266</ele>
        <time>2010-07-31T16:01:57Z</time>
      </trkpt>
      <trkpt lat="43.81573" lon="7.25219">
        <ele>590.39001464844</ele>
        <time>2010-07-31T16:02:09Z</time>
      </trkpt>
      <trkpt lat="43.8159" lon="7.25233">
        <ele>592.30999755859</ele>
        <time>2010-07-31T16:02:18Z</time>
      </trkpt>
      <trkpt lat="43.81611" lon="7.25249">
        <ele>594.22998046875</ele>
        <time>2010-07-31T16:02:28Z</time>
      </trkpt>
      <trkpt lat="43.81644" lon="7.25274">
        <ele>596.15002441406</ele>
        <time>2010-07-31T16:02:41Z</time>
      </trkpt>
      <trkpt lat="43.81651" lon="7.25309">
        <ele>599.03997802734</ele>
        <time>2010-07-31T16:02:53Z</time>
      </trkpt>
      <trkpt lat="43.81673" lon="7.25356">
        <ele>601.44000244141</ele>
        <time>2010-07-31T16:03:10Z</time>
      </trkpt>
      <trkpt lat="43.81693" lon="7.25389">
        <ele>604.33001708984</ele>
        <time>2010-07-31T16:03:23Z</time>
      </trkpt>
      <trkpt lat="43.81709" lon="7.25419">
        <ele>606.25</ele>
        <time>2010-07-31T16:03:36Z</time>
      </trkpt>
      <trkpt lat="43.81717" lon="7.2544">
        <ele>609.60998535156</ele>
        <time>2010-07-31T16:03:47Z</time>
      </trkpt>
      <trkpt lat="43.81714" lon="7.25445">
        <ele>609.13000488281</ele>
        <time>2010-07-31T16:04:05Z</time>
      </trkpt>
      <trkpt lat="43.81711" lon="7.25457">
        <ele>609.60998535156</ele>
        <time>2010-07-31T16:04:19Z</time>
      </trkpt>
      <trkpt lat="43.81712" lon="7.25458">
        <ele>610.09002685547</ele>
        <time>2010-07-31T16:04:31Z</time>
      </trkpt>
      <trkpt lat="43.81712" lon="7.25454">
        <ele>609.13000488281</ele>
        <time>2010-07-31T16:04:47Z</time>
      </trkpt>
      <trkpt lat="43.81712" lon="7.25456">
        <ele>608.65002441406</ele>
        <time>2010-07-31T16:05:02Z</time>
      </trkpt>
      <trkpt lat="43.81712" lon="7.25454">
        <ele>610.09002685547</ele>
        <time>2010-07-31T16:05:31Z</time>
      </trkpt>
      <trkpt lat="43.81712" lon="7.25459">
        <ele>610.57000732422</ele>
        <time>2010-07-31T16:05:46Z</time>
      </trkpt>
      <trkpt lat="43.81716" lon="7.25461">
        <ele>610.09002685547</ele>
        <time>2010-07-31T16:05:50Z</time>
      </trkpt>
      <trkpt lat="43.81721" lon="7.25452">
        <ele>606.25</ele>
        <time>2010-07-31T16:05:57Z</time>
      </trkpt>
      <trkpt lat="43.81718" lon="7.25442">
        <ele>604.80999755859</ele>
        <time>2010-07-31T16:06:00Z</time>
      </trkpt>
      <trkpt lat="43.81722" lon="7.25442">
        <ele>602.40002441406</ele>
        <time>2010-07-31T16:06:04Z</time>
      </trkpt>
      <trkpt lat="43.81732" lon="7.25445">
        <ele>599.03997802734</ele>
        <time>2010-07-31T16:06:08Z</time>
      </trkpt>
      <trkpt lat="43.81745" lon="7.25444">
        <ele>595.66998291016</ele>
        <time>2010-07-31T16:06:13Z</time>
      </trkpt>
      <trkpt lat="43.81754" lon="7.25443">
        <ele>592.30999755859</ele>
        <time>2010-07-31T16:06:17Z</time>
      </trkpt>
      <trkpt lat="43.81767" lon="7.25445">
        <ele>589.42999267578</ele>
        <time>2010-07-31T16:06:21Z</time>
      </trkpt>
      <trkpt lat="43.81791" lon="7.25457">
        <ele>586.05999755859</ele>
        <time>2010-07-31T16:06:29Z</time>
      </trkpt>
      <trkpt lat="43.81797" lon="7.25461">
        <ele>584.14001464844</ele>
        <time>2010-07-31T16:06:31Z</time>
      </trkpt>
      <trkpt lat="43.81806" lon="7.25472">
        <ele>582.70001220703</ele>
        <time>2010-07-31T16:06:34Z</time>
      </trkpt>
      <trkpt lat="43.81808" lon="7.25477">
        <ele>582.21997070312</ele>
        <time>2010-07-31T16:06:35Z</time>
      </trkpt>
      <trkpt lat="43.81816" lon="7.25486">
        <ele>579.33001708984</ele>
        <time>2010-07-31T16:06:39Z</time>
      </trkpt>
      <trkpt lat="43.81823" lon="7.25491">
        <ele>577.89001464844</ele>
        <time>2010-07-31T16:06:43Z</time>
      </trkpt>
      <trkpt lat="43.81831" lon="7.25494">
        <ele>574.03997802734</ele>
        <time>2010-07-31T16:06:47Z</time>
      </trkpt>
      <trkpt lat="43.8184" lon="7.25498">
        <ele>575.48999023438</ele>
        <time>2010-07-31T16:06:51Z</time>
      </trkpt>
      <trkpt lat="43.8185" lon="7.2551">
        <ele>573.55999755859</ele>
        <time>2010-07-31T16:06:58Z</time>
      </trkpt>
      <trkpt lat="43.81864" lon="7.25512">
        <ele>573.55999755859</ele>
        <time>2010-07-31T16:07:04Z</time>
      </trkpt>
      <trkpt lat="43.81878" lon="7.25509">
        <ele>571.64001464844</ele>
        <time>2010-07-31T16:07:08Z</time>
      </trkpt>
      <trkpt lat="43.81906" lon="7.25523">
        <ele>568.28002929688</ele>
        <time>2010-07-31T16:07:16Z</time>
      </trkpt>
      <trkpt lat="43.81908" lon="7.25526">
        <ele>567.79998779297</ele>
        <time>2010-07-31T16:07:17Z</time>
      </trkpt>
      <trkpt lat="43.81918" lon="7.25532">
        <ele>565.39001464844</ele>
        <time>2010-07-31T16:07:22Z</time>
      </trkpt>
      <trkpt lat="43.81947" lon="7.25549">
        <ele>566.83001708984</ele>
        <time>2010-07-31T16:07:31Z</time>
      </trkpt>
      <trkpt lat="43.81975" lon="7.25569">
        <ele>568.76000976562</ele>
        <time>2010-07-31T16:07:42Z</time>
      </trkpt>
      <trkpt lat="43.81988" lon="7.25585">
        <ele>567.32000732422</ele>
        <time>2010-07-31T16:07:49Z</time>
      </trkpt>
      <trkpt lat="43.81984" lon="7.25596">
        <ele>565.86999511719</ele>
        <time>2010-07-31T16:07:53Z</time>
      </trkpt>
      <trkpt lat="43.81985" lon="7.25611">
        <ele>560.59002685547</ele>
        <time>2010-07-31T16:07:58Z</time>
      </trkpt>
      <trkpt lat="43.81989" lon="7.25631">
        <ele>557.21997070312</ele>
        <time>2010-07-31T16:08:04Z</time>
      </trkpt>
      <trkpt lat="43.81994" lon="7.25643">
        <ele>553.85998535156</ele>
        <time>2010-07-31T16:08:09Z</time>
      </trkpt>
      <trkpt lat="43.81995" lon="7.25651">
        <ele>551.45001220703</ele>
        <time>2010-07-31T16:08:12Z</time>
      </trkpt>
      <trkpt lat="43.81995" lon="7.25656">
        <ele>549.53002929688</ele>
        <time>2010-07-31T16:08:14Z</time>
      </trkpt>
      <trkpt lat="43.81998" lon="7.25672">
        <ele>546.16998291016</ele>
        <time>2010-07-31T16:08:20Z</time>
      </trkpt>
      <trkpt lat="43.81998" lon="7.25678">
        <ele>545.20001220703</ele>
        <time>2010-07-31T16:08:22Z</time>
      </trkpt>
      <trkpt lat="43.82" lon="7.25691">
        <ele>543.28002929688</ele>
        <time>2010-07-31T16:08:25Z</time>
      </trkpt>
      <trkpt lat="43.82002" lon="7.25704">
        <ele>541.35998535156</ele>
        <time>2010-07-31T16:08:28Z</time>
      </trkpt>
      <trkpt lat="43.82004" lon="7.25721">
        <ele>537.03002929688</ele>
        <time>2010-07-31T16:08:33Z</time>
      </trkpt>
      <trkpt lat="43.82004" lon="7.25736">
        <ele>533.66998291016</ele>
        <time>2010-07-31T16:08:37Z</time>
      </trkpt>
      <trkpt lat="43.82004" lon="7.25767">
        <ele>529.82000732422</ele>
        <time>2010-07-31T16:08:44Z</time>
      </trkpt>
      <trkpt lat="43.82005" lon="7.25787">
        <ele>526.46002197266</ele>
        <time>2010-07-31T16:08:49Z</time>
      </trkpt>
      <trkpt lat="43.82009" lon="7.25815">
        <ele>523.09002685547</ele>
        <time>2010-07-31T16:08:56Z</time>
      </trkpt>
      <trkpt lat="43.82009" lon="7.25828">
        <ele>522.13000488281</ele>
        <time>2010-07-31T16:08:59Z</time>
      </trkpt>
      <trkpt lat="43.82008" lon="7.25841">
        <ele>521.16998291016</ele>
        <time>2010-07-31T16:09:03Z</time>
      </trkpt>
      <trkpt lat="43.82008" lon="7.25847">
        <ele>519.72998046875</ele>
        <time>2010-07-31T16:09:05Z</time>
      </trkpt>
      <trkpt lat="43.82006" lon="7.25864">
        <ele>516.36999511719</ele>
        <time>2010-07-31T16:09:11Z</time>
      </trkpt>
      <trkpt lat="43.82007" lon="7.25869">
        <ele>515.40002441406</ele>
        <time>2010-07-31T16:09:13Z</time>
      </trkpt>
      <trkpt lat="43.82006" lon="7.25878">
        <ele>513</ele>
        <time>2010-07-31T16:09:16Z</time>
      </trkpt>
      <trkpt lat="43.82003" lon="7.25892">
        <ele>510.11999511719</ele>
        <time>2010-07-31T16:09:20Z</time>
      </trkpt>
      <trkpt lat="43.81997" lon="7.25901">
        <ele>510.60000610352</ele>
        <time>2010-07-31T16:09:23Z</time>
      </trkpt>
      <trkpt lat="43.81988" lon="7.25919">
        <ele>506.26998901367</ele>
        <time>2010-07-31T16:09:30Z</time>
      </trkpt>
      <trkpt lat="43.81986" lon="7.25922">
        <ele>506.26998901367</ele>
        <time>2010-07-31T16:09:31Z</time>
      </trkpt>
      <trkpt lat="43.81982" lon="7.25933">
        <ele>505.79000854492</ele>
        <time>2010-07-31T16:09:34Z</time>
      </trkpt>
      <trkpt lat="43.81978" lon="7.25949">
        <ele>501.95001220703</ele>
        <time>2010-07-31T16:09:40Z</time>
      </trkpt>
      <trkpt lat="43.81974" lon="7.2596">
        <ele>500.01998901367</ele>
        <time>2010-07-31T16:09:44Z</time>
      </trkpt>
      <trkpt lat="43.81965" lon="7.25968">
        <ele>498.10000610352</ele>
        <time>2010-07-31T16:09:49Z</time>
      </trkpt>
      <trkpt lat="43.81965" lon="7.25978">
        <ele>494.73999023438</ele>
        <time>2010-07-31T16:09:54Z</time>
      </trkpt>
      <trkpt lat="43.81965" lon="7.25981">
        <ele>494.73999023438</ele>
        <time>2010-07-31T16:09:56Z</time>
      </trkpt>
      <trkpt lat="43.8196" lon="7.25991">
        <ele>494.26000976562</ele>
        <time>2010-07-31T16:10:01Z</time>
      </trkpt>
      <trkpt lat="43.81956" lon="7.26001">
        <ele>491.36999511719</ele>
        <time>2010-07-31T16:10:05Z</time>
      </trkpt>
      <trkpt lat="43.81949" lon="7.26014">
        <ele>488.9700012207</ele>
        <time>2010-07-31T16:10:09Z</time>
      </trkpt>
      <trkpt lat="43.81943" lon="7.26023">
        <ele>487.5299987793</ele>
        <time>2010-07-31T16:10:12Z</time>
      </trkpt>
      <trkpt lat="43.81934" lon="7.26036">
        <ele>484.16000366211</ele>
        <time>2010-07-31T16:10:16Z</time>
      </trkpt>
      <trkpt lat="43.81925" lon="7.26051">
        <ele>481.2799987793</ele>
        <time>2010-07-31T16:10:20Z</time>
      </trkpt>
      <trkpt lat="43.8192" lon="7.26061">
        <ele>478.86999511719</ele>
        <time>2010-07-31T16:10:23Z</time>
      </trkpt>
      <trkpt lat="43.81917" lon="7.26069">
        <ele>477.42999267578</ele>
        <time>2010-07-31T16:10:25Z</time>
      </trkpt>
      <trkpt lat="43.81913" lon="7.26081">
        <ele>475.98999023438</ele>
        <time>2010-07-31T16:10:28Z</time>
      </trkpt>
      <trkpt lat="43.8191" lon="7.26088">
        <ele>474.54998779297</ele>
        <time>2010-07-31T16:10:30Z</time>
      </trkpt>
      <trkpt lat="43.81904" lon="7.26097">
        <ele>471.66000366211</ele>
        <time>2010-07-31T16:10:33Z</time>
      </trkpt>
      <trkpt lat="43.81902" lon="7.26099">
        <ele>471.66000366211</ele>
        <time>2010-07-31T16:10:34Z</time>
      </trkpt>
      <trkpt lat="43.81898" lon="7.26112">
        <ele>469.26000976562</ele>
        <time>2010-07-31T16:10:39Z</time>
      </trkpt>
      <trkpt lat="43.81896" lon="7.26119">
        <ele>467.33999633789</ele>
        <time>2010-07-31T16:10:42Z</time>
      </trkpt>
      <trkpt lat="43.81887" lon="7.26128">
        <ele>463.9700012207</ele>
        <time>2010-07-31T16:10:47Z</time>
      </trkpt>
      <trkpt lat="43.81885" lon="7.2613">
        <ele>463.48999023438</ele>
        <time>2010-07-31T16:10:48Z</time>
      </trkpt>
      <trkpt lat="43.81878" lon="7.26137">
        <ele>461.57000732422</ele>
        <time>2010-07-31T16:10:51Z</time>
      </trkpt>
      <trkpt lat="43.81866" lon="7.26147">
        <ele>458.20999145508</ele>
        <time>2010-07-31T16:10:56Z</time>
      </trkpt>
      <trkpt lat="43.81858" lon="7.2616">
        <ele>455.79998779297</ele>
        <time>2010-07-31T16:11:00Z</time>
      </trkpt>
      <trkpt lat="43.81851" lon="7.2617">
        <ele>453.88000488281</ele>
        <time>2010-07-31T16:11:03Z</time>
      </trkpt>
      <trkpt lat="43.81825" lon="7.26203">
        <ele>450.0299987793</ele>
        <time>2010-07-31T16:11:13Z</time>
      </trkpt>
      <trkpt lat="43.81816" lon="7.26232">
        <ele>448.58999633789</ele>
        <time>2010-07-31T16:11:21Z</time>
      </trkpt>
      <trkpt lat="43.81822" lon="7.26245">
        <ele>446.19000244141</ele>
        <time>2010-07-31T16:11:25Z</time>
      </trkpt>
      <trkpt lat="43.81824" lon="7.26249">
        <ele>441.38000488281</ele>
        <time>2010-07-31T16:11:28Z</time>
      </trkpt>
      <trkpt lat="43.81825" lon="7.26251">
        <ele>441.38000488281</ele>
        <time>2010-07-31T16:11:29Z</time>
      </trkpt>
      <trkpt lat="43.81825" lon="7.26271">
        <ele>437.54000854492</ele>
        <time>2010-07-31T16:11:35Z</time>
      </trkpt>
      <trkpt lat="43.81825" lon="7.26276">
        <ele>437.05999755859</ele>
        <time>2010-07-31T16:11:36Z</time>
      </trkpt>
      <trkpt lat="43.81825" lon="7.2629">
        <ele>435.60998535156</ele>
        <time>2010-07-31T16:11:39Z</time>
      </trkpt>
      <trkpt lat="43.81826" lon="7.26326">
        <ele>433.20999145508</ele>
        <time>2010-07-31T16:11:49Z</time>
      </trkpt>
      <trkpt lat="43.81816" lon="7.26354">
        <ele>433.69000244141</ele>
        <time>2010-07-31T16:11:55Z</time>
      </trkpt>
      <trkpt lat="43.8181" lon="7.26397">
        <ele>433.69000244141</ele>
        <time>2010-07-31T16:12:06Z</time>
      </trkpt>
      <trkpt lat="43.81801" lon="7.26437">
        <ele>434.64999389648</ele>
        <time>2010-07-31T16:12:17Z</time>
      </trkpt>
      <trkpt lat="43.81797" lon="7.26454">
        <ele>436.57998657227</ele>
        <time>2010-07-31T16:12:22Z</time>
      </trkpt>
      <trkpt lat="43.81786" lon="7.26465">
        <ele>438.5</ele>
        <time>2010-07-31T16:12:28Z</time>
      </trkpt>
      <trkpt lat="43.8177" lon="7.26477">
        <ele>441.85998535156</ele>
        <time>2010-07-31T16:12:37Z</time>
      </trkpt>
      <trkpt lat="43.81751" lon="7.2649">
        <ele>438.98001098633</ele>
        <time>2010-07-31T16:12:46Z</time>
      </trkpt>
      <trkpt lat="43.8174" lon="7.26492">
        <ele>439.94000244141</ele>
        <time>2010-07-31T16:12:50Z</time>
      </trkpt>
      <trkpt lat="43.81717" lon="7.26503">
        <ele>439.94000244141</ele>
        <time>2010-07-31T16:13:01Z</time>
      </trkpt>
      <trkpt lat="43.81683" lon="7.26495">
        <ele>438.5</ele>
        <time>2010-07-31T16:13:13Z</time>
      </trkpt>
      <trkpt lat="43.81677" lon="7.26496">
        <ele>438.5</ele>
        <time>2010-07-31T16:13:15Z</time>
      </trkpt>
      <trkpt lat="43.81646" lon="7.26517">
        <ele>437.05999755859</ele>
        <time>2010-07-31T16:13:27Z</time>
      </trkpt>
      <trkpt lat="43.81609" lon="7.26534">
        <ele>436.10000610352</ele>
        <time>2010-07-31T16:13:39Z</time>
      </trkpt>
      <trkpt lat="43.81559" lon="7.26532">
        <ele>434.64999389648</ele>
        <time>2010-07-31T16:13:54Z</time>
      </trkpt>
      <trkpt lat="43.81501" lon="7.26514">
        <ele>434.17001342773</ele>
        <time>2010-07-31T16:14:09Z</time>
      </trkpt>
      <trkpt lat="43.81472" lon="7.26524">
        <ele>432.73001098633</ele>
        <time>2010-07-31T16:14:19Z</time>
      </trkpt>
      <trkpt lat="43.81446" lon="7.26547">
        <ele>431.29000854492</ele>
        <time>2010-07-31T16:14:31Z</time>
      </trkpt>
      <trkpt lat="43.81409" lon="7.26568">
        <ele>431.76998901367</ele>
        <time>2010-07-31T16:14:44Z</time>
      </trkpt>
      <trkpt lat="43.81373" lon="7.26563">
        <ele>430.32998657227</ele>
        <time>2010-07-31T16:14:55Z</time>
      </trkpt>
      <trkpt lat="43.81334" lon="7.26541">
        <ele>428.89001464844</ele>
        <time>2010-07-31T16:15:08Z</time>
      </trkpt>
      <trkpt lat="43.81295" lon="7.2655">
        <ele>429.85000610352</ele>
        <time>2010-07-31T16:15:21Z</time>
      </trkpt>
      <trkpt lat="43.81271" lon="7.26574">
        <ele>429.36999511719</ele>
        <time>2010-07-31T16:15:32Z</time>
      </trkpt>
      <trkpt lat="43.81241" lon="7.26606">
        <ele>427.92001342773</ele>
        <time>2010-07-31T16:15:46Z</time>
      </trkpt>
      <trkpt lat="43.81212" lon="7.2662">
        <ele>426.95999145508</ele>
        <time>2010-07-31T16:15:57Z</time>
      </trkpt>
      <trkpt lat="43.81169" lon="7.26609">
        <ele>425.51998901367</ele>
        <time>2010-07-31T16:16:08Z</time>
      </trkpt>
      <trkpt lat="43.8114" lon="7.2659">
        <ele>425.51998901367</ele>
        <time>2010-07-31T16:16:19Z</time>
      </trkpt>
      <trkpt lat="43.81097" lon="7.26566">
        <ele>424.07998657227</ele>
        <time>2010-07-31T16:16:32Z</time>
      </trkpt>
      <trkpt lat="43.81061" lon="7.2654">
        <ele>423.60000610352</ele>
        <time>2010-07-31T16:16:44Z</time>
      </trkpt>
      <trkpt lat="43.81022" lon="7.26537">
        <ele>423.60000610352</ele>
        <time>2010-07-31T16:16:57Z</time>
      </trkpt>
      <trkpt lat="43.80981" lon="7.26545">
        <ele>422.64001464844</ele>
        <time>2010-07-31T16:17:10Z</time>
      </trkpt>
      <trkpt lat="43.80954" lon="7.26552">
        <ele>421.19000244141</ele>
        <time>2010-07-31T16:17:20Z</time>
      </trkpt>
      <trkpt lat="43.80918" lon="7.26555">
        <ele>421.19000244141</ele>
        <time>2010-07-31T16:17:32Z</time>
      </trkpt>
      <trkpt lat="43.80886" lon="7.26572">
        <ele>420.23001098633</ele>
        <time>2010-07-31T16:17:43Z</time>
      </trkpt>
      <trkpt lat="43.80861" lon="7.26588">
        <ele>420.70999145508</ele>
        <time>2010-07-31T16:17:54Z</time>
      </trkpt>
      <trkpt lat="43.80837" lon="7.26602">
        <ele>419.26998901367</ele>
        <time>2010-07-31T16:18:03Z</time>
      </trkpt>
      <trkpt lat="43.80808" lon="7.26605">
        <ele>419.75</ele>
        <time>2010-07-31T16:18:13Z</time>
      </trkpt>
      <trkpt lat="43.80791" lon="7.2663">
        <ele>418.30999755859</ele>
        <time>2010-07-31T16:18:23Z</time>
      </trkpt>
      <trkpt lat="43.80782" lon="7.26655">
        <ele>417.82998657227</ele>
        <time>2010-07-31T16:18:31Z</time>
      </trkpt>
      <trkpt lat="43.80775" lon="7.26666">
        <ele>417.35000610352</ele>
        <time>2010-07-31T16:18:35Z</time>
      </trkpt>
      <trkpt lat="43.80747" lon="7.26691">
        <ele>417.35000610352</ele>
        <time>2010-07-31T16:18:46Z</time>
      </trkpt>
      <trkpt lat="43.80724" lon="7.26716">
        <ele>415.42999267578</ele>
        <time>2010-07-31T16:19:00Z</time>
      </trkpt>
      <trkpt lat="43.80694" lon="7.26749">
        <ele>413.5</ele>
        <time>2010-07-31T16:19:13Z</time>
      </trkpt>
      <trkpt lat="43.80672" lon="7.26779">
        <ele>413.01998901367</ele>
        <time>2010-07-31T16:19:23Z</time>
      </trkpt>
      <trkpt lat="43.80645" lon="7.26813">
        <ele>412.05999755859</ele>
        <time>2010-07-31T16:19:35Z</time>
      </trkpt>
      <trkpt lat="43.80615" lon="7.26844">
        <ele>410.61999511719</ele>
        <time>2010-07-31T16:19:47Z</time>
      </trkpt>
      <trkpt lat="43.80577" lon="7.26862">
        <ele>409.66000366211</ele>
        <time>2010-07-31T16:20:00Z</time>
      </trkpt>
      <trkpt lat="43.8054" lon="7.26866">
        <ele>409.17999267578</ele>
        <time>2010-07-31T16:20:12Z</time>
      </trkpt>
      <trkpt lat="43.80501" lon="7.26861">
        <ele>407.73999023438</ele>
        <time>2010-07-31T16:20:24Z</time>
      </trkpt>
      <trkpt lat="43.80463" lon="7.26843">
        <ele>407.26000976562</ele>
        <time>2010-07-31T16:20:37Z</time>
      </trkpt>
      <trkpt lat="43.80437" lon="7.26831">
        <ele>406.76998901367</ele>
        <time>2010-07-31T16:20:47Z</time>
      </trkpt>
      <trkpt lat="43.80434" lon="7.26795">
        <ele>408.2200012207</ele>
        <time>2010-07-31T16:20:59Z</time>
      </trkpt>
      <trkpt lat="43.80434" lon="7.26789">
        <ele>408.2200012207</ele>
        <time>2010-07-31T16:21:14Z</time>
      </trkpt>
      <trkpt lat="43.80436" lon="7.2679">
        <ele>408.2200012207</ele>
        <time>2010-07-31T16:21:27Z</time>
      </trkpt>
      <trkpt lat="43.80436" lon="7.26789">
        <ele>409.17999267578</ele>
        <time>2010-07-31T16:21:37Z</time>
      </trkpt>
      <trkpt lat="43.80408" lon="7.26797">
        <ele>406.76998901367</ele>
        <time>2010-07-31T16:21:51Z</time>
      </trkpt>
      <trkpt lat="43.80389" lon="7.268">
        <ele>404.85000610352</ele>
        <time>2010-07-31T16:21:59Z</time>
      </trkpt>
      <trkpt lat="43.80383" lon="7.26802">
        <ele>402.92999267578</ele>
        <time>2010-07-31T16:22:03Z</time>
      </trkpt>
      <trkpt lat="43.8038" lon="7.26804">
        <ele>401.9700012207</ele>
        <time>2010-07-31T16:22:05Z</time>
      </trkpt>
      <trkpt lat="43.8037" lon="7.26812">
        <ele>401.48999023438</ele>
        <time>2010-07-31T16:22:14Z</time>
      </trkpt>
      <trkpt lat="43.8036" lon="7.26819">
        <ele>401.9700012207</ele>
        <time>2010-07-31T16:22:19Z</time>
      </trkpt>
      <trkpt lat="43.80354" lon="7.26826">
        <ele>401.9700012207</ele>
        <time>2010-07-31T16:22:23Z</time>
      </trkpt>
      <trkpt lat="43.80335" lon="7.26851">
        <ele>402.45001220703</ele>
        <time>2010-07-31T16:22:33Z</time>
      </trkpt>
      <trkpt lat="43.80332" lon="7.26857">
        <ele>402.45001220703</ele>
        <time>2010-07-31T16:22:36Z</time>
      </trkpt>
      <trkpt lat="43.8031" lon="7.26862">
        <ele>404.36999511719</ele>
        <time>2010-07-31T16:22:45Z</time>
      </trkpt>
      <trkpt lat="43.80285" lon="7.26853">
        <ele>407.26000976562</ele>
        <time>2010-07-31T16:22:58Z</time>
      </trkpt>
      <trkpt lat="43.80268" lon="7.26857">
        <ele>409.17999267578</ele>
        <time>2010-07-31T16:23:10Z</time>
      </trkpt>
      <trkpt lat="43.80259" lon="7.2686">
        <ele>410.61999511719</ele>
        <time>2010-07-31T16:23:17Z</time>
      </trkpt>
      <trkpt lat="43.80254" lon="7.26859">
        <ele>412.05999755859</ele>
        <time>2010-07-31T16:23:22Z</time>
      </trkpt>
      <trkpt lat="43.80244" lon="7.26858">
        <ele>415.42999267578</ele>
        <time>2010-07-31T16:23:34Z</time>
      </trkpt>
      <trkpt lat="43.80238" lon="7.26859">
        <ele>416.86999511719</ele>
        <time>2010-07-31T16:23:40Z</time>
      </trkpt>
      <trkpt lat="43.8023" lon="7.26864">
        <ele>415.42999267578</ele>
        <time>2010-07-31T16:23:45Z</time>
      </trkpt>
      <trkpt lat="43.80212" lon="7.26875">
        <ele>414.4700012207</ele>
        <time>2010-07-31T16:23:54Z</time>
      </trkpt>
      <trkpt lat="43.80207" lon="7.26882">
        <ele>413.98001098633</ele>
        <time>2010-07-31T16:23:57Z</time>
      </trkpt>
      <trkpt lat="43.80185" lon="7.2689">
        <ele>415.42999267578</ele>
        <time>2010-07-31T16:24:06Z</time>
      </trkpt>
      <trkpt lat="43.80158" lon="7.26903">
        <ele>417.35000610352</ele>
        <time>2010-07-31T16:24:18Z</time>
      </trkpt>
      <trkpt lat="43.8014" lon="7.26909">
        <ele>419.75</ele>
        <time>2010-07-31T16:24:29Z</time>
      </trkpt>
      <trkpt lat="43.80125" lon="7.26915">
        <ele>422.64001464844</ele>
        <time>2010-07-31T16:24:43Z</time>
      </trkpt>
      <trkpt lat="43.80123" lon="7.26926">
        <ele>424.07998657227</ele>
        <time>2010-07-31T16:24:50Z</time>
      </trkpt>
      <trkpt lat="43.80122" lon="7.2693">
        <ele>424.55999755859</ele>
        <time>2010-07-31T16:24:53Z</time>
      </trkpt>
      <trkpt lat="43.80109" lon="7.26938">
        <ele>427.44000244141</ele>
        <time>2010-07-31T16:25:06Z</time>
      </trkpt>
      <trkpt lat="43.80104" lon="7.26947">
        <ele>427.92001342773</ele>
        <time>2010-07-31T16:25:12Z</time>
      </trkpt>
      <trkpt lat="43.80077" lon="7.26952">
        <ele>430.80999755859</ele>
        <time>2010-07-31T16:25:27Z</time>
      </trkpt>
      <trkpt lat="43.80072" lon="7.26955">
        <ele>432.25</ele>
        <time>2010-07-31T16:25:32Z</time>
      </trkpt>
      <trkpt lat="43.80067" lon="7.26958">
        <ele>433.20999145508</ele>
        <time>2010-07-31T16:25:38Z</time>
      </trkpt>
      <trkpt lat="43.80063" lon="7.26959">
        <ele>434.17001342773</ele>
        <time>2010-07-31T16:25:42Z</time>
      </trkpt>
      <trkpt lat="43.8004" lon="7.26971">
        <ele>435.13000488281</ele>
        <time>2010-07-31T16:25:55Z</time>
      </trkpt>
      <trkpt lat="43.80017" lon="7.26977">
        <ele>437.54000854492</ele>
        <time>2010-07-31T16:26:05Z</time>
      </trkpt>
      <trkpt lat="43.8" lon="7.26978">
        <ele>440.89999389648</ele>
        <time>2010-07-31T16:26:15Z</time>
      </trkpt>
      <trkpt lat="43.79978" lon="7.26988">
        <ele>442.82000732422</ele>
        <time>2010-07-31T16:26:31Z</time>
      </trkpt>
      <trkpt lat="43.79973" lon="7.26991">
        <ele>442.33999633789</ele>
        <time>2010-07-31T16:26:35Z</time>
      </trkpt>
      <trkpt lat="43.79961" lon="7.27004">
        <ele>441.85998535156</ele>
        <time>2010-07-31T16:26:44Z</time>
      </trkpt>
      <trkpt lat="43.79955" lon="7.27014">
        <ele>442.82000732422</ele>
        <time>2010-07-31T16:26:49Z</time>
      </trkpt>
      <trkpt lat="43.79934" lon="7.27035">
        <ele>443.79000854492</ele>
        <time>2010-07-31T16:27:00Z</time>
      </trkpt>
      <trkpt lat="43.79908" lon="7.27038">
        <ele>445.70999145508</ele>
        <time>2010-07-31T16:27:09Z</time>
      </trkpt>
      <trkpt lat="43.79897" lon="7.27047">
        <ele>447.14999389648</ele>
        <time>2010-07-31T16:27:15Z</time>
      </trkpt>
      <trkpt lat="43.7989" lon="7.27055">
        <ele>447.14999389648</ele>
        <time>2010-07-31T16:27:20Z</time>
      </trkpt>
      <trkpt lat="43.79884" lon="7.2708">
        <ele>445.23001098633</ele>
        <time>2010-07-31T16:27:29Z</time>
      </trkpt>
      <trkpt lat="43.79882" lon="7.27082">
        <ele>445.23001098633</ele>
        <time>2010-07-31T16:27:30Z</time>
      </trkpt>
      <trkpt lat="43.79865" lon="7.27101">
        <ele>444.26998901367</ele>
        <time>2010-07-31T16:27:39Z</time>
      </trkpt>
      <trkpt lat="43.79816" lon="7.27102">
        <ele>445.70999145508</ele>
        <time>2010-07-31T16:27:53Z</time>
      </trkpt>
      <trkpt lat="43.79794" lon="7.27099">
        <ele>446.67001342773</ele>
        <time>2010-07-31T16:28:01Z</time>
      </trkpt>
      <trkpt lat="43.7979" lon="7.27105">
        <ele>447.14999389648</ele>
        <time>2010-07-31T16:28:05Z</time>
      </trkpt>
      <trkpt lat="43.79782" lon="7.27122">
        <ele>448.10998535156</ele>
        <time>2010-07-31T16:28:13Z</time>
      </trkpt>
      <trkpt lat="43.79777" lon="7.27132">
        <ele>448.58999633789</ele>
        <time>2010-07-31T16:28:18Z</time>
      </trkpt>
      <trkpt lat="43.79772" lon="7.27143">
        <ele>448.58999633789</ele>
        <time>2010-07-31T16:28:23Z</time>
      </trkpt>
      <trkpt lat="43.79764" lon="7.27159">
        <ele>448.58999633789</ele>
        <time>2010-07-31T16:28:30Z</time>
      </trkpt>
      <trkpt lat="43.79753" lon="7.27191">
        <ele>449.07000732422</ele>
        <time>2010-07-31T16:28:42Z</time>
      </trkpt>
      <trkpt lat="43.79718" lon="7.2721">
        <ele>451.48001098633</ele>
        <time>2010-07-31T16:28:53Z</time>
      </trkpt>
      <trkpt lat="43.79694" lon="7.27219">
        <ele>452.92001342773</ele>
        <time>2010-07-31T16:29:03Z</time>
      </trkpt>
      <trkpt lat="43.79666" lon="7.27231">
        <ele>455.79998779297</ele>
        <time>2010-07-31T16:29:15Z</time>
      </trkpt>
      <trkpt lat="43.79649" lon="7.27235">
        <ele>458.69000244141</ele>
        <time>2010-07-31T16:29:27Z</time>
      </trkpt>
      <trkpt lat="43.79652" lon="7.2722">
        <ele>461.57000732422</ele>
        <time>2010-07-31T16:29:39Z</time>
      </trkpt>
      <trkpt lat="43.79653" lon="7.27218">
        <ele>462.5299987793</ele>
        <time>2010-07-31T16:29:41Z</time>
      </trkpt>
      <trkpt lat="43.79656" lon="7.27213">
        <ele>463.01000976562</ele>
        <time>2010-07-31T16:29:45Z</time>
      </trkpt>
      <trkpt lat="43.7966" lon="7.27202">
        <ele>464.92999267578</ele>
        <time>2010-07-31T16:29:53Z</time>
      </trkpt>
      <trkpt lat="43.79662" lon="7.27196">
        <ele>465.42001342773</ele>
        <time>2010-07-31T16:29:57Z</time>
      </trkpt>
      <trkpt lat="43.79683" lon="7.27164">
        <ele>467.33999633789</ele>
        <time>2010-07-31T16:30:18Z</time>
      </trkpt>
      <trkpt lat="43.79687" lon="7.27159">
        <ele>462.04998779297</ele>
        <time>2010-07-31T16:30:21Z</time>
      </trkpt>
      <trkpt lat="43.79689" lon="7.27158">
        <ele>466.85998535156</ele>
        <time>2010-07-31T16:30:22Z</time>
      </trkpt>
      <trkpt lat="43.79692" lon="7.27155">
        <ele>467.82000732422</ele>
        <time>2010-07-31T16:30:24Z</time>
      </trkpt>
      <trkpt lat="43.79696" lon="7.27144">
        <ele>468.7799987793</ele>
        <time>2010-07-31T16:30:30Z</time>
      </trkpt>
      <trkpt lat="43.79702" lon="7.27132">
        <ele>470.2200012207</ele>
        <time>2010-07-31T16:30:37Z</time>
      </trkpt>
      <trkpt lat="43.79708" lon="7.27119">
        <ele>472.14001464844</ele>
        <time>2010-07-31T16:30:48Z</time>
      </trkpt>
      <trkpt lat="43.79707" lon="7.27111">
        <ele>473.58999633789</ele>
        <time>2010-07-31T16:30:53Z</time>
      </trkpt>
      <trkpt lat="43.79708" lon="7.27108">
        <ele>474.07000732422</ele>
        <time>2010-07-31T16:30:56Z</time>
      </trkpt>
      <trkpt lat="43.79713" lon="7.27104">
        <ele>476.4700012207</ele>
        <time>2010-07-31T16:31:01Z</time>
      </trkpt>
      <trkpt lat="43.79723" lon="7.27085">
        <ele>478.39001464844</ele>
        <time>2010-07-31T16:31:16Z</time>
      </trkpt>
      <trkpt lat="43.79736" lon="7.27064">
        <ele>480.79998779297</ele>
        <time>2010-07-31T16:31:34Z</time>
      </trkpt>
      <trkpt lat="43.79737" lon="7.27058">
        <ele>481.2799987793</ele>
        <time>2010-07-31T16:31:37Z</time>
      </trkpt>
      <trkpt lat="43.79746" lon="7.27038">
        <ele>483.67999267578</ele>
        <time>2010-07-31T16:31:52Z</time>
      </trkpt>
      <trkpt lat="43.79751" lon="7.2703">
        <ele>484.16000366211</ele>
        <time>2010-07-31T16:32:00Z</time>
      </trkpt>
      <trkpt lat="43.79756" lon="7.27022">
        <ele>485.11999511719</ele>
        <time>2010-07-31T16:32:07Z</time>
      </trkpt>
      <trkpt lat="43.79774" lon="7.27006">
        <ele>487.04998779297</ele>
        <time>2010-07-31T16:32:23Z</time>
      </trkpt>
      <trkpt lat="43.79796" lon="7.26985">
        <ele>488.9700012207</ele>
        <time>2010-07-31T16:32:41Z</time>
      </trkpt>
      <trkpt lat="43.79797" lon="7.26984">
        <ele>488.9700012207</ele>
        <time>2010-07-31T16:32:42Z</time>
      </trkpt>
      <trkpt lat="43.79808" lon="7.26982">
        <ele>489.92999267578</ele>
        <time>2010-07-31T16:32:50Z</time>
      </trkpt>
      <trkpt lat="43.79813" lon="7.26982">
        <ele>491.85000610352</ele>
        <time>2010-07-31T16:32:55Z</time>
      </trkpt>
      <trkpt lat="43.79814" lon="7.26982">
        <ele>491.85000610352</ele>
        <time>2010-07-31T16:32:56Z</time>
      </trkpt>
      <trkpt lat="43.79828" lon="7.2698">
        <ele>494.26000976562</ele>
        <time>2010-07-31T16:33:08Z</time>
      </trkpt>
      <trkpt lat="43.7984" lon="7.2697">
        <ele>497.14001464844</ele>
        <time>2010-07-31T16:33:24Z</time>
      </trkpt>
      <trkpt lat="43.79853" lon="7.26952">
        <ele>500.5</ele>
        <time>2010-07-31T16:33:41Z</time>
      </trkpt>
      <trkpt lat="43.79855" lon="7.26949">
        <ele>501.45999145508</ele>
        <time>2010-07-31T16:33:44Z</time>
      </trkpt>
      <trkpt lat="43.79867" lon="7.26938">
        <ele>503.86999511719</ele>
        <time>2010-07-31T16:33:58Z</time>
      </trkpt>
      <trkpt lat="43.79875" lon="7.26932">
        <ele>503.39001464844</ele>
        <time>2010-07-31T16:34:05Z</time>
      </trkpt>
      <trkpt lat="43.799" lon="7.26911">
        <ele>503.86999511719</ele>
        <time>2010-07-31T16:34:19Z</time>
      </trkpt>
      <trkpt lat="43.79925" lon="7.26892">
        <ele>501.45999145508</ele>
        <time>2010-07-31T16:34:31Z</time>
      </trkpt>
      <trkpt lat="43.79931" lon="7.2689">
        <ele>500.01998901367</ele>
        <time>2010-07-31T16:34:33Z</time>
      </trkpt>
      <trkpt lat="43.79951" lon="7.26881">
        <ele>499.05999755859</ele>
        <time>2010-07-31T16:34:40Z</time>
      </trkpt>
      <trkpt lat="43.79958" lon="7.26873">
        <ele>500.98001098633</ele>
        <time>2010-07-31T16:34:48Z</time>
      </trkpt>
      <trkpt lat="43.79971" lon="7.26867">
        <ele>500.5</ele>
        <time>2010-07-31T16:34:56Z</time>
      </trkpt>
      <trkpt lat="43.79974" lon="7.26862">
        <ele>501.95001220703</ele>
        <time>2010-07-31T16:34:59Z</time>
      </trkpt>
      <trkpt lat="43.79975" lon="7.2686">
        <ele>502.42999267578</ele>
        <time>2010-07-31T16:35:01Z</time>
      </trkpt>
      <trkpt lat="43.79979" lon="7.26851">
        <ele>504.82998657227</ele>
        <time>2010-07-31T16:35:09Z</time>
      </trkpt>
      <trkpt lat="43.79987" lon="7.26842">
        <ele>505.79000854492</ele>
        <time>2010-07-31T16:35:15Z</time>
      </trkpt>
      <trkpt lat="43.79993" lon="7.26835">
        <ele>505.79000854492</ele>
        <time>2010-07-31T16:35:18Z</time>
      </trkpt>
      <trkpt lat="43.80014" lon="7.26802">
        <ele>503.86999511719</ele>
        <time>2010-07-31T16:35:32Z</time>
      </trkpt>
      <trkpt lat="43.80033" lon="7.26764">
        <ele>506.75</ele>
        <time>2010-07-31T16:35:45Z</time>
      </trkpt>
      <trkpt lat="43.80034" lon="7.26722">
        <ele>507.23001098633</ele>
        <time>2010-07-31T16:35:59Z</time>
      </trkpt>
      <trkpt lat="43.80025" lon="7.26698">
        <ele>506.75</ele>
        <time>2010-07-31T16:36:07Z</time>
      </trkpt>
      <trkpt lat="43.80019" lon="7.26676">
        <ele>504.82998657227</ele>
        <time>2010-07-31T16:36:14Z</time>
      </trkpt>
      <trkpt lat="43.80006" lon="7.26656">
        <ele>502.42999267578</ele>
        <time>2010-07-31T16:36:21Z</time>
      </trkpt>
      <trkpt lat="43.79987" lon="7.26642">
        <ele>500.01998901367</ele>
        <time>2010-07-31T16:36:28Z</time>
      </trkpt>
      <trkpt lat="43.79981" lon="7.2663">
        <ele>500.01998901367</ele>
        <time>2010-07-31T16:36:32Z</time>
      </trkpt>
      <trkpt lat="43.79985" lon="7.26582">
        <ele>497.61999511719</ele>
        <time>2010-07-31T16:36:44Z</time>
      </trkpt>
      <trkpt lat="43.79984" lon="7.26578">
        <ele>498.10000610352</ele>
        <time>2010-07-31T16:36:45Z</time>
      </trkpt>
      <trkpt lat="43.79963" lon="7.26539">
        <ele>496.17999267578</ele>
        <time>2010-07-31T16:36:58Z</time>
      </trkpt>
      <trkpt lat="43.7995" lon="7.26504">
        <ele>496.66000366211</ele>
        <time>2010-07-31T16:37:10Z</time>
      </trkpt>
      <trkpt lat="43.79944" lon="7.26467">
        <ele>495.2200012207</ele>
        <time>2010-07-31T16:37:21Z</time>
      </trkpt>
      <trkpt lat="43.79942" lon="7.26449">
        <ele>494.73999023438</ele>
        <time>2010-07-31T16:37:26Z</time>
      </trkpt>
      <trkpt lat="43.79939" lon="7.26418">
        <ele>496.17999267578</ele>
        <time>2010-07-31T16:37:35Z</time>
      </trkpt>
      <trkpt lat="43.79937" lon="7.26377">
        <ele>495.2200012207</ele>
        <time>2010-07-31T16:37:47Z</time>
      </trkpt>
      <trkpt lat="43.79939" lon="7.26342">
        <ele>493.29000854492</ele>
        <time>2010-07-31T16:37:58Z</time>
      </trkpt>
      <trkpt lat="43.79943" lon="7.26305">
        <ele>493.29000854492</ele>
        <time>2010-07-31T16:38:09Z</time>
      </trkpt>
      <trkpt lat="43.79951" lon="7.26262">
        <ele>495.70001220703</ele>
        <time>2010-07-31T16:38:22Z</time>
      </trkpt>
      <trkpt lat="43.79952" lon="7.26254">
        <ele>496.17999267578</ele>
        <time>2010-07-31T16:38:26Z</time>
      </trkpt>
      <trkpt lat="43.79959" lon="7.2622">
        <ele>497.61999511719</ele>
        <time>2010-07-31T16:38:39Z</time>
      </trkpt>
      <trkpt lat="43.79961" lon="7.2621">
        <ele>497.61999511719</ele>
        <time>2010-07-31T16:38:42Z</time>
      </trkpt>
      <trkpt lat="43.79976" lon="7.26164">
        <ele>496.17999267578</ele>
        <time>2010-07-31T16:38:55Z</time>
      </trkpt>
      <trkpt lat="43.79977" lon="7.2613">
        <ele>493.29000854492</ele>
        <time>2010-07-31T16:39:04Z</time>
      </trkpt>
      <trkpt lat="43.79972" lon="7.26082">
        <ele>490.89001464844</ele>
        <time>2010-07-31T16:39:17Z</time>
      </trkpt>
      <trkpt lat="43.79961" lon="7.26037">
        <ele>488.48999023438</ele>
        <time>2010-07-31T16:39:29Z</time>
      </trkpt>
      <trkpt lat="43.79951" lon="7.25996">
        <ele>489.92999267578</ele>
        <time>2010-07-31T16:39:41Z</time>
      </trkpt>
      <trkpt lat="43.7995" lon="7.25989">
        <ele>490.89001464844</ele>
        <time>2010-07-31T16:39:45Z</time>
      </trkpt>
      <trkpt lat="43.79951" lon="7.25982">
        <ele>492.32998657227</ele>
        <time>2010-07-31T16:39:50Z</time>
      </trkpt>
      <trkpt lat="43.7995" lon="7.25964">
        <ele>493.76998901367</ele>
        <time>2010-07-31T16:40:02Z</time>
      </trkpt>
      <trkpt lat="43.79944" lon="7.25941">
        <ele>496.17999267578</ele>
        <time>2010-07-31T16:40:17Z</time>
      </trkpt>
      <trkpt lat="43.7994" lon="7.25917">
        <ele>497.14001464844</ele>
        <time>2010-07-31T16:40:32Z</time>
      </trkpt>
      <trkpt lat="43.79939" lon="7.25909">
        <ele>498.57998657227</ele>
        <time>2010-07-31T16:40:36Z</time>
      </trkpt>
      <trkpt lat="43.79938" lon="7.25868">
        <ele>500.01998901367</ele>
        <time>2010-07-31T16:40:52Z</time>
      </trkpt>
      <trkpt lat="43.79935" lon="7.25832">
        <ele>503.39001464844</ele>
        <time>2010-07-31T16:41:04Z</time>
      </trkpt>
      <trkpt lat="43.79928" lon="7.25841">
        <ele>503.86999511719</ele>
        <time>2010-07-31T16:41:12Z</time>
      </trkpt>
      <trkpt lat="43.79938" lon="7.25882">
        <ele>502.91000366211</ele>
        <time>2010-07-31T16:41:25Z</time>
      </trkpt>
      <trkpt lat="43.79934" lon="7.25921">
        <ele>501.95001220703</ele>
        <time>2010-07-31T16:41:36Z</time>
      </trkpt>
      <trkpt lat="43.79905" lon="7.25929">
        <ele>501.95001220703</ele>
        <time>2010-07-31T16:41:48Z</time>
      </trkpt>
      <trkpt lat="43.79887" lon="7.2589">
        <ele>504.35000610352</ele>
        <time>2010-07-31T16:42:03Z</time>
      </trkpt>
      <trkpt lat="43.79862" lon="7.25861">
        <ele>506.75</ele>
        <time>2010-07-31T16:42:19Z</time>
      </trkpt>
      <trkpt lat="43.79834" lon="7.25845">
        <ele>508.67001342773</ele>
        <time>2010-07-31T16:42:34Z</time>
      </trkpt>
      <trkpt lat="43.79796" lon="7.25816">
        <ele>511.55999755859</ele>
        <time>2010-07-31T16:42:52Z</time>
      </trkpt>
      <trkpt lat="43.79793" lon="7.25812">
        <ele>511.07998657227</ele>
        <time>2010-07-31T16:42:54Z</time>
      </trkpt>
      <trkpt lat="43.79794" lon="7.25801">
        <ele>512.03997802734</ele>
        <time>2010-07-31T16:43:00Z</time>
      </trkpt>
      <trkpt lat="43.79802" lon="7.25807">
        <ele>513</ele>
        <time>2010-07-31T16:43:07Z</time>
      </trkpt>
      <trkpt lat="43.79826" lon="7.25815">
        <ele>514.91998291016</ele>
        <time>2010-07-31T16:43:20Z</time>
      </trkpt>
      <trkpt lat="43.79853" lon="7.25814">
        <ele>517.80999755859</ele>
        <time>2010-07-31T16:43:33Z</time>
      </trkpt>
      <trkpt lat="43.79877" lon="7.25797">
        <ele>520.69000244141</ele>
        <time>2010-07-31T16:43:46Z</time>
      </trkpt>
      <trkpt lat="43.79895" lon="7.25779">
        <ele>522.60998535156</ele>
        <time>2010-07-31T16:44:01Z</time>
      </trkpt>
      <trkpt lat="43.7991" lon="7.25746">
        <ele>524.05999755859</ele>
        <time>2010-07-31T16:44:21Z</time>
      </trkpt>
      <trkpt lat="43.79916" lon="7.25732">
        <ele>525.5</ele>
        <time>2010-07-31T16:44:29Z</time>
      </trkpt>
      <trkpt lat="43.79918" lon="7.25723">
        <ele>525.97998046875</ele>
        <time>2010-07-31T16:44:34Z</time>
      </trkpt>
      <trkpt lat="43.79923" lon="7.25692">
        <ele>528.38000488281</ele>
        <time>2010-07-31T16:44:51Z</time>
      </trkpt>
      <trkpt lat="43.79936" lon="7.2566">
        <ele>530.78997802734</ele>
        <time>2010-07-31T16:45:05Z</time>
      </trkpt>
      <trkpt lat="43.79937" lon="7.25655">
        <ele>530.78997802734</ele>
        <time>2010-07-31T16:45:07Z</time>
      </trkpt>
      <trkpt lat="43.7994" lon="7.2564">
        <ele>532.71002197266</ele>
        <time>2010-07-31T16:45:13Z</time>
      </trkpt>
      <trkpt lat="43.79957" lon="7.25598">
        <ele>535.10998535156</ele>
        <time>2010-07-31T16:45:27Z</time>
      </trkpt>
      <trkpt lat="43.79963" lon="7.25588">
        <ele>536.07000732422</ele>
        <time>2010-07-31T16:45:31Z</time>
      </trkpt>
      <trkpt lat="43.79979" lon="7.25565">
        <ele>537.51000976562</ele>
        <time>2010-07-31T16:45:44Z</time>
      </trkpt>
      <trkpt lat="43.79994" lon="7.25545">
        <ele>538.47998046875</ele>
        <time>2010-07-31T16:46:00Z</time>
      </trkpt>
      <trkpt lat="43.80013" lon="7.25539">
        <ele>538.96002197266</ele>
        <time>2010-07-31T16:46:13Z</time>
      </trkpt>
      <trkpt lat="43.80014" lon="7.25541">
        <ele>539.44000244141</ele>
        <time>2010-07-31T16:46:14Z</time>
      </trkpt>
      <trkpt lat="43.8002" lon="7.25573">
        <ele>539.44000244141</ele>
        <time>2010-07-31T16:46:30Z</time>
      </trkpt>
      <trkpt lat="43.80025" lon="7.25592">
        <ele>541.84002685547</ele>
        <time>2010-07-31T16:46:40Z</time>
      </trkpt>
      <trkpt lat="43.80029" lon="7.25599">
        <ele>542.32000732422</ele>
        <time>2010-07-31T16:46:44Z</time>
      </trkpt>
      <trkpt lat="43.80033" lon="7.25606">
        <ele>542.32000732422</ele>
        <time>2010-07-31T16:46:49Z</time>
      </trkpt>
      <trkpt lat="43.80043" lon="7.25623">
        <ele>542.79998779297</ele>
        <time>2010-07-31T16:47:00Z</time>
      </trkpt>
      <trkpt lat="43.80045" lon="7.25626">
        <ele>543.76000976562</ele>
        <time>2010-07-31T16:47:02Z</time>
      </trkpt>
      <trkpt lat="43.80055" lon="7.25635">
        <ele>543.76000976562</ele>
        <time>2010-07-31T16:47:10Z</time>
      </trkpt>
      <trkpt lat="43.80059" lon="7.25644">
        <ele>545.20001220703</ele>
        <time>2010-07-31T16:47:15Z</time>
      </trkpt>
      <trkpt lat="43.80061" lon="7.25648">
        <ele>545.20001220703</ele>
        <time>2010-07-31T16:47:17Z</time>
      </trkpt>
      <trkpt lat="43.80066" lon="7.25652">
        <ele>545.20001220703</ele>
        <time>2010-07-31T16:47:21Z</time>
      </trkpt>
      <trkpt lat="43.80081" lon="7.25657">
        <ele>547.13000488281</ele>
        <time>2010-07-31T16:47:34Z</time>
      </trkpt>
      <trkpt lat="43.8011" lon="7.25643">
        <ele>548.57000732422</ele>
        <time>2010-07-31T16:47:47Z</time>
      </trkpt>
      <trkpt lat="43.80138" lon="7.2562">
        <ele>550.96997070312</ele>
        <time>2010-07-31T16:48:03Z</time>
      </trkpt>
      <trkpt lat="43.80158" lon="7.25601">
        <ele>552.90002441406</ele>
        <time>2010-07-31T16:48:14Z</time>
      </trkpt>
      <trkpt lat="43.80186" lon="7.25576">
        <ele>555.29998779297</ele>
        <time>2010-07-31T16:48:29Z</time>
      </trkpt>
      <trkpt lat="43.80211" lon="7.25557">
        <ele>555.29998779297</ele>
        <time>2010-07-31T16:48:40Z</time>
      </trkpt>
      <trkpt lat="43.80243" lon="7.25544">
        <ele>554.82000732422</ele>
        <time>2010-07-31T16:48:54Z</time>
      </trkpt>
      <trkpt lat="43.80259" lon="7.25556">
        <ele>556.26000976562</ele>
        <time>2010-07-31T16:49:01Z</time>
      </trkpt>
      <trkpt lat="43.80265" lon="7.25597">
        <ele>557.70001220703</ele>
        <time>2010-07-31T16:49:15Z</time>
      </trkpt>
      <trkpt lat="43.80269" lon="7.25633">
        <ele>559.14001464844</ele>
        <time>2010-07-31T16:49:26Z</time>
      </trkpt>
      <trkpt lat="43.80268" lon="7.25668">
        <ele>561.07000732422</ele>
        <time>2010-07-31T16:49:38Z</time>
      </trkpt>
      <trkpt lat="43.80277" lon="7.25716">
        <ele>562.51000976562</ele>
        <time>2010-07-31T16:49:54Z</time>
      </trkpt>
      <trkpt lat="43.80296" lon="7.25732">
        <ele>563.95001220703</ele>
        <time>2010-07-31T16:50:05Z</time>
      </trkpt>
      <trkpt lat="43.80317" lon="7.25735">
        <ele>566.34997558594</ele>
        <time>2010-07-31T16:50:17Z</time>
      </trkpt>
      <trkpt lat="43.80321" lon="7.25734">
        <ele>566.83001708984</ele>
        <time>2010-07-31T16:50:19Z</time>
      </trkpt>
      <trkpt lat="43.80349" lon="7.25729">
        <ele>568.28002929688</ele>
        <time>2010-07-31T16:50:33Z</time>
      </trkpt>
      <trkpt lat="43.80371" lon="7.25731">
        <ele>570.20001220703</ele>
        <time>2010-07-31T16:50:43Z</time>
      </trkpt>
      <trkpt lat="43.80406" lon="7.25734">
        <ele>572.11999511719</ele>
        <time>2010-07-31T16:50:58Z</time>
      </trkpt>
      <trkpt lat="43.80442" lon="7.25732">
        <ele>574.03997802734</ele>
        <time>2010-07-31T16:51:13Z</time>
      </trkpt>
      <trkpt lat="43.80472" lon="7.25736">
        <ele>575.48999023438</ele>
        <time>2010-07-31T16:51:26Z</time>
      </trkpt>
      <trkpt lat="43.80501" lon="7.2572">
        <ele>576.45001220703</ele>
        <time>2010-07-31T16:51:39Z</time>
      </trkpt>
      <trkpt lat="43.80516" lon="7.25691">
        <ele>578.36999511719</ele>
        <time>2010-07-31T16:51:51Z</time>
      </trkpt>
      <trkpt lat="43.80524" lon="7.25655">
        <ele>579.80999755859</ele>
        <time>2010-07-31T16:52:03Z</time>
      </trkpt>
      <trkpt lat="43.80539" lon="7.25607">
        <ele>580.77001953125</ele>
        <time>2010-07-31T16:52:19Z</time>
      </trkpt>
      <trkpt lat="43.80544" lon="7.25574">
        <ele>579.80999755859</ele>
        <time>2010-07-31T16:52:29Z</time>
      </trkpt>
      <trkpt lat="43.80548" lon="7.25534">
        <ele>580.77001953125</ele>
        <time>2010-07-31T16:52:42Z</time>
      </trkpt>
      <trkpt lat="43.80553" lon="7.25531">
        <ele>580.77001953125</ele>
        <time>2010-07-31T16:52:44Z</time>
      </trkpt>
      <trkpt lat="43.80587" lon="7.25545">
        <ele>580.77001953125</ele>
        <time>2010-07-31T16:52:58Z</time>
      </trkpt>
      <trkpt lat="43.80615" lon="7.25565">
        <ele>582.21997070312</ele>
        <time>2010-07-31T16:53:11Z</time>
      </trkpt>
      <trkpt lat="43.80633" lon="7.25591">
        <ele>582.21997070312</ele>
        <time>2010-07-31T16:53:22Z</time>
      </trkpt>
      <trkpt lat="43.80659" lon="7.2559">
        <ele>582.70001220703</ele>
        <time>2010-07-31T16:53:33Z</time>
      </trkpt>
      <trkpt lat="43.80668" lon="7.25594">
        <ele>583.17999267578</ele>
        <time>2010-07-31T16:53:37Z</time>
      </trkpt>
      <trkpt lat="43.8069" lon="7.25633">
        <ele>583.65997314453</ele>
        <time>2010-07-31T16:53:50Z</time>
      </trkpt>
      <trkpt lat="43.80718" lon="7.25654">
        <ele>584.61999511719</ele>
        <time>2010-07-31T16:54:04Z</time>
      </trkpt>
      <trkpt lat="43.80745" lon="7.25658">
        <ele>585.58001708984</ele>
        <time>2010-07-31T16:54:15Z</time>
      </trkpt>
      <trkpt lat="43.8078" lon="7.25651">
        <ele>587.02001953125</ele>
        <time>2010-07-31T16:54:30Z</time>
      </trkpt>
      <trkpt lat="43.80805" lon="7.25657">
        <ele>588.46002197266</ele>
        <time>2010-07-31T16:54:42Z</time>
      </trkpt>
      <trkpt lat="43.80832" lon="7.25642">
        <ele>589.42999267578</ele>
        <time>2010-07-31T16:54:56Z</time>
      </trkpt>
      <trkpt lat="43.80855" lon="7.25612">
        <ele>589.90997314453</ele>
        <time>2010-07-31T16:55:09Z</time>
      </trkpt>
      <trkpt lat="43.80872" lon="7.25585">
        <ele>591.34997558594</ele>
        <time>2010-07-31T16:55:21Z</time>
      </trkpt>
      <trkpt lat="43.80886" lon="7.25541">
        <ele>592.30999755859</ele>
        <time>2010-07-31T16:55:36Z</time>
      </trkpt>
      <trkpt lat="43.80882" lon="7.25491">
        <ele>593.27001953125</ele>
        <time>2010-07-31T16:55:52Z</time>
      </trkpt>
      <trkpt lat="43.80896" lon="7.25453">
        <ele>593.27001953125</ele>
        <time>2010-07-31T16:56:05Z</time>
      </trkpt>
      <trkpt lat="43.80916" lon="7.25464">
        <ele>594.71002197266</ele>
        <time>2010-07-31T16:56:15Z</time>
      </trkpt>
      <trkpt lat="43.8093" lon="7.25474">
        <ele>594.71002197266</ele>
        <time>2010-07-31T16:56:22Z</time>
      </trkpt>
      <trkpt lat="43.80959" lon="7.25489">
        <ele>595.19000244141</ele>
        <time>2010-07-31T16:56:35Z</time>
      </trkpt>
      <trkpt lat="43.80985" lon="7.25514">
        <ele>596.64001464844</ele>
        <time>2010-07-31T16:56:49Z</time>
      </trkpt>
      <trkpt lat="43.81006" lon="7.25549">
        <ele>597.11999511719</ele>
        <time>2010-07-31T16:57:03Z</time>
      </trkpt>
      <trkpt lat="43.81037" lon="7.25593">
        <ele>599.03997802734</ele>
        <time>2010-07-31T16:57:22Z</time>
      </trkpt>
      <trkpt lat="43.81069" lon="7.2559">
        <ele>600.96002197266</ele>
        <time>2010-07-31T16:57:37Z</time>
      </trkpt>
      <trkpt lat="43.81102" lon="7.25567">
        <ele>600.96002197266</ele>
        <time>2010-07-31T16:57:53Z</time>
      </trkpt>
      <trkpt lat="43.81131" lon="7.25561">
        <ele>601.44000244141</ele>
        <time>2010-07-31T16:58:06Z</time>
      </trkpt>
      <trkpt lat="43.81149" lon="7.25597">
        <ele>601.91998291016</ele>
        <time>2010-07-31T16:58:19Z</time>
      </trkpt>
      <trkpt lat="43.81171" lon="7.25634">
        <ele>602.88000488281</ele>
        <time>2010-07-31T16:58:34Z</time>
      </trkpt>
      <trkpt lat="43.81198" lon="7.25631">
        <ele>604.80999755859</ele>
        <time>2010-07-31T16:58:46Z</time>
      </trkpt>
      <trkpt lat="43.81225" lon="7.25606">
        <ele>606.25</ele>
        <time>2010-07-31T16:59:02Z</time>
      </trkpt>
      <trkpt lat="43.81252" lon="7.25569">
        <ele>607.21002197266</ele>
        <time>2010-07-31T16:59:17Z</time>
      </trkpt>
      <trkpt lat="43.81277" lon="7.25539">
        <ele>607.21002197266</ele>
        <time>2010-07-31T16:59:31Z</time>
      </trkpt>
      <trkpt lat="43.81299" lon="7.25549">
        <ele>608.65002441406</ele>
        <time>2010-07-31T16:59:41Z</time>
      </trkpt>
      <trkpt lat="43.81329" lon="7.25555">
        <ele>609.13000488281</ele>
        <time>2010-07-31T16:59:54Z</time>
      </trkpt>
      <trkpt lat="43.81351" lon="7.25581">
        <ele>610.57000732422</ele>
        <time>2010-07-31T17:00:07Z</time>
      </trkpt>
      <trkpt lat="43.8136" lon="7.25621">
        <ele>610.09002685547</ele>
        <time>2010-07-31T17:00:19Z</time>
      </trkpt>
      <trkpt lat="43.81371" lon="7.25671">
        <ele>611.53997802734</ele>
        <time>2010-07-31T17:00:34Z</time>
      </trkpt>
      <trkpt lat="43.81387" lon="7.2572">
        <ele>613.94000244141</ele>
        <time>2010-07-31T17:00:49Z</time>
      </trkpt>
      <trkpt lat="43.81412" lon="7.25747">
        <ele>614.41998291016</ele>
        <time>2010-07-31T17:01:02Z</time>
      </trkpt>
      <trkpt lat="43.81424" lon="7.25744">
        <ele>614.41998291016</ele>
        <time>2010-07-31T17:01:07Z</time>
      </trkpt>
      <trkpt lat="43.81429" lon="7.25741">
        <ele>614.90002441406</ele>
        <time>2010-07-31T17:01:09Z</time>
      </trkpt>
      <trkpt lat="43.81452" lon="7.25695">
        <ele>613.94000244141</ele>
        <time>2010-07-31T17:01:24Z</time>
      </trkpt>
      <trkpt lat="43.81467" lon="7.25656">
        <ele>613.94000244141</ele>
        <time>2010-07-31T17:01:37Z</time>
      </trkpt>
      <trkpt lat="43.81486" lon="7.25622">
        <ele>613.94000244141</ele>
        <time>2010-07-31T17:01:50Z</time>
      </trkpt>
      <trkpt lat="43.81512" lon="7.25592">
        <ele>613.46002197266</ele>
        <time>2010-07-31T17:02:04Z</time>
      </trkpt>
      <trkpt lat="43.81532" lon="7.25557">
        <ele>614.41998291016</ele>
        <time>2010-07-31T17:02:16Z</time>
      </trkpt>
      <trkpt lat="43.81547" lon="7.25516">
        <ele>614.90002441406</ele>
        <time>2010-07-31T17:02:29Z</time>
      </trkpt>
      <trkpt lat="43.81562" lon="7.25468">
        <ele>615.38000488281</ele>
        <time>2010-07-31T17:02:44Z</time>
      </trkpt>
      <trkpt lat="43.81584" lon="7.25433">
        <ele>615.85998535156</ele>
        <time>2010-07-31T17:02:57Z</time>
      </trkpt>
      <trkpt lat="43.81614" lon="7.2542">
        <ele>616.82000732422</ele>
        <time>2010-07-31T17:03:10Z</time>
      </trkpt>
      <trkpt lat="43.81651" lon="7.25439">
        <ele>616.82000732422</ele>
        <time>2010-07-31T17:03:26Z</time>
      </trkpt>
      <trkpt lat="43.81694" lon="7.25463">
        <ele>616.34002685547</ele>
        <time>2010-07-31T17:03:44Z</time>
      </trkpt>
      <trkpt lat="43.81706" lon="7.25462">
        <ele>615.85998535156</ele>
        <time>2010-07-31T17:03:49Z</time>
      </trkpt>
      <trkpt lat="43.8171" lon="7.25453">
        <ele>615.38000488281</ele>
        <time>2010-07-31T17:04:05Z</time>
      </trkpt>
      <trkpt lat="43.81711" lon="7.25453">
        <ele>615.38000488281</ele>
        <time>2010-07-31T17:04:30Z</time>
      </trkpt>
      <trkpt lat="43.8171" lon="7.25456">
        <ele>615.85998535156</ele>
        <time>2010-07-31T17:04:41Z</time>
      </trkpt>
      <trkpt lat="43.81705" lon="7.25455">
        <ele>617.29998779297</ele>
        <time>2010-07-31T17:04:46Z</time>
      </trkpt>
      <trkpt lat="43.81695" lon="7.25445">
        <ele>620.66998291016</ele>
        <time>2010-07-31T17:04:56Z</time>
      </trkpt>
      <trkpt lat="43.81682" lon="7.25432">
        <ele>621.15002441406</ele>
        <time>2010-07-31T17:05:10Z</time>
      </trkpt>
      <trkpt lat="43.81665" lon="7.25416">
        <ele>624.03002929688</ele>
        <time>2010-07-31T17:05:29Z</time>
      </trkpt>
      <trkpt lat="43.81662" lon="7.25413">
        <ele>624.98999023438</ele>
        <time>2010-07-31T17:05:32Z</time>
      </trkpt>
      <trkpt lat="43.81652" lon="7.25403">
        <ele>626.91998291016</ele>
        <time>2010-07-31T17:05:43Z</time>
      </trkpt>
      <trkpt lat="43.81634" lon="7.2539">
        <ele>629.79998779297</ele>
        <time>2010-07-31T17:06:01Z</time>
      </trkpt>
      <trkpt lat="43.8163" lon="7.25387">
        <ele>631.23999023438</ele>
        <time>2010-07-31T17:06:05Z</time>
      </trkpt>
      <trkpt lat="43.81618" lon="7.2538">
        <ele>634.13000488281</ele>
        <time>2010-07-31T17:06:18Z</time>
      </trkpt>
      <trkpt lat="43.81609" lon="7.25365">
        <ele>637.48999023438</ele>
        <time>2010-07-31T17:06:33Z</time>
      </trkpt>
      <trkpt lat="43.81603" lon="7.2536">
        <ele>640.38000488281</ele>
        <time>2010-07-31T17:06:42Z</time>
      </trkpt>
      <trkpt lat="43.81594" lon="7.25357">
        <ele>643.26000976562</ele>
        <time>2010-07-31T17:06:56Z</time>
      </trkpt>
      <trkpt lat="43.81586" lon="7.25353">
        <ele>646.61999511719</ele>
        <time>2010-07-31T17:07:09Z</time>
      </trkpt>
      <trkpt lat="43.81578" lon="7.25346">
        <ele>649.98999023438</ele>
        <time>2010-07-31T17:07:23Z</time>
      </trkpt>
      <trkpt lat="43.81571" lon="7.25341">
        <ele>651.90997314453</ele>
        <time>2010-07-31T17:07:34Z</time>
      </trkpt>
      <trkpt lat="43.81562" lon="7.2534">
        <ele>653.83001708984</ele>
        <time>2010-07-31T17:07:43Z</time>
      </trkpt>
      <trkpt lat="43.81539" lon="7.25343">
        <ele>654.79998779297</ele>
        <time>2010-07-31T17:08:00Z</time>
      </trkpt>
      <trkpt lat="43.81521" lon="7.25352">
        <ele>658.15997314453</ele>
        <time>2010-07-31T17:08:15Z</time>
      </trkpt>
      <trkpt lat="43.81512" lon="7.25358">
        <ele>661.52001953125</ele>
        <time>2010-07-31T17:08:29Z</time>
      </trkpt>
      <trkpt lat="43.81502" lon="7.25364">
        <ele>664.40997314453</ele>
        <time>2010-07-31T17:08:43Z</time>
      </trkpt>
      <trkpt lat="43.815" lon="7.25364">
        <ele>665.36999511719</ele>
        <time>2010-07-31T17:08:45Z</time>
      </trkpt>
      <trkpt lat="43.81489" lon="7.25371">
        <ele>668.72998046875</ele>
        <time>2010-07-31T17:08:59Z</time>
      </trkpt>
      <trkpt lat="43.81478" lon="7.25376">
        <ele>672.09997558594</ele>
        <time>2010-07-31T17:09:13Z</time>
      </trkpt>
      <trkpt lat="43.81464" lon="7.25383">
        <ele>674.02001953125</ele>
        <time>2010-07-31T17:09:28Z</time>
      </trkpt>
      <trkpt lat="43.81461" lon="7.25384">
        <ele>675.46002197266</ele>
        <time>2010-07-31T17:09:31Z</time>
      </trkpt>
      <trkpt lat="43.8144" lon="7.25394">
        <ele>676.90997314453</ele>
        <time>2010-07-31T17:09:49Z</time>
      </trkpt>
      <trkpt lat="43.81409" lon="7.25394">
        <ele>674.02001953125</ele>
        <time>2010-07-31T17:10:02Z</time>
      </trkpt>
      <trkpt lat="43.814" lon="7.25393">
        <ele>672.58001708984</ele>
        <time>2010-07-31T17:10:05Z</time>
      </trkpt>
      <trkpt lat="43.81383" lon="7.25391">
        <ele>670.65997314453</ele>
        <time>2010-07-31T17:10:11Z</time>
      </trkpt>
      <trkpt lat="43.81347" lon="7.25385">
        <ele>669.21997070312</ele>
        <time>2010-07-31T17:10:25Z</time>
      </trkpt>
      <trkpt lat="43.81309" lon="7.25375">
        <ele>671.14001464844</ele>
        <time>2010-07-31T17:10:41Z</time>
      </trkpt>
      <trkpt lat="43.8129" lon="7.25365">
        <ele>674.5</ele>
        <time>2010-07-31T17:10:57Z</time>
      </trkpt>
      <trkpt lat="43.81274" lon="7.25359">
        <ele>677.86999511719</ele>
        <time>2010-07-31T17:11:15Z</time>
      </trkpt>
      <trkpt lat="43.81262" lon="7.25351">
        <ele>681.22998046875</ele>
        <time>2010-07-31T17:11:30Z</time>
      </trkpt>
      <trkpt lat="43.81259" lon="7.25349">
        <ele>682.19000244141</ele>
        <time>2010-07-31T17:11:35Z</time>
      </trkpt>
      <trkpt lat="43.8125" lon="7.25345">
        <ele>685.08001708984</ele>
        <time>2010-07-31T17:11:46Z</time>
      </trkpt>
      <trkpt lat="43.81237" lon="7.25346">
        <ele>687.47998046875</ele>
        <time>2010-07-31T17:11:58Z</time>
      </trkpt>
      <trkpt lat="43.81231" lon="7.25344">
        <ele>688.91998291016</ele>
        <time>2010-07-31T17:12:06Z</time>
      </trkpt>
      <trkpt lat="43.81211" lon="7.25338">
        <ele>691.33001708984</ele>
        <time>2010-07-31T17:12:22Z</time>
      </trkpt>
      <trkpt lat="43.81189" lon="7.25329">
        <ele>692.77001953125</ele>
        <time>2010-07-31T17:12:40Z</time>
      </trkpt>
      <trkpt lat="43.81167" lon="7.25312">
        <ele>695.16998291016</ele>
        <time>2010-07-31T17:12:58Z</time>
      </trkpt>
      <trkpt lat="43.81149" lon="7.25294">
        <ele>698.53002929688</ele>
        <time>2010-07-31T17:13:15Z</time>
      </trkpt>
      <trkpt lat="43.81135" lon="7.25286">
        <ele>700.46002197266</ele>
        <time>2010-07-31T17:13:27Z</time>
      </trkpt>
      <trkpt lat="43.81116" lon="7.25278">
        <ele>702.85998535156</ele>
        <time>2010-07-31T17:13:45Z</time>
      </trkpt>
      <trkpt lat="43.81106" lon="7.25266">
        <ele>706.22998046875</ele>
        <time>2010-07-31T17:13:57Z</time>
      </trkpt>
      <trkpt lat="43.81101" lon="7.2526">
        <ele>707.19000244141</ele>
        <time>2010-07-31T17:14:02Z</time>
      </trkpt>
      <trkpt lat="43.81094" lon="7.25258">
        <ele>708.63000488281</ele>
        <time>2010-07-31T17:14:09Z</time>
      </trkpt>
      <trkpt lat="43.81081" lon="7.25248">
        <ele>712.46997070312</ele>
        <time>2010-07-31T17:14:23Z</time>
      </trkpt>
      <trkpt lat="43.81065" lon="7.25242">
        <ele>715.84002685547</ele>
        <time>2010-07-31T17:14:40Z</time>
      </trkpt>
      <trkpt lat="43.81049" lon="7.25222">
        <ele>717.76000976562</ele>
        <time>2010-07-31T17:14:57Z</time>
      </trkpt>
      <trkpt lat="43.81033" lon="7.252">
        <ele>718.71997070312</ele>
        <time>2010-07-31T17:15:13Z</time>
      </trkpt>
      <trkpt lat="43.8102" lon="7.25178">
        <ele>719.67999267578</ele>
        <time>2010-07-31T17:15:23Z</time>
      </trkpt>
      <trkpt lat="43.80999" lon="7.25149">
        <ele>720.15997314453</ele>
        <time>2010-07-31T17:15:37Z</time>
      </trkpt>
      <trkpt lat="43.80985" lon="7.25128">
        <ele>723.04998779297</ele>
        <time>2010-07-31T17:15:52Z</time>
      </trkpt>
      <trkpt lat="43.80967" lon="7.25109">
        <ele>726.40997314453</ele>
        <time>2010-07-31T17:16:11Z</time>
      </trkpt>
      <trkpt lat="43.80951" lon="7.25098">
        <ele>729.29998779297</ele>
        <time>2010-07-31T17:16:29Z</time>
      </trkpt>
      <trkpt lat="43.80928" lon="7.25082">
        <ele>732.17999267578</ele>
        <time>2010-07-31T17:16:48Z</time>
      </trkpt>
      <trkpt lat="43.80907" lon="7.25077">
        <ele>733.14001464844</ele>
        <time>2010-07-31T17:17:03Z</time>
      </trkpt>
      <trkpt lat="43.80885" lon="7.25072">
        <ele>733.61999511719</ele>
        <time>2010-07-31T17:17:18Z</time>
      </trkpt>
      <trkpt lat="43.8086" lon="7.25061">
        <ele>735.07000732422</ele>
        <time>2010-07-31T17:17:35Z</time>
      </trkpt>
      <trkpt lat="43.80849" lon="7.25046">
        <ele>737.95001220703</ele>
        <time>2010-07-31T17:17:48Z</time>
      </trkpt>
      <trkpt lat="43.80838" lon="7.25042">
        <ele>737.95001220703</ele>
        <time>2010-07-31T17:17:58Z</time>
      </trkpt>
      <trkpt lat="43.80833" lon="7.25066">
        <ele>741.30999755859</ele>
        <time>2010-07-31T17:18:11Z</time>
      </trkpt>
      <trkpt lat="43.80818" lon="7.25085">
        <ele>742.28002929688</ele>
        <time>2010-07-31T17:18:27Z</time>
      </trkpt>
      <trkpt lat="43.80791" lon="7.25108">
        <ele>744.20001220703</ele>
        <time>2010-07-31T17:18:42Z</time>
      </trkpt>
      <trkpt lat="43.80758" lon="7.25117">
        <ele>740.83001708984</ele>
        <time>2010-07-31T17:18:54Z</time>
      </trkpt>
      <trkpt lat="43.80755" lon="7.25116">
        <ele>740.34997558594</ele>
        <time>2010-07-31T17:18:55Z</time>
      </trkpt>
      <trkpt lat="43.80711" lon="7.25107">
        <ele>736.51000976562</ele>
        <time>2010-07-31T17:19:10Z</time>
      </trkpt>
      <trkpt lat="43.80699" lon="7.25104">
        <ele>736.51000976562</ele>
        <time>2010-07-31T17:19:14Z</time>
      </trkpt>
      <trkpt lat="43.80689" lon="7.25103">
        <ele>735.07000732422</ele>
        <time>2010-07-31T17:19:18Z</time>
      </trkpt>
      <trkpt lat="43.80683" lon="7.25104">
        <ele>734.09997558594</ele>
        <time>2010-07-31T17:19:20Z</time>
      </trkpt>
      <trkpt lat="43.80648" lon="7.25107">
        <ele>735.54998779297</ele>
        <time>2010-07-31T17:19:33Z</time>
      </trkpt>
      <trkpt lat="43.80642" lon="7.25109">
        <ele>736.98999023438</ele>
        <time>2010-07-31T17:19:36Z</time>
      </trkpt>
      <trkpt lat="43.80618" lon="7.25121">
        <ele>736.51000976562</ele>
        <time>2010-07-31T17:19:47Z</time>
      </trkpt>
      <trkpt lat="43.80585" lon="7.25126">
        <ele>735.07000732422</ele>
        <time>2010-07-31T17:19:59Z</time>
      </trkpt>
      <trkpt lat="43.80542" lon="7.25128">
        <ele>731.70001220703</ele>
        <time>2010-07-31T17:20:13Z</time>
      </trkpt>
      <trkpt lat="43.8051" lon="7.25134">
        <ele>731.70001220703</ele>
        <time>2010-07-31T17:20:25Z</time>
      </trkpt>
      <trkpt lat="43.80481" lon="7.25142">
        <ele>733.14001464844</ele>
        <time>2010-07-31T17:20:37Z</time>
      </trkpt>
      <trkpt lat="43.80445" lon="7.25155">
        <ele>732.65997314453</ele>
        <time>2010-07-31T17:20:52Z</time>
      </trkpt>
      <trkpt lat="43.80409" lon="7.25167">
        <ele>728.82000732422</ele>
        <time>2010-07-31T17:21:08Z</time>
      </trkpt>
      <trkpt lat="43.80405" lon="7.25168">
        <ele>729.78002929688</ele>
        <time>2010-07-31T17:21:12Z</time>
      </trkpt>
      <trkpt lat="43.80382" lon="7.25172">
        <ele>725.92999267578</ele>
        <time>2010-07-31T17:21:22Z</time>
      </trkpt>
      <trkpt lat="43.8038" lon="7.25172">
        <ele>725.92999267578</ele>
        <time>2010-07-31T17:21:23Z</time>
      </trkpt>
      <trkpt lat="43.80362" lon="7.25175">
        <ele>723.04998779297</ele>
        <time>2010-07-31T17:21:29Z</time>
      </trkpt>
      <trkpt lat="43.80337" lon="7.25174">
        <ele>720.65002441406</ele>
        <time>2010-07-31T17:21:37Z</time>
      </trkpt>
      <trkpt lat="43.80325" lon="7.25172">
        <ele>719.20001220703</ele>
        <time>2010-07-31T17:21:41Z</time>
      </trkpt>
      <trkpt lat="43.8029" lon="7.25156">
        <ele>718.23999023438</ele>
        <time>2010-07-31T17:21:54Z</time>
      </trkpt>
      <trkpt lat="43.80269" lon="7.25135">
        <ele>719.67999267578</ele>
        <time>2010-07-31T17:22:04Z</time>
      </trkpt>
      <trkpt lat="43.80249" lon="7.25108">
        <ele>719.67999267578</ele>
        <time>2010-07-31T17:22:16Z</time>
      </trkpt>
      <trkpt lat="43.8022" lon="7.25069">
        <ele>718.71997070312</ele>
        <time>2010-07-31T17:22:32Z</time>
      </trkpt>
      <trkpt lat="43.80199" lon="7.25025">
        <ele>717.28002929688</ele>
        <time>2010-07-31T17:22:48Z</time>
      </trkpt>
      <trkpt lat="43.80198" lon="7.25023">
        <ele>716.32000732422</ele>
        <time>2010-07-31T17:22:49Z</time>
      </trkpt>
      <trkpt lat="43.80189" lon="7.25012">
        <ele>713.44000244141</ele>
        <time>2010-07-31T17:22:53Z</time>
      </trkpt>
      <trkpt lat="43.80179" lon="7.25">
        <ele>711.51000976562</ele>
        <time>2010-07-31T17:22:57Z</time>
      </trkpt>
      <trkpt lat="43.80168" lon="7.24988">
        <ele>709.10998535156</ele>
        <time>2010-07-31T17:23:03Z</time>
      </trkpt>
      <trkpt lat="43.80151" lon="7.24983">
        <ele>705.75</ele>
        <time>2010-07-31T17:23:10Z</time>
      </trkpt>
      <trkpt lat="43.80123" lon="7.24971">
        <ele>705.75</ele>
        <time>2010-07-31T17:23:22Z</time>
      </trkpt>
      <trkpt lat="43.80109" lon="7.24941">
        <ele>706.22998046875</ele>
        <time>2010-07-31T17:23:33Z</time>
      </trkpt>
      <trkpt lat="43.80097" lon="7.24923">
        <ele>704.78002929688</ele>
        <time>2010-07-31T17:23:40Z</time>
      </trkpt>
      <trkpt lat="43.80085" lon="7.24887">
        <ele>701.41998291016</ele>
        <time>2010-07-31T17:23:51Z</time>
      </trkpt>
      <trkpt lat="43.80082" lon="7.2488">
        <ele>700.94000244141</ele>
        <time>2010-07-31T17:23:53Z</time>
      </trkpt>
      <trkpt lat="43.80075" lon="7.24835">
        <ele>700.94000244141</ele>
        <time>2010-07-31T17:24:06Z</time>
      </trkpt>
      <trkpt lat="43.80077" lon="7.24801">
        <ele>698.04998779297</ele>
        <time>2010-07-31T17:24:16Z</time>
      </trkpt>
      <trkpt lat="43.80075" lon="7.24782">
        <ele>695.65002441406</ele>
        <time>2010-07-31T17:24:22Z</time>
      </trkpt>
      <trkpt lat="43.80065" lon="7.24739">
        <ele>692.28997802734</ele>
        <time>2010-07-31T17:24:36Z</time>
      </trkpt>
      <trkpt lat="43.80061" lon="7.24721">
        <ele>689.40002441406</ele>
        <time>2010-07-31T17:24:42Z</time>
      </trkpt>
      <trkpt lat="43.80058" lon="7.24712">
        <ele>687</ele>
        <time>2010-07-31T17:24:45Z</time>
      </trkpt>
      <trkpt lat="43.80045" lon="7.2469">
        <ele>684.59997558594</ele>
        <time>2010-07-31T17:24:54Z</time>
      </trkpt>
      <trkpt lat="43.80043" lon="7.24679">
        <ele>684.59997558594</ele>
        <time>2010-07-31T17:24:57Z</time>
      </trkpt>
      <trkpt lat="43.80034" lon="7.24676">
        <ele>685.55999755859</ele>
        <time>2010-07-31T17:25:02Z</time>
      </trkpt>
      <trkpt lat="43.80026" lon="7.24685">
        <ele>686.03997802734</ele>
        <time>2010-07-31T17:25:06Z</time>
      </trkpt>
      <trkpt lat="43.80017" lon="7.24683">
        <ele>687.47998046875</ele>
        <time>2010-07-31T17:25:11Z</time>
      </trkpt>
      <trkpt lat="43.8" lon="7.24687">
        <ele>690.35998535156</ele>
        <time>2010-07-31T17:25:25Z</time>
      </trkpt>
      <trkpt lat="43.79999" lon="7.24687">
        <ele>690.84002685547</ele>
        <time>2010-07-31T17:25:26Z</time>
      </trkpt>
      <trkpt lat="43.79994" lon="7.24688">
        <ele>691.33001708984</ele>
        <time>2010-07-31T17:25:30Z</time>
      </trkpt>
      <trkpt lat="43.79989" lon="7.24688">
        <ele>691.80999755859</ele>
        <time>2010-07-31T17:25:34Z</time>
      </trkpt>
      <trkpt lat="43.79967" lon="7.2469">
        <ele>692.28997802734</ele>
        <time>2010-07-31T17:25:51Z</time>
      </trkpt>
      <trkpt lat="43.79948" lon="7.24695">
        <ele>696.13000488281</ele>
        <time>2010-07-31T17:26:06Z</time>
      </trkpt>
      <trkpt lat="43.7993" lon="7.24703">
        <ele>697.09002685547</ele>
        <time>2010-07-31T17:26:22Z</time>
      </trkpt>
      <trkpt lat="43.79908" lon="7.24711">
        <ele>699.5</ele>
        <time>2010-07-31T17:26:38Z</time>
      </trkpt>
      <trkpt lat="43.79887" lon="7.24716">
        <ele>702.85998535156</ele>
        <time>2010-07-31T17:26:53Z</time>
      </trkpt>
      <trkpt lat="43.79864" lon="7.24724">
        <ele>704.29998779297</ele>
        <time>2010-07-31T17:27:12Z</time>
      </trkpt>
      <trkpt lat="43.7984" lon="7.24744">
        <ele>707.66998291016</ele>
        <time>2010-07-31T17:27:32Z</time>
      </trkpt>
      <trkpt lat="43.79822" lon="7.24757">
        <ele>709.59002685547</ele>
        <time>2010-07-31T17:27:48Z</time>
      </trkpt>
      <trkpt lat="43.79819" lon="7.24758">
        <ele>710.54998779297</ele>
        <time>2010-07-31T17:27:51Z</time>
      </trkpt>
      <trkpt lat="43.79815" lon="7.24758">
        <ele>710.54998779297</ele>
        <time>2010-07-31T17:27:55Z</time>
      </trkpt>
      <trkpt lat="43.79787" lon="7.24777">
        <ele>710.54998779297</ele>
        <time>2010-07-31T17:28:14Z</time>
      </trkpt>
      <trkpt lat="43.79755" lon="7.24789">
        <ele>708.15002441406</ele>
        <time>2010-07-31T17:28:28Z</time>
      </trkpt>
      <trkpt lat="43.79744" lon="7.24794">
        <ele>706.71002197266</ele>
        <time>2010-07-31T17:28:32Z</time>
      </trkpt>
      <trkpt lat="43.79728" lon="7.24806">
        <ele>704.78002929688</ele>
        <time>2010-07-31T17:28:38Z</time>
      </trkpt>
      <trkpt lat="43.79697" lon="7.2484">
        <ele>701.41998291016</ele>
        <time>2010-07-31T17:28:51Z</time>
      </trkpt>
      <trkpt lat="43.79693" lon="7.24845">
        <ele>700.94000244141</ele>
        <time>2010-07-31T17:28:53Z</time>
      </trkpt>
      <trkpt lat="43.79672" lon="7.24869">
        <ele>697.57000732422</ele>
        <time>2010-07-31T17:29:02Z</time>
      </trkpt>
      <trkpt lat="43.79652" lon="7.2489">
        <ele>694.69000244141</ele>
        <time>2010-07-31T17:29:10Z</time>
      </trkpt>
      <trkpt lat="43.79646" lon="7.24895">
        <ele>693.72998046875</ele>
        <time>2010-07-31T17:29:12Z</time>
      </trkpt>
      <trkpt lat="43.79613" lon="7.24902">
        <ele>690.35998535156</ele>
        <time>2010-07-31T17:29:22Z</time>
      </trkpt>
      <trkpt lat="43.7961" lon="7.24902">
        <ele>689.88000488281</ele>
        <time>2010-07-31T17:29:23Z</time>
      </trkpt>
      <trkpt lat="43.79569" lon="7.24903">
        <ele>686.52001953125</ele>
        <time>2010-07-31T17:29:36Z</time>
      </trkpt>
      <trkpt lat="43.79525" lon="7.249">
        <ele>684.59997558594</ele>
        <time>2010-07-31T17:29:51Z</time>
      </trkpt>
      <trkpt lat="43.7948" lon="7.24888">
        <ele>682.19000244141</ele>
        <time>2010-07-31T17:30:06Z</time>
      </trkpt>
      <trkpt lat="43.79437" lon="7.24866">
        <ele>681.22998046875</ele>
        <time>2010-07-31T17:30:21Z</time>
      </trkpt>
      <trkpt lat="43.79398" lon="7.24846">
        <ele>680.75</ele>
        <time>2010-07-31T17:30:36Z</time>
      </trkpt>
      <trkpt lat="43.79357" lon="7.24836">
        <ele>681.71002197266</ele>
        <time>2010-07-31T17:30:52Z</time>
      </trkpt>
      <trkpt lat="43.7935" lon="7.24837">
        <ele>679.30999755859</ele>
        <time>2010-07-31T17:30:55Z</time>
      </trkpt>
      <trkpt lat="43.79335" lon="7.24835">
        <ele>677.39001464844</ele>
        <time>2010-07-31T17:31:00Z</time>
      </trkpt>
      <trkpt lat="43.79301" lon="7.24818">
        <ele>674.97998046875</ele>
        <time>2010-07-31T17:31:13Z</time>
      </trkpt>
      <trkpt lat="43.79288" lon="7.24811">
        <ele>673.53997802734</ele>
        <time>2010-07-31T17:31:18Z</time>
      </trkpt>
      <trkpt lat="43.7927" lon="7.24821">
        <ele>671.61999511719</ele>
        <time>2010-07-31T17:31:27Z</time>
      </trkpt>
      <trkpt lat="43.79234" lon="7.24846">
        <ele>670.17999267578</ele>
        <time>2010-07-31T17:31:42Z</time>
      </trkpt>
      <trkpt lat="43.79211" lon="7.24873">
        <ele>671.14001464844</ele>
        <time>2010-07-31T17:31:56Z</time>
      </trkpt>
      <trkpt lat="43.79207" lon="7.24879">
        <ele>671.14001464844</ele>
        <time>2010-07-31T17:31:59Z</time>
      </trkpt>
      <trkpt lat="43.79205" lon="7.24894">
        <ele>669.70001220703</ele>
        <time>2010-07-31T17:32:05Z</time>
      </trkpt>
      <trkpt lat="43.79208" lon="7.24911">
        <ele>666.33001708984</ele>
        <time>2010-07-31T17:32:12Z</time>
      </trkpt>
      <trkpt lat="43.79201" lon="7.24927">
        <ele>663.92999267578</ele>
        <time>2010-07-31T17:32:18Z</time>
      </trkpt>
      <trkpt lat="43.79201" lon="7.2493">
        <ele>662.01000976562</ele>
        <time>2010-07-31T17:32:20Z</time>
      </trkpt>
      <trkpt lat="43.79205" lon="7.24932">
        <ele>660.08001708984</ele>
        <time>2010-07-31T17:32:24Z</time>
      </trkpt>
      <trkpt lat="43.79213" lon="7.2493">
        <ele>658.15997314453</ele>
        <time>2010-07-31T17:32:28Z</time>
      </trkpt>
      <trkpt lat="43.79216" lon="7.24933">
        <ele>656.71997070312</ele>
        <time>2010-07-31T17:32:32Z</time>
      </trkpt>
      <trkpt lat="43.79216" lon="7.24935">
        <ele>655.76000976562</ele>
        <time>2010-07-31T17:32:33Z</time>
      </trkpt>
      <trkpt lat="43.79214" lon="7.24945">
        <ele>652.86999511719</ele>
        <time>2010-07-31T17:32:38Z</time>
      </trkpt>
      <trkpt lat="43.79218" lon="7.24945">
        <ele>651.42999267578</ele>
        <time>2010-07-31T17:32:42Z</time>
      </trkpt>
      <trkpt lat="43.79222" lon="7.24944">
        <ele>651.42999267578</ele>
        <time>2010-07-31T17:32:44Z</time>
      </trkpt>
      <trkpt lat="43.79232" lon="7.24942">
        <ele>649.51000976562</ele>
        <time>2010-07-31T17:32:49Z</time>
      </trkpt>
      <trkpt lat="43.79234" lon="7.24942">
        <ele>648.54998779297</ele>
        <time>2010-07-31T17:32:51Z</time>
      </trkpt>
      <trkpt lat="43.79237" lon="7.24943">
        <ele>648.54998779297</ele>
        <time>2010-07-31T17:32:53Z</time>
      </trkpt>
      <trkpt lat="43.79245" lon="7.24946">
        <ele>643.73999023438</ele>
        <time>2010-07-31T17:32:58Z</time>
      </trkpt>
      <trkpt lat="43.79247" lon="7.24947">
        <ele>643.73999023438</ele>
        <time>2010-07-31T17:32:59Z</time>
      </trkpt>
      <trkpt lat="43.79251" lon="7.24949">
        <ele>642.29998779297</ele>
        <time>2010-07-31T17:33:02Z</time>
      </trkpt>
      <trkpt lat="43.79255" lon="7.24958">
        <ele>638.45001220703</ele>
        <time>2010-07-31T17:33:07Z</time>
      </trkpt>
      <trkpt lat="43.79261" lon="7.24978">
        <ele>634.13000488281</ele>
        <time>2010-07-31T17:33:15Z</time>
      </trkpt>
      <trkpt lat="43.79262" lon="7.24981">
        <ele>633.16998291016</ele>
        <time>2010-07-31T17:33:17Z</time>
      </trkpt>
      <trkpt lat="43.79263" lon="7.24982">
        <ele>632.20001220703</ele>
        <time>2010-07-31T17:33:18Z</time>
      </trkpt>
      <trkpt lat="43.79268" lon="7.24983">
        <ele>629.79998779297</ele>
        <time>2010-07-31T17:33:23Z</time>
      </trkpt>
      <trkpt lat="43.79269" lon="7.24988">
        <ele>628.35998535156</ele>
        <time>2010-07-31T17:33:26Z</time>
      </trkpt>
      <trkpt lat="43.79269" lon="7.24992">
        <ele>626.91998291016</ele>
        <time>2010-07-31T17:33:28Z</time>
      </trkpt>
      <trkpt lat="43.79269" lon="7.25">
        <ele>625.46997070312</ele>
        <time>2010-07-31T17:33:31Z</time>
      </trkpt>
      <trkpt lat="43.79259" lon="7.25019">
        <ele>624.98999023438</ele>
        <time>2010-07-31T17:33:39Z</time>
      </trkpt>
      <trkpt lat="43.79249" lon="7.25025">
        <ele>624.51000976562</ele>
        <time>2010-07-31T17:33:43Z</time>
      </trkpt>
      <trkpt lat="43.79236" lon="7.25031">
        <ele>623.07000732422</ele>
        <time>2010-07-31T17:33:49Z</time>
      </trkpt>
      <trkpt lat="43.79209" lon="7.25045">
        <ele>621.63000488281</ele>
        <time>2010-07-31T17:34:02Z</time>
      </trkpt>
      <trkpt lat="43.792" lon="7.25059">
        <ele>619.22998046875</ele>
        <time>2010-07-31T17:34:08Z</time>
      </trkpt>
      <trkpt lat="43.79182" lon="7.25081">
        <ele>617.29998779297</ele>
        <time>2010-07-31T17:34:18Z</time>
      </trkpt>
      <trkpt lat="43.79179" lon="7.2509">
        <ele>615.85998535156</ele>
        <time>2010-07-31T17:34:21Z</time>
      </trkpt>
      <trkpt lat="43.79163" lon="7.25122">
        <ele>612.97998046875</ele>
        <time>2010-07-31T17:34:33Z</time>
      </trkpt>
      <trkpt lat="43.79153" lon="7.25146">
        <ele>611.05999755859</ele>
        <time>2010-07-31T17:34:40Z</time>
      </trkpt>
      <trkpt lat="43.7915" lon="7.25152">
        <ele>609.60998535156</ele>
        <time>2010-07-31T17:34:43Z</time>
      </trkpt>
      <trkpt lat="43.79146" lon="7.25159">
        <ele>608.65002441406</ele>
        <time>2010-07-31T17:34:46Z</time>
      </trkpt>
      <trkpt lat="43.7914" lon="7.25167">
        <ele>608.16998291016</ele>
        <time>2010-07-31T17:34:50Z</time>
      </trkpt>
      <trkpt lat="43.79141" lon="7.25171">
        <ele>606.25</ele>
        <time>2010-07-31T17:34:53Z</time>
      </trkpt>
      <trkpt lat="43.7914" lon="7.25176">
        <ele>605.28997802734</ele>
        <time>2010-07-31T17:34:55Z</time>
      </trkpt>
      <trkpt lat="43.79139" lon="7.25181">
        <ele>605.28997802734</ele>
        <time>2010-07-31T17:34:57Z</time>
      </trkpt>
      <trkpt lat="43.7913" lon="7.25204">
        <ele>601.91998291016</ele>
        <time>2010-07-31T17:35:04Z</time>
      </trkpt>
      <trkpt lat="43.79121" lon="7.25215">
        <ele>600</ele>
        <time>2010-07-31T17:35:09Z</time>
      </trkpt>
      <trkpt lat="43.79113" lon="7.25222">
        <ele>599.52001953125</ele>
        <time>2010-07-31T17:35:14Z</time>
      </trkpt>
      <trkpt lat="43.7911" lon="7.25226">
        <ele>598.08001708984</ele>
        <time>2010-07-31T17:35:16Z</time>
      </trkpt>
      <trkpt lat="43.7909" lon="7.2524">
        <ele>596.15002441406</ele>
        <time>2010-07-31T17:35:27Z</time>
      </trkpt>
      <trkpt lat="43.79081" lon="7.25237">
        <ele>594.71002197266</ele>
        <time>2010-07-31T17:35:32Z</time>
      </trkpt>
      <trkpt lat="43.79074" lon="7.25239">
        <ele>595.19000244141</ele>
        <time>2010-07-31T17:35:35Z</time>
      </trkpt>
      <trkpt lat="43.79063" lon="7.25233">
        <ele>596.15002441406</ele>
        <time>2010-07-31T17:35:40Z</time>
      </trkpt>
      <trkpt lat="43.79059" lon="7.25226">
        <ele>596.15002441406</ele>
        <time>2010-07-31T17:35:42Z</time>
      </trkpt>
      <trkpt lat="43.79044" lon="7.25201">
        <ele>596.15002441406</ele>
        <time>2010-07-31T17:35:52Z</time>
      </trkpt>
      <trkpt lat="43.79042" lon="7.25196">
        <ele>595.66998291016</ele>
        <time>2010-07-31T17:35:54Z</time>
      </trkpt>
      <trkpt lat="43.79039" lon="7.25192">
        <ele>595.19000244141</ele>
        <time>2010-07-31T17:35:56Z</time>
      </trkpt>
      <trkpt lat="43.79026" lon="7.25166">
        <ele>591.83001708984</ele>
        <time>2010-07-31T17:36:06Z</time>
      </trkpt>
      <trkpt lat="43.79007" lon="7.25139">
        <ele>590.86999511719</ele>
        <time>2010-07-31T17:36:17Z</time>
      </trkpt>
      <trkpt lat="43.78989" lon="7.25106">
        <ele>592.78997802734</ele>
        <time>2010-07-31T17:36:30Z</time>
      </trkpt>
      <trkpt lat="43.78966" lon="7.25061">
        <ele>593.27001953125</ele>
        <time>2010-07-31T17:36:45Z</time>
      </trkpt>
      <trkpt lat="43.78945" lon="7.25035">
        <ele>592.30999755859</ele>
        <time>2010-07-31T17:36:58Z</time>
      </trkpt>
      <trkpt lat="43.7894" lon="7.25036">
        <ele>592.78997802734</ele>
        <time>2010-07-31T17:37:00Z</time>
      </trkpt>
      <trkpt lat="43.789" lon="7.25047">
        <ele>592.78997802734</ele>
        <time>2010-07-31T17:37:15Z</time>
      </trkpt>
      <trkpt lat="43.78864" lon="7.25055">
        <ele>592.78997802734</ele>
        <time>2010-07-31T17:37:28Z</time>
      </trkpt>
      <trkpt lat="43.78827" lon="7.25056">
        <ele>591.83001708984</ele>
        <time>2010-07-31T17:37:42Z</time>
      </trkpt>
      <trkpt lat="43.78798" lon="7.25048">
        <ele>591.83001708984</ele>
        <time>2010-07-31T17:37:54Z</time>
      </trkpt>
      <trkpt lat="43.78796" lon="7.25047">
        <ele>591.83001708984</ele>
        <time>2010-07-31T17:37:55Z</time>
      </trkpt>
      <trkpt lat="43.78791" lon="7.25029">
        <ele>590.86999511719</ele>
        <time>2010-07-31T17:38:01Z</time>
      </trkpt>
      <trkpt lat="43.78794" lon="7.24984">
        <ele>591.83001708984</ele>
        <time>2010-07-31T17:38:14Z</time>
      </trkpt>
      <trkpt lat="43.78793" lon="7.24941">
        <ele>593.27001953125</ele>
        <time>2010-07-31T17:38:26Z</time>
      </trkpt>
      <trkpt lat="43.78809" lon="7.249">
        <ele>594.71002197266</ele>
        <time>2010-07-31T17:38:39Z</time>
      </trkpt>
      <trkpt lat="43.78815" lon="7.24866">
        <ele>593.27001953125</ele>
        <time>2010-07-31T17:38:50Z</time>
      </trkpt>
      <trkpt lat="43.78816" lon="7.24856">
        <ele>592.78997802734</ele>
        <time>2010-07-31T17:38:52Z</time>
      </trkpt>
      <trkpt lat="43.78817" lon="7.24825">
        <ele>590.39001464844</ele>
        <time>2010-07-31T17:38:59Z</time>
      </trkpt>
      <trkpt lat="43.78826" lon="7.24783">
        <ele>588.95001220703</ele>
        <time>2010-07-31T17:39:10Z</time>
      </trkpt>
      <trkpt lat="43.78837" lon="7.24731">
        <ele>588.46002197266</ele>
        <time>2010-07-31T17:39:24Z</time>
      </trkpt>
      <trkpt lat="43.78848" lon="7.24689">
        <ele>587.97998046875</ele>
        <time>2010-07-31T17:39:36Z</time>
      </trkpt>
      <trkpt lat="43.78857" lon="7.24663">
        <ele>586.53997802734</ele>
        <time>2010-07-31T17:39:44Z</time>
      </trkpt>
      <trkpt lat="43.78851" lon="7.24648">
        <ele>584.14001464844</ele>
        <time>2010-07-31T17:39:50Z</time>
      </trkpt>
      <trkpt lat="43.78843" lon="7.2464">
        <ele>582.21997070312</ele>
        <time>2010-07-31T17:39:53Z</time>
      </trkpt>
      <trkpt lat="43.7882" lon="7.24618">
        <ele>579.33001708984</ele>
        <time>2010-07-31T17:40:01Z</time>
      </trkpt>
      <trkpt lat="43.78817" lon="7.24611">
        <ele>579.33001708984</ele>
        <time>2010-07-31T17:40:03Z</time>
      </trkpt>
      <trkpt lat="43.78818" lon="7.24594">
        <ele>578.84997558594</ele>
        <time>2010-07-31T17:40:08Z</time>
      </trkpt>
      <trkpt lat="43.78835" lon="7.24585">
        <ele>577.40997314453</ele>
        <time>2010-07-31T17:40:13Z</time>
      </trkpt>
      <trkpt lat="43.78844" lon="7.24565">
        <ele>575.01000976562</ele>
        <time>2010-07-31T17:40:19Z</time>
      </trkpt>
      <trkpt lat="43.78839" lon="7.24554">
        <ele>573.08001708984</ele>
        <time>2010-07-31T17:40:22Z</time>
      </trkpt>
      <trkpt lat="43.78825" lon="7.24544">
        <ele>568.76000976562</ele>
        <time>2010-07-31T17:40:26Z</time>
      </trkpt>
      <trkpt lat="43.78822" lon="7.24541">
        <ele>568.76000976562</ele>
        <time>2010-07-31T17:40:27Z</time>
      </trkpt>
      <trkpt lat="43.7881" lon="7.24532">
        <ele>564.90997314453</ele>
        <time>2010-07-31T17:40:31Z</time>
      </trkpt>
      <trkpt lat="43.78807" lon="7.24529">
        <ele>564.42999267578</ele>
        <time>2010-07-31T17:40:32Z</time>
      </trkpt>
      <trkpt lat="43.78801" lon="7.24525">
        <ele>563.46997070312</ele>
        <time>2010-07-31T17:40:34Z</time>
      </trkpt>
      <trkpt lat="43.7878" lon="7.24512">
        <ele>560.59002685547</ele>
        <time>2010-07-31T17:40:40Z</time>
      </trkpt>
      <trkpt lat="43.78776" lon="7.2451">
        <ele>560.59002685547</ele>
        <time>2010-07-31T17:40:41Z</time>
      </trkpt>
      <trkpt lat="43.78767" lon="7.24489">
        <ele>558.65997314453</ele>
        <time>2010-07-31T17:40:46Z</time>
      </trkpt>
      <trkpt lat="43.78765" lon="7.24479">
        <ele>557.21997070312</ele>
        <time>2010-07-31T17:40:48Z</time>
      </trkpt>
      <trkpt lat="43.78757" lon="7.24453">
        <ele>553.85998535156</ele>
        <time>2010-07-31T17:40:54Z</time>
      </trkpt>
      <trkpt lat="43.78752" lon="7.24442">
        <ele>552.40997314453</ele>
        <time>2010-07-31T17:40:57Z</time>
      </trkpt>
      <trkpt lat="43.78734" lon="7.24423">
        <ele>548.57000732422</ele>
        <time>2010-07-31T17:41:04Z</time>
      </trkpt>
      <trkpt lat="43.78731" lon="7.24421">
        <ele>548.57000732422</ele>
        <time>2010-07-31T17:41:05Z</time>
      </trkpt>
      <trkpt lat="43.78718" lon="7.24411">
        <ele>545.69000244141</ele>
        <time>2010-07-31T17:41:10Z</time>
      </trkpt>
      <trkpt lat="43.78697" lon="7.24406">
        <ele>542.79998779297</ele>
        <time>2010-07-31T17:41:18Z</time>
      </trkpt>
      <trkpt lat="43.78687" lon="7.24405">
        <ele>540.88000488281</ele>
        <time>2010-07-31T17:41:21Z</time>
      </trkpt>
      <trkpt lat="43.78667" lon="7.24403">
        <ele>537.51000976562</ele>
        <time>2010-07-31T17:41:27Z</time>
      </trkpt>
      <trkpt lat="43.78659" lon="7.24402">
        <ele>536.07000732422</ele>
        <time>2010-07-31T17:41:30Z</time>
      </trkpt>
      <trkpt lat="43.78641" lon="7.24416">
        <ele>532.71002197266</ele>
        <time>2010-07-31T17:41:36Z</time>
      </trkpt>
      <trkpt lat="43.78633" lon="7.24421">
        <ele>532.22998046875</ele>
        <time>2010-07-31T17:41:38Z</time>
      </trkpt>
      <trkpt lat="43.7863" lon="7.24424">
        <ele>531.27001953125</ele>
        <time>2010-07-31T17:41:39Z</time>
      </trkpt>
      <trkpt lat="43.7861" lon="7.24433">
        <ele>528.38000488281</ele>
        <time>2010-07-31T17:41:44Z</time>
      </trkpt>
      <trkpt lat="43.78593" lon="7.24433">
        <ele>526.46002197266</ele>
        <time>2010-07-31T17:41:49Z</time>
      </trkpt>
      <trkpt lat="43.78577" lon="7.24429">
        <ele>524.05999755859</ele>
        <time>2010-07-31T17:41:53Z</time>
      </trkpt>
      <trkpt lat="43.78569" lon="7.24428">
        <ele>523.58001708984</ele>
        <time>2010-07-31T17:41:55Z</time>
      </trkpt>
      <trkpt lat="43.7853" lon="7.24409">
        <ele>518.28997802734</ele>
        <time>2010-07-31T17:42:04Z</time>
      </trkpt>
      <trkpt lat="43.78509" lon="7.24395">
        <ele>516.84997558594</ele>
        <time>2010-07-31T17:42:10Z</time>
      </trkpt>
      <trkpt lat="43.78502" lon="7.24395">
        <ele>515.88000488281</ele>
        <time>2010-07-31T17:42:12Z</time>
      </trkpt>
      <trkpt lat="43.78494" lon="7.24394">
        <ele>515.88000488281</ele>
        <time>2010-07-31T17:42:14Z</time>
      </trkpt>
      <trkpt lat="43.78485" lon="7.24391">
        <ele>513.47998046875</ele>
        <time>2010-07-31T17:42:16Z</time>
      </trkpt>
      <trkpt lat="43.78474" lon="7.24383">
        <ele>514.44000244141</ele>
        <time>2010-07-31T17:42:22Z</time>
      </trkpt>
    </trkseg>
  </trk>
</gpx>